<?xml version="1.0" encoding="UTF-8" standalone="no" ?>
<gpx xmlns="http://www.topografix.com/GPX/1/1" xmlns:xsi="http://www.w3.org/2001/XMLSchema-instance" xsi:schemaLocation="http://www.topografix.com/GPX/1/1 http://www.topografix.com/GPX/1/1/gpx.xsd" version="1.1" creator="VisuGPX - https://www.visugpx.com">
  <metadata>
    <name>171118 Rando Xettes TSET</name>
    <desc><![CDATA[Rando sympa pour se mettre en forme avant la soirée des 15ans des BTSET]]></desc>
  </metadata>
  <trk>
    <name><![CDATA[Move]]></name>
    <trkseg>
      <trkpt lat="48.07703" lon="6.85977">
        <ele>743</ele>
        <time>2017-11-18T11:01:38.055Z</time>
      </trkpt>
      <trkpt lat="48.07711" lon="6.85973">
        <ele>743</ele>
        <time>2017-11-18T11:01:50.055Z</time>
      </trkpt>
      <trkpt lat="48.07716" lon="6.85969">
        <ele>743</ele>
        <time>2017-11-18T11:01:55.055Z</time>
      </trkpt>
      <trkpt lat="48.07722" lon="6.85962">
        <ele>743</ele>
        <time>2017-11-18T11:02:05.055Z</time>
      </trkpt>
      <trkpt lat="48.07727" lon="6.85956">
        <ele>743</ele>
        <time>2017-11-18T11:02:12.055Z</time>
      </trkpt>
      <trkpt lat="48.07731" lon="6.85949">
        <ele>743</ele>
        <time>2017-11-18T11:02:19.055Z</time>
      </trkpt>
      <trkpt lat="48.07736" lon="6.85942">
        <ele>743.22072497434</ele>
        <time>2017-11-18T11:02:27.055Z</time>
      </trkpt>
      <trkpt lat="48.07744" lon="6.8593">
        <ele>752</ele>
        <time>2017-11-18T11:02:38.055Z</time>
      </trkpt>
      <trkpt lat="48.0775" lon="6.85921">
        <ele>752</ele>
        <time>2017-11-18T11:02:46.055Z</time>
      </trkpt>
      <trkpt lat="48.07755" lon="6.85915">
        <ele>752.61336625005</ele>
        <time>2017-11-18T11:02:53.055Z</time>
      </trkpt>
      <trkpt lat="48.07759" lon="6.85909">
        <ele>753.42366072353</ele>
        <time>2017-11-18T11:02:59.055Z</time>
      </trkpt>
      <trkpt lat="48.07764" lon="6.85901">
        <ele>755.04120698172</ele>
        <time>2017-11-18T11:03:07.055Z</time>
      </trkpt>
      <trkpt lat="48.07769" lon="6.85894">
        <ele>756.64924666557</ele>
        <time>2017-11-18T11:03:15.055Z</time>
      </trkpt>
      <trkpt lat="48.07775" lon="6.85887">
        <ele>755.55621812735</ele>
        <time>2017-11-18T11:03:24.055Z</time>
      </trkpt>
      <trkpt lat="48.07779" lon="6.85882">
        <ele>750.35125246995</ele>
        <time>2017-11-18T11:03:31.055Z</time>
      </trkpt>
      <trkpt lat="48.07783" lon="6.85875">
        <ele>744.37057133858</ele>
        <time>2017-11-18T11:03:38.055Z</time>
      </trkpt>
      <trkpt lat="48.07789" lon="6.85868">
        <ele>746.43750047244</ele>
        <time>2017-11-18T11:03:45.055Z</time>
      </trkpt>
      <trkpt lat="48.07794" lon="6.85861">
        <ele>747</ele>
        <time>2017-11-18T11:03:52.055Z</time>
      </trkpt>
      <trkpt lat="48.07802" lon="6.85852">
        <ele>750.66066044904</ele>
        <time>2017-11-18T11:04:03.055Z</time>
      </trkpt>
      <trkpt lat="48.07806" lon="6.85844">
        <ele>754.84813211766</ele>
        <time>2017-11-18T11:04:13.055Z</time>
      </trkpt>
      <trkpt lat="48.07804" lon="6.85833">
        <ele>756.8315156651</ele>
        <time>2017-11-18T11:04:21.055Z</time>
      </trkpt>
      <trkpt lat="48.07802" lon="6.85824">
        <ele>757.82259625692</ele>
        <time>2017-11-18T11:04:26.055Z</time>
      </trkpt>
      <trkpt lat="48.078" lon="6.85818">
        <ele>759.26091346547</ele>
        <time>2017-11-18T11:04:30.055Z</time>
      </trkpt>
      <trkpt lat="48.07799" lon="6.85812">
        <ele>760.88527947542</ele>
        <time>2017-11-18T11:04:34.055Z</time>
      </trkpt>
      <trkpt lat="48.07804" lon="6.85804">
        <ele>763.05100032</ele>
        <time>2017-11-18T11:04:42.055Z</time>
      </trkpt>
      <trkpt lat="48.0781" lon="6.85808">
        <ele>764.37612447588</ele>
        <time>2017-11-18T11:04:48.055Z</time>
      </trkpt>
      <trkpt lat="48.07816" lon="6.85812">
        <ele>766.17432684894</ele>
        <time>2017-11-18T11:04:54.055Z</time>
      </trkpt>
      <trkpt lat="48.07821" lon="6.85819">
        <ele>768.42758670263</ele>
        <time>2017-11-18T11:05:04.055Z</time>
      </trkpt>
      <trkpt lat="48.07827" lon="6.85823">
        <ele>769.42581333333</ele>
        <time>2017-11-18T11:05:09.055Z</time>
      </trkpt>
      <trkpt lat="48.07832" lon="6.85828">
        <ele>770.44207349594</ele>
        <time>2017-11-18T11:05:14.055Z</time>
      </trkpt>
      <trkpt lat="48.07837" lon="6.85833">
        <ele>771.22173080723</ele>
        <time>2017-11-18T11:05:19.055Z</time>
      </trkpt>
      <trkpt lat="48.07843" lon="6.85838">
        <ele>771.81170149434</ele>
        <time>2017-11-18T11:05:25.055Z</time>
      </trkpt>
      <trkpt lat="48.07849" lon="6.85843">
        <ele>772.83112990238</ele>
        <time>2017-11-18T11:05:31.055Z</time>
      </trkpt>
      <trkpt lat="48.07855" lon="6.85847">
        <ele>774.32037417323</ele>
        <time>2017-11-18T11:05:40.055Z</time>
      </trkpt>
      <trkpt lat="48.07861" lon="6.85857">
        <ele>775.22121230144</ele>
        <time>2017-11-18T11:05:48.055Z</time>
      </trkpt>
      <trkpt lat="48.07868" lon="6.85865">
        <ele>776.63535280139</ele>
        <time>2017-11-18T11:05:55.055Z</time>
      </trkpt>
      <trkpt lat="48.07874" lon="6.85871">
        <ele>777</ele>
        <time>2017-11-18T11:06:01.055Z</time>
      </trkpt>
      <trkpt lat="48.07881" lon="6.85878">
        <ele>777.22899968</ele>
        <time>2017-11-18T11:06:08.055Z</time>
      </trkpt>
      <trkpt lat="48.07888" lon="6.85885">
        <ele>778.62899968</ele>
        <time>2017-11-18T11:06:15.055Z</time>
      </trkpt>
      <trkpt lat="48.07895" lon="6.85892">
        <ele>779.51917289446</ele>
        <time>2017-11-18T11:06:22.055Z</time>
      </trkpt>
      <trkpt lat="48.07901" lon="6.85899">
        <ele>780.44082970204</ele>
        <time>2017-11-18T11:06:29.055Z</time>
      </trkpt>
      <trkpt lat="48.07906" lon="6.85904">
        <ele>781.82149944205</ele>
        <time>2017-11-18T11:06:36.055Z</time>
      </trkpt>
      <trkpt lat="48.07901" lon="6.85897">
        <ele>782</ele>
        <time>2017-11-18T11:06:41.055Z</time>
      </trkpt>
      <trkpt lat="48.079" lon="6.85887">
        <ele>782</ele>
        <time>2017-11-18T11:06:46.055Z</time>
      </trkpt>
      <trkpt lat="48.07901" lon="6.85878">
        <ele>782.51620873318</ele>
        <time>2017-11-18T11:06:52.055Z</time>
      </trkpt>
      <trkpt lat="48.07902" lon="6.85869">
        <ele>783.8224029635</ele>
        <time>2017-11-18T11:07:01.055Z</time>
      </trkpt>
      <trkpt lat="48.07903" lon="6.85861">
        <ele>784.83148437328</ele>
        <time>2017-11-18T11:07:06.055Z</time>
      </trkpt>
      <trkpt lat="48.07903" lon="6.85853">
        <ele>786.85135219977</ele>
        <time>2017-11-18T11:07:13.055Z</time>
      </trkpt>
      <trkpt lat="48.07904" lon="6.85843">
        <ele>788</ele>
        <time>2017-11-18T11:07:20.055Z</time>
      </trkpt>
      <trkpt lat="48.07904" lon="6.85832">
        <ele>788.05100032</ele>
        <time>2017-11-18T11:07:27.055Z</time>
      </trkpt>
      <trkpt lat="48.07905" lon="6.85824">
        <ele>789.25100032</ele>
        <time>2017-11-18T11:07:33.055Z</time>
      </trkpt>
      <trkpt lat="48.07906" lon="6.85816">
        <ele>790.6464747896</ele>
        <time>2017-11-18T11:07:40.055Z</time>
      </trkpt>
      <trkpt lat="48.07906" lon="6.85804">
        <ele>792.1173266486</ele>
        <time>2017-11-18T11:07:48.055Z</time>
      </trkpt>
      <trkpt lat="48.07908" lon="6.85795">
        <ele>792.71138643098</ele>
        <time>2017-11-18T11:07:54.055Z</time>
      </trkpt>
      <trkpt lat="48.07909" lon="6.85787">
        <ele>793.92921831325</ele>
        <time>2017-11-18T11:08:00.055Z</time>
      </trkpt>
      <trkpt lat="48.07909" lon="6.8578">
        <ele>796.90886501992</ele>
        <time>2017-11-18T11:08:16.055Z</time>
      </trkpt>
      <trkpt lat="48.0791" lon="6.85773">
        <ele>795.62474989996</ele>
        <time>2017-11-18T11:09:13.055Z</time>
      </trkpt>
      <trkpt lat="48.0791" lon="6.85763">
        <ele>796.32355860131</ele>
        <time>2017-11-18T11:09:20.055Z</time>
      </trkpt>
      <trkpt lat="48.07911" lon="6.85755">
        <ele>796.82057617777</ele>
        <time>2017-11-18T11:09:25.055Z</time>
      </trkpt>
      <trkpt lat="48.07913" lon="6.85747">
        <ele>797.84406396399</ele>
        <time>2017-11-18T11:09:31.055Z</time>
      </trkpt>
      <trkpt lat="48.07913" lon="6.85741">
        <ele>799.02507391153</ele>
        <time>2017-11-18T11:09:37.055Z</time>
      </trkpt>
      <trkpt lat="48.07914" lon="6.85735">
        <ele>799.91002994219</ele>
        <time>2017-11-18T11:09:46.055Z</time>
      </trkpt>
      <trkpt lat="48.07916" lon="6.85727">
        <ele>800.80850048</ele>
        <time>2017-11-18T11:09:55.055Z</time>
      </trkpt>
      <trkpt lat="48.07919" lon="6.85718">
        <ele>801.81700096</ele>
        <time>2017-11-18T11:10:01.055Z</time>
      </trkpt>
      <trkpt lat="48.07923" lon="6.85712">
        <ele>803.01717267577</ele>
        <time>2017-11-18T11:10:07.055Z</time>
      </trkpt>
      <trkpt lat="48.07925" lon="6.85703">
        <ele>804.2292931043</ele>
        <time>2017-11-18T11:10:13.055Z</time>
      </trkpt>
      <trkpt lat="48.07927" lon="6.85695">
        <ele>805.22004019175</ele>
        <time>2017-11-18T11:10:19.055Z</time>
      </trkpt>
      <trkpt lat="48.07928" lon="6.85686">
        <ele>806.02509858268</ele>
        <time>2017-11-18T11:10:27.055Z</time>
      </trkpt>
      <trkpt lat="48.07928" lon="6.85679">
        <ele>806.51722456693</ele>
        <time>2017-11-18T11:10:32.055Z</time>
      </trkpt>
      <trkpt lat="48.07927" lon="6.85673">
        <ele>807.2187816084</ele>
        <time>2017-11-18T11:10:38.055Z</time>
      </trkpt>
      <trkpt lat="48.07925" lon="6.85665">
        <ele>808.41758319044</ele>
        <time>2017-11-18T11:10:44.055Z</time>
      </trkpt>
      <trkpt lat="48.07923" lon="6.85658">
        <ele>809.81781851682</ele>
        <time>2017-11-18T11:10:51.055Z</time>
      </trkpt>
      <trkpt lat="48.0792" lon="6.8565">
        <ele>811.20929093604</ele>
        <time>2017-11-18T11:10:59.055Z</time>
      </trkpt>
      <trkpt lat="48.07918" lon="6.85641">
        <ele>812.00858633788</ele>
        <time>2017-11-18T11:11:07.055Z</time>
      </trkpt>
      <trkpt lat="48.07919" lon="6.85631">
        <ele>813.8303568254</ele>
        <time>2017-11-18T11:11:21.055Z</time>
      </trkpt>
      <trkpt lat="48.0792" lon="6.85624">
        <ele>815</ele>
        <time>2017-11-18T11:11:29.055Z</time>
      </trkpt>
      <trkpt lat="48.07921" lon="6.85617">
        <ele>815</ele>
        <time>2017-11-18T11:11:35.055Z</time>
      </trkpt>
      <trkpt lat="48.07922" lon="6.85608">
        <ele>816.02769537744</ele>
        <time>2017-11-18T11:11:42.055Z</time>
      </trkpt>
      <trkpt lat="48.07922" lon="6.85601">
        <ele>817.3258271629</ele>
        <time>2017-11-18T11:11:48.055Z</time>
      </trkpt>
      <trkpt lat="48.07922" lon="6.85592">
        <ele>820</ele>
        <time>2017-11-18T11:11:57.055Z</time>
      </trkpt>
      <trkpt lat="48.07921" lon="6.85582">
        <ele>820</ele>
        <time>2017-11-18T11:12:04.055Z</time>
      </trkpt>
      <trkpt lat="48.07924" lon="6.85569">
        <ele>822.36761952756</ele>
        <time>2017-11-18T11:12:18.055Z</time>
      </trkpt>
      <trkpt lat="48.07929" lon="6.85558">
        <ele>825.1086090543</ele>
        <time>2017-11-18T11:12:28.055Z</time>
      </trkpt>
      <trkpt lat="48.07935" lon="6.8555">
        <ele>826.42323237286</ele>
        <time>2017-11-18T11:12:39.055Z</time>
      </trkpt>
      <trkpt lat="48.07942" lon="6.85542">
        <ele>828.9094959378</ele>
        <time>2017-11-18T11:12:56.055Z</time>
      </trkpt>
      <trkpt lat="48.07948" lon="6.85534">
        <ele>829.92327284553</ele>
        <time>2017-11-18T11:13:06.055Z</time>
      </trkpt>
      <trkpt lat="48.07953" lon="6.85525">
        <ele>832.02881748152</ele>
        <time>2017-11-18T11:13:17.055Z</time>
      </trkpt>
      <trkpt lat="48.07957" lon="6.85513">
        <ele>835.42092126657</ele>
        <time>2017-11-18T11:13:31.055Z</time>
      </trkpt>
      <trkpt lat="48.07958" lon="6.85501">
        <ele>837.4287122828</ele>
        <time>2017-11-18T11:13:44.055Z</time>
      </trkpt>
      <trkpt lat="48.0796" lon="6.8549">
        <ele>838.22436523025</ele>
        <time>2017-11-18T11:13:58.055Z</time>
      </trkpt>
      <trkpt lat="48.07958" lon="6.8548">
        <ele>841.27650048</ele>
        <time>2017-11-18T11:14:11.055Z</time>
      </trkpt>
      <trkpt lat="48.07958" lon="6.85472">
        <ele>843.42254222918</ele>
        <time>2017-11-18T11:14:21.055Z</time>
      </trkpt>
      <trkpt lat="48.07968" lon="6.85471">
        <ele>843.83069264519</ele>
        <time>2017-11-18T11:14:41.055Z</time>
      </trkpt>
      <trkpt lat="48.07977" lon="6.85472">
        <ele>846.4362351417</ele>
        <time>2017-11-18T11:14:54.055Z</time>
      </trkpt>
      <trkpt lat="48.07986" lon="6.85467">
        <ele>847.72005958</ele>
        <time>2017-11-18T11:15:04.055Z</time>
      </trkpt>
      <trkpt lat="48.07996" lon="6.8547">
        <ele>848.92042082443</ele>
        <time>2017-11-18T11:15:16.055Z</time>
      </trkpt>
      <trkpt lat="48.08005" lon="6.85474">
        <ele>849.82462333278</ele>
        <time>2017-11-18T11:15:25.055Z</time>
      </trkpt>
      <trkpt lat="48.08015" lon="6.85472">
        <ele>851.83995938611</ele>
        <time>2017-11-18T11:15:36.055Z</time>
      </trkpt>
      <trkpt lat="48.08025" lon="6.85475">
        <ele>852.22076645161</ele>
        <time>2017-11-18T11:15:48.055Z</time>
      </trkpt>
      <trkpt lat="48.08035" lon="6.8548">
        <ele>854.01736126984</ele>
        <time>2017-11-18T11:15:57.055Z</time>
      </trkpt>
      <trkpt lat="48.08045" lon="6.85485">
        <ele>855</ele>
        <time>2017-11-18T11:16:08.055Z</time>
      </trkpt>
      <trkpt lat="48.08054" lon="6.85491">
        <ele>855</ele>
        <time>2017-11-18T11:16:18.055Z</time>
      </trkpt>
      <trkpt lat="48.08063" lon="6.85499">
        <ele>855.63069315212</ele>
        <time>2017-11-18T11:16:30.055Z</time>
      </trkpt>
      <trkpt lat="48.08071" lon="6.85509">
        <ele>857</ele>
        <time>2017-11-18T11:16:41.055Z</time>
      </trkpt>
      <trkpt lat="48.08079" lon="6.85519">
        <ele>858.41841892503</ele>
        <time>2017-11-18T11:16:54.055Z</time>
      </trkpt>
      <trkpt lat="48.08089" lon="6.85524">
        <ele>860.61900032</ele>
        <time>2017-11-18T11:17:05.055Z</time>
      </trkpt>
      <trkpt lat="48.08098" lon="6.85533">
        <ele>861.00854319323</ele>
        <time>2017-11-18T11:17:17.055Z</time>
      </trkpt>
      <trkpt lat="48.08108" lon="6.85537">
        <ele>862.31539231202</ele>
        <time>2017-11-18T11:17:30.055Z</time>
      </trkpt>
      <trkpt lat="48.08116" lon="6.85538">
        <ele>863.83816114706</ele>
        <time>2017-11-18T11:17:41.055Z</time>
      </trkpt>
      <trkpt lat="48.08127" lon="6.85537">
        <ele>865.51849984</ele>
        <time>2017-11-18T11:17:52.055Z</time>
      </trkpt>
      <trkpt lat="48.08135" lon="6.85539">
        <ele>867.68580050298</ele>
        <time>2017-11-18T11:18:01.055Z</time>
      </trkpt>
      <trkpt lat="48.08145" lon="6.85541">
        <ele>870.51773398456</ele>
        <time>2017-11-18T11:18:12.055Z</time>
      </trkpt>
      <trkpt lat="48.08154" lon="6.85545">
        <ele>871.51049984</ele>
        <time>2017-11-18T11:18:22.055Z</time>
      </trkpt>
      <trkpt lat="48.08164" lon="6.8555">
        <ele>872.60989014502</ele>
        <time>2017-11-18T11:18:33.055Z</time>
      </trkpt>
      <trkpt lat="48.08173" lon="6.85555">
        <ele>874.43347914746</ele>
        <time>2017-11-18T11:18:44.055Z</time>
      </trkpt>
      <trkpt lat="48.08182" lon="6.85559">
        <ele>876.44774226444</ele>
        <time>2017-11-18T11:18:54.055Z</time>
      </trkpt>
      <trkpt lat="48.08188" lon="6.8556">
        <ele>877.41838770293</ele>
        <time>2017-11-18T11:19:01.055Z</time>
      </trkpt>
      <trkpt lat="48.08196" lon="6.85563">
        <ele>878</ele>
        <time>2017-11-18T11:19:11.055Z</time>
      </trkpt>
      <trkpt lat="48.08205" lon="6.85564">
        <ele>879.02825427947</ele>
        <time>2017-11-18T11:19:22.055Z</time>
      </trkpt>
      <trkpt lat="48.08216" lon="6.8556">
        <ele>882</ele>
        <time>2017-11-18T11:19:42.055Z</time>
      </trkpt>
      <trkpt lat="48.08227" lon="6.8556">
        <ele>883.03033432731</ele>
        <time>2017-11-18T11:19:52.055Z</time>
      </trkpt>
      <trkpt lat="48.08237" lon="6.85561">
        <ele>884.6143565216</ele>
        <time>2017-11-18T11:20:03.055Z</time>
      </trkpt>
      <trkpt lat="48.08245" lon="6.85562">
        <ele>886</ele>
        <time>2017-11-18T11:20:12.055Z</time>
      </trkpt>
      <trkpt lat="48.08254" lon="6.85563">
        <ele>887.42089254628</ele>
        <time>2017-11-18T11:20:24.055Z</time>
      </trkpt>
      <trkpt lat="48.08265" lon="6.85561">
        <ele>889.62089572009</ele>
        <time>2017-11-18T11:20:35.055Z</time>
      </trkpt>
      <trkpt lat="48.08275" lon="6.85564">
        <ele>890</ele>
        <time>2017-11-18T11:20:45.055Z</time>
      </trkpt>
      <trkpt lat="48.08285" lon="6.85569">
        <ele>889.28790875335</ele>
        <time>2017-11-18T11:20:54.055Z</time>
      </trkpt>
      <trkpt lat="48.08294" lon="6.85563">
        <ele>889.70950016</ele>
        <time>2017-11-18T11:21:04.055Z</time>
      </trkpt>
      <trkpt lat="48.08299" lon="6.85553">
        <ele>890</ele>
        <time>2017-11-18T11:21:13.055Z</time>
      </trkpt>
      <trkpt lat="48.08308" lon="6.85553">
        <ele>891.44478000936</ele>
        <time>2017-11-18T11:21:24.055Z</time>
      </trkpt>
      <trkpt lat="48.08316" lon="6.85554">
        <ele>892.3222115414</ele>
        <time>2017-11-18T11:21:30.055Z</time>
      </trkpt>
      <trkpt lat="48.08325" lon="6.85556">
        <ele>893.12022092248</ele>
        <time>2017-11-18T11:21:38.055Z</time>
      </trkpt>
      <trkpt lat="48.08335" lon="6.85557">
        <ele>894</ele>
        <time>2017-11-18T11:21:49.055Z</time>
      </trkpt>
      <trkpt lat="48.08345" lon="6.85555">
        <ele>894.21210621783</ele>
        <time>2017-11-18T11:21:59.055Z</time>
      </trkpt>
      <trkpt lat="48.08351" lon="6.85552">
        <ele>894.82248241791</ele>
        <time>2017-11-18T11:22:05.055Z</time>
      </trkpt>
      <trkpt lat="48.08359" lon="6.85549">
        <ele>895.72550016</ele>
        <time>2017-11-18T11:22:14.055Z</time>
      </trkpt>
      <trkpt lat="48.08365" lon="6.85545">
        <ele>896.41921184813</ele>
        <time>2017-11-18T11:22:21.055Z</time>
      </trkpt>
      <trkpt lat="48.08372" lon="6.85541">
        <ele>897.21241147531</ele>
        <time>2017-11-18T11:22:29.055Z</time>
      </trkpt>
      <trkpt lat="48.08379" lon="6.85536">
        <ele>898.22060274551</ele>
        <time>2017-11-18T11:22:39.055Z</time>
      </trkpt>
      <trkpt lat="48.08386" lon="6.85532">
        <ele>899</ele>
        <time>2017-11-18T11:22:51.055Z</time>
      </trkpt>
      <trkpt lat="48.08393" lon="6.85529">
        <ele>899.31949952</ele>
        <time>2017-11-18T11:23:00.055Z</time>
      </trkpt>
      <trkpt lat="48.084" lon="6.85531">
        <ele>899.91949952</ele>
        <time>2017-11-18T11:23:06.055Z</time>
      </trkpt>
      <trkpt lat="48.08406" lon="6.85531">
        <ele>900</ele>
        <time>2017-11-18T11:23:12.055Z</time>
      </trkpt>
      <trkpt lat="48.08414" lon="6.85533">
        <ele>900.10950016</ele>
        <time>2017-11-18T11:23:18.055Z</time>
      </trkpt>
      <trkpt lat="48.08421" lon="6.85537">
        <ele>900.80950016</ele>
        <time>2017-11-18T11:23:25.055Z</time>
      </trkpt>
      <trkpt lat="48.08429" lon="6.85544">
        <ele>902.43333272997</ele>
        <time>2017-11-18T11:23:34.055Z</time>
      </trkpt>
      <trkpt lat="48.08436" lon="6.85551">
        <ele>903.52054093502</ele>
        <time>2017-11-18T11:23:42.055Z</time>
      </trkpt>
      <trkpt lat="48.08444" lon="6.85556">
        <ele>904</ele>
        <time>2017-11-18T11:23:49.055Z</time>
      </trkpt>
      <trkpt lat="48.08451" lon="6.85557">
        <ele>904</ele>
        <time>2017-11-18T11:23:55.055Z</time>
      </trkpt>
      <trkpt lat="48.08458" lon="6.85557">
        <ele>904.40968074071</ele>
        <time>2017-11-18T11:24:01.055Z</time>
      </trkpt>
      <trkpt lat="48.08464" lon="6.85553">
        <ele>905.2207537023</ele>
        <time>2017-11-18T11:24:08.055Z</time>
      </trkpt>
      <trkpt lat="48.08469" lon="6.85548">
        <ele>906.44150610246</ele>
        <time>2017-11-18T11:24:14.055Z</time>
      </trkpt>
      <trkpt lat="48.08468" lon="6.8554">
        <ele>907.41921184813</ele>
        <time>2017-11-18T11:24:21.055Z</time>
      </trkpt>
      <trkpt lat="48.08465" lon="6.85531">
        <ele>908</ele>
        <time>2017-11-18T11:24:31.055Z</time>
      </trkpt>
      <trkpt lat="48.08464" lon="6.85523">
        <ele>908</ele>
        <time>2017-11-18T11:24:36.055Z</time>
      </trkpt>
      <trkpt lat="48.08463" lon="6.85515">
        <ele>907.68218212383</ele>
        <time>2017-11-18T11:24:40.055Z</time>
      </trkpt>
      <trkpt lat="48.08461" lon="6.85505">
        <ele>907.08158171561</ele>
        <time>2017-11-18T11:24:46.055Z</time>
      </trkpt>
      <trkpt lat="48.08461" lon="6.85497">
        <ele>907.5174652407</ele>
        <time>2017-11-18T11:24:52.055Z</time>
      </trkpt>
      <trkpt lat="48.0846" lon="6.85489">
        <ele>908</ele>
        <time>2017-11-18T11:24:58.055Z</time>
      </trkpt>
      <trkpt lat="48.08458" lon="6.8548">
        <ele>908</ele>
        <time>2017-11-18T11:25:03.055Z</time>
      </trkpt>
      <trkpt lat="48.08457" lon="6.85471">
        <ele>908.12450048</ele>
        <time>2017-11-18T11:25:08.055Z</time>
      </trkpt>
      <trkpt lat="48.08455" lon="6.85462">
        <ele>908.62450048</ele>
        <time>2017-11-18T11:25:13.055Z</time>
      </trkpt>
      <trkpt lat="48.08454" lon="6.85454">
        <ele>909</ele>
        <time>2017-11-18T11:25:18.055Z</time>
      </trkpt>
      <trkpt lat="48.08452" lon="6.85444">
        <ele>909</ele>
        <time>2017-11-18T11:25:23.055Z</time>
      </trkpt>
      <trkpt lat="48.0845" lon="6.85435">
        <ele>909</ele>
        <time>2017-11-18T11:25:29.055Z</time>
      </trkpt>
      <trkpt lat="48.0845" lon="6.85425">
        <ele>909</ele>
        <time>2017-11-18T11:25:35.055Z</time>
      </trkpt>
      <trkpt lat="48.08447" lon="6.85417">
        <ele>909.41882517928</ele>
        <time>2017-11-18T11:25:41.055Z</time>
      </trkpt>
      <trkpt lat="48.08446" lon="6.85409">
        <ele>909.91683314741</ele>
        <time>2017-11-18T11:25:46.055Z</time>
      </trkpt>
      <trkpt lat="48.08444" lon="6.85401">
        <ele>910</ele>
        <time>2017-11-18T11:25:52.055Z</time>
      </trkpt>
      <trkpt lat="48.08442" lon="6.85393">
        <ele>910</ele>
        <time>2017-11-18T11:25:58.055Z</time>
      </trkpt>
      <trkpt lat="48.0844" lon="6.85383">
        <ele>910</ele>
        <time>2017-11-18T11:26:04.055Z</time>
      </trkpt>
      <trkpt lat="48.08439" lon="6.85373">
        <ele>910</ele>
        <time>2017-11-18T11:26:10.055Z</time>
      </trkpt>
      <trkpt lat="48.08436" lon="6.85363">
        <ele>909.97487669758</ele>
        <time>2017-11-18T11:26:17.055Z</time>
      </trkpt>
      <trkpt lat="48.08433" lon="6.85353">
        <ele>909.38374387902</ele>
        <time>2017-11-18T11:26:23.055Z</time>
      </trkpt>
      <trkpt lat="48.08431" lon="6.85342">
        <ele>909</ele>
        <time>2017-11-18T11:26:30.055Z</time>
      </trkpt>
      <trkpt lat="48.08428" lon="6.85333">
        <ele>908.98038276403</ele>
        <time>2017-11-18T11:26:37.055Z</time>
      </trkpt>
      <trkpt lat="48.08426" lon="6.85323">
        <ele>908.27615695849</ele>
        <time>2017-11-18T11:26:44.055Z</time>
      </trkpt>
      <trkpt lat="48.08424" lon="6.85311">
        <ele>908</ele>
        <time>2017-11-18T11:26:50.055Z</time>
      </trkpt>
      <trkpt lat="48.08423" lon="6.85304">
        <ele>907.9893402605</ele>
        <time>2017-11-18T11:26:57.055Z</time>
      </trkpt>
      <trkpt lat="48.08422" lon="6.85298">
        <ele>907.48172588239</ele>
        <time>2017-11-18T11:27:02.055Z</time>
      </trkpt>
      <trkpt lat="48.0842" lon="6.85287">
        <ele>907</ele>
        <time>2017-11-18T11:27:10.055Z</time>
      </trkpt>
      <trkpt lat="48.08419" lon="6.85275">
        <ele>907</ele>
        <time>2017-11-18T11:27:17.055Z</time>
      </trkpt>
      <trkpt lat="48.08419" lon="6.85263">
        <ele>907</ele>
        <time>2017-11-18T11:27:24.055Z</time>
      </trkpt>
      <trkpt lat="48.08421" lon="6.85251">
        <ele>907</ele>
        <time>2017-11-18T11:27:31.055Z</time>
      </trkpt>
      <trkpt lat="48.08425" lon="6.85239">
        <ele>907</ele>
        <time>2017-11-18T11:27:39.055Z</time>
      </trkpt>
      <trkpt lat="48.0843" lon="6.85226">
        <ele>907</ele>
        <time>2017-11-18T11:27:47.055Z</time>
      </trkpt>
      <trkpt lat="48.08435" lon="6.85214">
        <ele>907</ele>
        <time>2017-11-18T11:27:55.055Z</time>
      </trkpt>
      <trkpt lat="48.08441" lon="6.85204">
        <ele>906.37738681637</ele>
        <time>2017-11-18T11:28:03.055Z</time>
      </trkpt>
      <trkpt lat="48.08448" lon="6.85199">
        <ele>906</ele>
        <time>2017-11-18T11:28:08.055Z</time>
      </trkpt>
      <trkpt lat="48.08454" lon="6.85189">
        <ele>905.5880277428</ele>
        <time>2017-11-18T11:28:21.055Z</time>
      </trkpt>
      <trkpt lat="48.08457" lon="6.85175">
        <ele>905</ele>
        <time>2017-11-18T11:28:36.055Z</time>
      </trkpt>
      <trkpt lat="48.08459" lon="6.8516">
        <ele>904.28733901884</ele>
        <time>2017-11-18T11:28:44.055Z</time>
      </trkpt>
      <trkpt lat="48.0846" lon="6.85147">
        <ele>903.68737377786</ele>
        <time>2017-11-18T11:28:50.055Z</time>
      </trkpt>
      <trkpt lat="48.0846" lon="6.85134">
        <ele>903.0813135636</ele>
        <time>2017-11-18T11:28:56.055Z</time>
      </trkpt>
      <trkpt lat="48.08461" lon="6.85122">
        <ele>901.96513907906</ele>
        <time>2017-11-18T11:29:02.055Z</time>
      </trkpt>
      <trkpt lat="48.08464" lon="6.8511">
        <ele>901</ele>
        <time>2017-11-18T11:29:10.055Z</time>
      </trkpt>
      <trkpt lat="48.08462" lon="6.85096">
        <ele>901</ele>
        <time>2017-11-18T11:29:18.055Z</time>
      </trkpt>
      <trkpt lat="48.08461" lon="6.85084">
        <ele>901</ele>
        <time>2017-11-18T11:29:25.055Z</time>
      </trkpt>
      <trkpt lat="48.08458" lon="6.85073">
        <ele>901</ele>
        <time>2017-11-18T11:29:31.055Z</time>
      </trkpt>
      <trkpt lat="48.08457" lon="6.85061">
        <ele>900.99040388499</ele>
        <time>2017-11-18T11:29:37.055Z</time>
      </trkpt>
      <trkpt lat="48.08456" lon="6.85051">
        <ele>900.48535370644</ele>
        <time>2017-11-18T11:29:42.055Z</time>
      </trkpt>
      <trkpt lat="48.08454" lon="6.85039">
        <ele>900.21862529865</ele>
        <time>2017-11-18T11:29:49.055Z</time>
      </trkpt>
      <trkpt lat="48.08454" lon="6.85029">
        <ele>900.81623562229</ele>
        <time>2017-11-18T11:29:55.055Z</time>
      </trkpt>
      <trkpt lat="48.08454" lon="6.85019">
        <ele>901</ele>
        <time>2017-11-18T11:30:00.055Z</time>
      </trkpt>
      <trkpt lat="48.08454" lon="6.8501">
        <ele>901</ele>
        <time>2017-11-18T11:30:06.055Z</time>
      </trkpt>
      <trkpt lat="48.08455" lon="6.85">
        <ele>901</ele>
        <time>2017-11-18T11:30:12.055Z</time>
      </trkpt>
      <trkpt lat="48.08456" lon="6.8499">
        <ele>901.11673387304</ele>
        <time>2017-11-18T11:30:18.055Z</time>
      </trkpt>
      <trkpt lat="48.08455" lon="6.84979">
        <ele>901.71793589231</ele>
        <time>2017-11-18T11:30:24.055Z</time>
      </trkpt>
      <trkpt lat="48.08454" lon="6.84967">
        <ele>901.67925484125</ele>
        <time>2017-11-18T11:30:30.055Z</time>
      </trkpt>
      <trkpt lat="48.08455" lon="6.84954">
        <ele>900.97492608847</ele>
        <time>2017-11-18T11:30:37.055Z</time>
      </trkpt>
      <trkpt lat="48.08456" lon="6.84941">
        <ele>900.28662695351</ele>
        <time>2017-11-18T11:30:44.055Z</time>
      </trkpt>
      <trkpt lat="48.08456" lon="6.84927">
        <ele>899.58695643733</ele>
        <time>2017-11-18T11:30:51.055Z</time>
      </trkpt>
      <trkpt lat="48.08458" lon="6.84914">
        <ele>899</ele>
        <time>2017-11-18T11:30:57.055Z</time>
      </trkpt>
      <trkpt lat="48.0846" lon="6.84899">
        <ele>899</ele>
        <time>2017-11-18T11:31:06.055Z</time>
      </trkpt>
      <trkpt lat="48.0846" lon="6.84886">
        <ele>899</ele>
        <time>2017-11-18T11:31:12.055Z</time>
      </trkpt>
      <trkpt lat="48.08462" lon="6.84872">
        <ele>899</ele>
        <time>2017-11-18T11:31:19.055Z</time>
      </trkpt>
      <trkpt lat="48.08461" lon="6.8486">
        <ele>899</ele>
        <time>2017-11-18T11:31:25.055Z</time>
      </trkpt>
      <trkpt lat="48.0846" lon="6.84848">
        <ele>899</ele>
        <time>2017-11-18T11:31:31.055Z</time>
      </trkpt>
      <trkpt lat="48.08458" lon="6.84837">
        <ele>898.98941548387</ele>
        <time>2017-11-18T11:31:37.055Z</time>
      </trkpt>
      <trkpt lat="48.08456" lon="6.84826">
        <ele>898.38457677419</ele>
        <time>2017-11-18T11:31:43.055Z</time>
      </trkpt>
      <trkpt lat="48.08454" lon="6.84816">
        <ele>898</ele>
        <time>2017-11-18T11:31:49.055Z</time>
      </trkpt>
      <trkpt lat="48.08453" lon="6.84806">
        <ele>898</ele>
        <time>2017-11-18T11:31:55.055Z</time>
      </trkpt>
      <trkpt lat="48.08452" lon="6.84796">
        <ele>897.35899904</ele>
        <time>2017-11-18T11:32:00.055Z</time>
      </trkpt>
      <trkpt lat="48.0845" lon="6.84785">
        <ele>896.35899904</ele>
        <time>2017-11-18T11:32:05.055Z</time>
      </trkpt>
      <trkpt lat="48.08449" lon="6.84775">
        <ele>895.67788906842</ele>
        <time>2017-11-18T11:32:10.055Z</time>
      </trkpt>
      <trkpt lat="48.08447" lon="6.84763">
        <ele>895.22348883203</ele>
        <time>2017-11-18T11:32:19.055Z</time>
      </trkpt>
      <trkpt lat="48.08445" lon="6.84751">
        <ele>895.9172452463</ele>
        <time>2017-11-18T11:32:26.055Z</time>
      </trkpt>
      <trkpt lat="48.08444" lon="6.8474">
        <ele>896</ele>
        <time>2017-11-18T11:32:32.055Z</time>
      </trkpt>
      <trkpt lat="48.08443" lon="6.84728">
        <ele>895</ele>
        <time>2017-11-18T11:32:52.055Z</time>
      </trkpt>
      <trkpt lat="48.08442" lon="6.84715">
        <ele>895</ele>
        <time>2017-11-18T11:32:59.055Z</time>
      </trkpt>
      <trkpt lat="48.08442" lon="6.84704">
        <ele>895</ele>
        <time>2017-11-18T11:33:05.055Z</time>
      </trkpt>
      <trkpt lat="48.08444" lon="6.84693">
        <ele>895</ele>
        <time>2017-11-18T11:33:10.055Z</time>
      </trkpt>
      <trkpt lat="48.08447" lon="6.84681">
        <ele>895</ele>
        <time>2017-11-18T11:33:16.055Z</time>
      </trkpt>
      <trkpt lat="48.0845" lon="6.84671">
        <ele>895</ele>
        <time>2017-11-18T11:33:22.055Z</time>
      </trkpt>
      <trkpt lat="48.08452" lon="6.8466">
        <ele>894.88838392784</ele>
        <time>2017-11-18T11:33:28.055Z</time>
      </trkpt>
      <trkpt lat="48.08455" lon="6.84649">
        <ele>894.18131276368</ele>
        <time>2017-11-18T11:33:35.055Z</time>
      </trkpt>
      <trkpt lat="48.08458" lon="6.8464">
        <ele>894.31954175249</ele>
        <time>2017-11-18T11:33:40.055Z</time>
      </trkpt>
      <trkpt lat="48.0846" lon="6.8463">
        <ele>894.91774694548</ele>
        <time>2017-11-18T11:33:46.055Z</time>
      </trkpt>
      <trkpt lat="48.08464" lon="6.84619">
        <ele>894.48146309806</ele>
        <time>2017-11-18T11:33:52.055Z</time>
      </trkpt>
      <trkpt lat="48.08467" lon="6.8461">
        <ele>893.98158428571</ele>
        <time>2017-11-18T11:33:58.055Z</time>
      </trkpt>
      <trkpt lat="48.08471" lon="6.84601">
        <ele>893.42354857143</ele>
        <time>2017-11-18T11:34:03.055Z</time>
      </trkpt>
      <trkpt lat="48.08474" lon="6.84589">
        <ele>893</ele>
        <time>2017-11-18T11:34:09.055Z</time>
      </trkpt>
      <trkpt lat="48.08477" lon="6.84578">
        <ele>893</ele>
        <time>2017-11-18T11:34:15.055Z</time>
      </trkpt>
      <trkpt lat="48.0848" lon="6.84567">
        <ele>892.57854987426</ele>
        <time>2017-11-18T11:34:21.055Z</time>
      </trkpt>
      <trkpt lat="48.08482" lon="6.84555">
        <ele>892</ele>
        <time>2017-11-18T11:34:29.055Z</time>
      </trkpt>
      <trkpt lat="48.08487" lon="6.84543">
        <ele>892</ele>
        <time>2017-11-18T11:34:37.055Z</time>
      </trkpt>
      <trkpt lat="48.0849" lon="6.84532">
        <ele>892</ele>
        <time>2017-11-18T11:34:43.055Z</time>
      </trkpt>
      <trkpt lat="48.08492" lon="6.84521">
        <ele>892</ele>
        <time>2017-11-18T11:34:51.055Z</time>
      </trkpt>
      <trkpt lat="48.08493" lon="6.84511">
        <ele>891.99143096774</ele>
        <time>2017-11-18T11:34:57.055Z</time>
      </trkpt>
      <trkpt lat="48.08495" lon="6.84502">
        <ele>891.48739870968</ele>
        <time>2017-11-18T11:35:02.055Z</time>
      </trkpt>
      <trkpt lat="48.08497" lon="6.84494">
        <ele>891.01655011445</ele>
        <time>2017-11-18T11:35:07.055Z</time>
      </trkpt>
      <trkpt lat="48.08499" lon="6.84486">
        <ele>891.5180541451</ele>
        <time>2017-11-18T11:35:12.055Z</time>
      </trkpt>
      <trkpt lat="48.08503" lon="6.84479">
        <ele>891.91925736962</ele>
        <time>2017-11-18T11:35:16.055Z</time>
      </trkpt>
      <trkpt lat="48.08506" lon="6.84473">
        <ele>892</ele>
        <time>2017-11-18T11:35:21.055Z</time>
      </trkpt>
      <trkpt lat="48.08508" lon="6.84464">
        <ele>892</ele>
        <time>2017-11-18T11:35:26.055Z</time>
      </trkpt>
      <trkpt lat="48.08512" lon="6.84457">
        <ele>892</ele>
        <time>2017-11-18T11:35:31.055Z</time>
      </trkpt>
      <trkpt lat="48.08514" lon="6.84448">
        <ele>892</ele>
        <time>2017-11-18T11:35:37.055Z</time>
      </trkpt>
      <trkpt lat="48.08517" lon="6.84439">
        <ele>892</ele>
        <time>2017-11-18T11:35:42.055Z</time>
      </trkpt>
      <trkpt lat="48.08518" lon="6.8443">
        <ele>891.97862805797</ele>
        <time>2017-11-18T11:35:47.055Z</time>
      </trkpt>
      <trkpt lat="48.0852" lon="6.84421">
        <ele>891.38220620737</ele>
        <time>2017-11-18T11:35:53.055Z</time>
      </trkpt>
      <trkpt lat="48.08522" lon="6.84413">
        <ele>891.1160811687</ele>
        <time>2017-11-18T11:35:58.055Z</time>
      </trkpt>
      <trkpt lat="48.08523" lon="6.84406">
        <ele>891.6185935699</ele>
        <time>2017-11-18T11:36:03.055Z</time>
      </trkpt>
      <trkpt lat="48.08527" lon="6.84398">
        <ele>892</ele>
        <time>2017-11-18T11:36:09.055Z</time>
      </trkpt>
      <trkpt lat="48.08528" lon="6.84387">
        <ele>892</ele>
        <time>2017-11-18T11:36:16.055Z</time>
      </trkpt>
      <trkpt lat="48.0853" lon="6.84378">
        <ele>891.58124343631</ele>
        <time>2017-11-18T11:36:21.055Z</time>
      </trkpt>
      <trkpt lat="48.08533" lon="6.84367">
        <ele>891</ele>
        <time>2017-11-18T11:36:27.055Z</time>
      </trkpt>
      <trkpt lat="48.08536" lon="6.84353">
        <ele>891</ele>
        <time>2017-11-18T11:36:36.055Z</time>
      </trkpt>
      <trkpt lat="48.08538" lon="6.84341">
        <ele>891</ele>
        <time>2017-11-18T11:36:43.055Z</time>
      </trkpt>
      <trkpt lat="48.08542" lon="6.84329">
        <ele>891</ele>
        <time>2017-11-18T11:36:49.055Z</time>
      </trkpt>
      <trkpt lat="48.08544" lon="6.84316">
        <ele>891</ele>
        <time>2017-11-18T11:36:57.055Z</time>
      </trkpt>
      <trkpt lat="48.08546" lon="6.84304">
        <ele>891</ele>
        <time>2017-11-18T11:37:03.055Z</time>
      </trkpt>
      <trkpt lat="48.08547" lon="6.84294">
        <ele>891</ele>
        <time>2017-11-18T11:37:07.055Z</time>
      </trkpt>
      <trkpt lat="48.08547" lon="6.84283">
        <ele>891</ele>
        <time>2017-11-18T11:37:13.055Z</time>
      </trkpt>
      <trkpt lat="48.08547" lon="6.84274">
        <ele>891</ele>
        <time>2017-11-18T11:37:17.055Z</time>
      </trkpt>
      <trkpt lat="48.08547" lon="6.84264">
        <ele>891</ele>
        <time>2017-11-18T11:37:23.055Z</time>
      </trkpt>
      <trkpt lat="48.08547" lon="6.84254">
        <ele>891</ele>
        <time>2017-11-18T11:37:29.055Z</time>
      </trkpt>
      <trkpt lat="48.08549" lon="6.84242">
        <ele>891</ele>
        <time>2017-11-18T11:37:36.055Z</time>
      </trkpt>
      <trkpt lat="48.0855" lon="6.8423">
        <ele>891</ele>
        <time>2017-11-18T11:37:43.055Z</time>
      </trkpt>
      <trkpt lat="48.08549" lon="6.8422">
        <ele>891.22006021872</ele>
        <time>2017-11-18T11:37:49.055Z</time>
      </trkpt>
      <trkpt lat="48.08546" lon="6.84214">
        <ele>892.61359111111</ele>
        <time>2017-11-18T11:38:03.055Z</time>
      </trkpt>
      <trkpt lat="48.08546" lon="6.84203">
        <ele>893.11985913576</ele>
        <time>2017-11-18T11:38:18.055Z</time>
      </trkpt>
      <trkpt lat="48.08545" lon="6.84194">
        <ele>893.72166474517</ele>
        <time>2017-11-18T11:38:24.055Z</time>
      </trkpt>
      <trkpt lat="48.08546" lon="6.84183">
        <ele>895</ele>
        <time>2017-11-18T11:39:14.055Z</time>
      </trkpt>
      <trkpt lat="48.08545" lon="6.84176">
        <ele>894.6772086747</ele>
        <time>2017-11-18T11:39:20.055Z</time>
      </trkpt>
      <trkpt lat="48.08543" lon="6.84169">
        <ele>894.07479903615</ele>
        <time>2017-11-18T11:39:26.055Z</time>
      </trkpt>
      <trkpt lat="48.08542" lon="6.84161">
        <ele>894.51773398456</ele>
        <time>2017-11-18T11:39:32.055Z</time>
      </trkpt>
      <trkpt lat="48.08542" lon="6.84153">
        <ele>895</ele>
        <time>2017-11-18T11:39:38.055Z</time>
      </trkpt>
      <trkpt lat="48.0854" lon="6.84145">
        <ele>895</ele>
        <time>2017-11-18T11:39:44.055Z</time>
      </trkpt>
      <trkpt lat="48.08539" lon="6.84138">
        <ele>895</ele>
        <time>2017-11-18T11:39:49.055Z</time>
      </trkpt>
      <trkpt lat="48.08539" lon="6.84131">
        <ele>895</ele>
        <time>2017-11-18T11:39:55.055Z</time>
      </trkpt>
      <trkpt lat="48.08538" lon="6.84123">
        <ele>895.31849984</ele>
        <time>2017-11-18T11:40:00.055Z</time>
      </trkpt>
      <trkpt lat="48.08539" lon="6.84114">
        <ele>895.91849984</ele>
        <time>2017-11-18T11:40:06.055Z</time>
      </trkpt>
      <trkpt lat="48.08539" lon="6.84104">
        <ele>896</ele>
        <time>2017-11-18T11:40:12.055Z</time>
      </trkpt>
      <trkpt lat="48.0854" lon="6.84095">
        <ele>896.02245494448</ele>
        <time>2017-11-18T11:40:17.055Z</time>
      </trkpt>
      <trkpt lat="48.08541" lon="6.84085">
        <ele>896.52145725921</ele>
        <time>2017-11-18T11:40:22.055Z</time>
      </trkpt>
      <trkpt lat="48.08544" lon="6.84076">
        <ele>897.44055997708</ele>
        <time>2017-11-18T11:40:29.055Z</time>
      </trkpt>
      <trkpt lat="48.08548" lon="6.84065">
        <ele>898.98069353232</ele>
        <time>2017-11-18T11:40:37.055Z</time>
      </trkpt>
      <trkpt lat="48.08551" lon="6.84056">
        <ele>898.38663374995</ele>
        <time>2017-11-18T11:40:43.055Z</time>
      </trkpt>
      <trkpt lat="48.08554" lon="6.84046">
        <ele>897.78816963823</ele>
        <time>2017-11-18T11:40:49.055Z</time>
      </trkpt>
      <trkpt lat="48.08557" lon="6.84035">
        <ele>897.18149603446</ele>
        <time>2017-11-18T11:40:55.055Z</time>
      </trkpt>
      <trkpt lat="48.08559" lon="6.84026">
        <ele>896.4805387749</ele>
        <time>2017-11-18T11:41:02.055Z</time>
      </trkpt>
      <trkpt lat="48.08563" lon="6.84015">
        <ele>896.22004019175</ele>
        <time>2017-11-18T11:41:09.055Z</time>
      </trkpt>
      <trkpt lat="48.08567" lon="6.84005">
        <ele>896.92497496072</ele>
        <time>2017-11-18T11:41:16.055Z</time>
      </trkpt>
      <trkpt lat="48.08572" lon="6.83994">
        <ele>897</ele>
        <time>2017-11-18T11:41:24.055Z</time>
      </trkpt>
      <trkpt lat="48.08577" lon="6.83983">
        <ele>897</ele>
        <time>2017-11-18T11:41:32.055Z</time>
      </trkpt>
      <trkpt lat="48.08581" lon="6.83973">
        <ele>897</ele>
        <time>2017-11-18T11:41:39.055Z</time>
      </trkpt>
      <trkpt lat="48.08586" lon="6.83961">
        <ele>897.321323063</ele>
        <time>2017-11-18T11:41:50.055Z</time>
      </trkpt>
      <trkpt lat="48.08592" lon="6.83952">
        <ele>898</ele>
        <time>2017-11-18T11:41:57.055Z</time>
      </trkpt>
      <trkpt lat="48.08595" lon="6.83942">
        <ele>898</ele>
        <time>2017-11-18T11:42:04.055Z</time>
      </trkpt>
      <trkpt lat="48.08597" lon="6.83933">
        <ele>898.42203198199</ele>
        <time>2017-11-18T11:42:11.055Z</time>
      </trkpt>
      <trkpt lat="48.086" lon="6.83923">
        <ele>899.02517292009</ele>
        <time>2017-11-18T11:42:17.055Z</time>
      </trkpt>
      <trkpt lat="48.08603" lon="6.83914">
        <ele>899.71618992022</ele>
        <time>2017-11-18T11:42:24.055Z</time>
      </trkpt>
      <trkpt lat="48.08604" lon="6.83904">
        <ele>900.21421419355</ele>
        <time>2017-11-18T11:42:29.055Z</time>
      </trkpt>
      <trkpt lat="48.08608" lon="6.83895">
        <ele>900.71824645161</ele>
        <time>2017-11-18T11:42:34.055Z</time>
      </trkpt>
      <trkpt lat="48.0861" lon="6.83884">
        <ele>901</ele>
        <time>2017-11-18T11:42:40.055Z</time>
      </trkpt>
      <trkpt lat="48.08613" lon="6.83877">
        <ele>901</ele>
        <time>2017-11-18T11:42:45.055Z</time>
      </trkpt>
      <trkpt lat="48.08616" lon="6.83869">
        <ele>901.41921184813</ele>
        <time>2017-11-18T11:42:51.055Z</time>
      </trkpt>
      <trkpt lat="48.08619" lon="6.8386">
        <ele>901.98939409415</ele>
        <time>2017-11-18T11:42:57.055Z</time>
      </trkpt>
      <trkpt lat="48.08623" lon="6.83853">
        <ele>901.48434326261</ele>
        <time>2017-11-18T11:43:02.055Z</time>
      </trkpt>
      <trkpt lat="48.08627" lon="6.83845">
        <ele>901</ele>
        <time>2017-11-18T11:43:07.055Z</time>
      </trkpt>
      <trkpt lat="48.08631" lon="6.83836">
        <ele>901</ele>
        <time>2017-11-18T11:43:12.055Z</time>
      </trkpt>
      <trkpt lat="48.08635" lon="6.83829">
        <ele>900.98069353232</ele>
        <time>2017-11-18T11:43:17.055Z</time>
      </trkpt>
      <trkpt lat="48.0864" lon="6.83822">
        <ele>900.28762378622</ele>
        <time>2017-11-18T11:43:24.055Z</time>
      </trkpt>
      <trkpt lat="48.08642" lon="6.83815">
        <ele>900</ele>
        <time>2017-11-18T11:43:29.055Z</time>
      </trkpt>
      <trkpt lat="48.08646" lon="6.83809">
        <ele>900</ele>
        <time>2017-11-18T11:43:34.055Z</time>
      </trkpt>
      <trkpt lat="48.0865" lon="6.838">
        <ele>900</ele>
        <time>2017-11-18T11:43:41.055Z</time>
      </trkpt>
      <trkpt lat="48.08653" lon="6.83792">
        <ele>900</ele>
        <time>2017-11-18T11:43:46.055Z</time>
      </trkpt>
      <trkpt lat="48.08656" lon="6.83784">
        <ele>899.58078815187</ele>
        <time>2017-11-18T11:43:51.055Z</time>
      </trkpt>
      <trkpt lat="48.0866" lon="6.83775">
        <ele>898.98950016</ele>
        <time>2017-11-18T11:43:57.055Z</time>
      </trkpt>
      <trkpt lat="48.08665" lon="6.83766">
        <ele>898.38950016</ele>
        <time>2017-11-18T11:44:03.055Z</time>
      </trkpt>
      <trkpt lat="48.08668" lon="6.83757">
        <ele>898</ele>
        <time>2017-11-18T11:44:09.055Z</time>
      </trkpt>
      <trkpt lat="48.08671" lon="6.83749">
        <ele>898</ele>
        <time>2017-11-18T11:44:15.055Z</time>
      </trkpt>
      <trkpt lat="48.08673" lon="6.8374">
        <ele>897.68298676701</ele>
        <time>2017-11-18T11:44:20.055Z</time>
      </trkpt>
      <trkpt lat="48.08675" lon="6.83729">
        <ele>897.08951514476</ele>
        <time>2017-11-18T11:44:26.055Z</time>
      </trkpt>
      <trkpt lat="48.08679" lon="6.83719">
        <ele>896.58594510364</ele>
        <time>2017-11-18T11:44:31.055Z</time>
      </trkpt>
      <trkpt lat="48.08681" lon="6.8371">
        <ele>896.08038376716</ele>
        <time>2017-11-18T11:44:36.055Z</time>
      </trkpt>
      <trkpt lat="48.08684" lon="6.837">
        <ele>896</ele>
        <time>2017-11-18T11:44:42.055Z</time>
      </trkpt>
      <trkpt lat="48.08687" lon="6.83692">
        <ele>895.98069353232</ele>
        <time>2017-11-18T11:44:47.055Z</time>
      </trkpt>
      <trkpt lat="48.08689" lon="6.83681">
        <ele>895.38663374995</ele>
        <time>2017-11-18T11:44:53.055Z</time>
      </trkpt>
      <trkpt lat="48.08693" lon="6.83673">
        <ele>894.7898693809</ele>
        <time>2017-11-18T11:44:59.055Z</time>
      </trkpt>
      <trkpt lat="48.08697" lon="6.83663">
        <ele>894.18806377149</ele>
        <time>2017-11-18T11:45:05.055Z</time>
      </trkpt>
      <trkpt lat="48.087" lon="6.83652">
        <ele>894</ele>
        <time>2017-11-18T11:45:12.055Z</time>
      </trkpt>
      <trkpt lat="48.08703" lon="6.83643">
        <ele>894</ele>
        <time>2017-11-18T11:45:17.055Z</time>
      </trkpt>
      <trkpt lat="48.08706" lon="6.83633">
        <ele>894</ele>
        <time>2017-11-18T11:45:22.055Z</time>
      </trkpt>
      <trkpt lat="48.0871" lon="6.83623">
        <ele>893.67899412766</ele>
        <time>2017-11-18T11:45:30.055Z</time>
      </trkpt>
      <trkpt lat="48.08713" lon="6.83616">
        <ele>893.01161568428</ele>
        <time>2017-11-18T11:45:37.055Z</time>
      </trkpt>
      <trkpt lat="48.08717" lon="6.83607">
        <ele>893.61767668213</ele>
        <time>2017-11-18T11:45:43.055Z</time>
      </trkpt>
      <trkpt lat="48.0872" lon="6.83597">
        <ele>894</ele>
        <time>2017-11-18T11:45:49.055Z</time>
      </trkpt>
      <trkpt lat="48.08723" lon="6.83586">
        <ele>894</ele>
        <time>2017-11-18T11:45:56.055Z</time>
      </trkpt>
      <trkpt lat="48.08727" lon="6.83576">
        <ele>894</ele>
        <time>2017-11-18T11:46:04.055Z</time>
      </trkpt>
      <trkpt lat="48.08733" lon="6.83566">
        <ele>893.68636359522</ele>
        <time>2017-11-18T11:46:10.055Z</time>
      </trkpt>
      <trkpt lat="48.08736" lon="6.83555">
        <ele>893.08030259737</ele>
        <time>2017-11-18T11:46:16.055Z</time>
      </trkpt>
      <trkpt lat="48.08738" lon="6.83543">
        <ele>892.48157322709</ele>
        <time>2017-11-18T11:46:22.055Z</time>
      </trkpt>
      <trkpt lat="48.08741" lon="6.83532">
        <ele>892</ele>
        <time>2017-11-18T11:46:28.055Z</time>
      </trkpt>
      <trkpt lat="48.08744" lon="6.83523">
        <ele>892</ele>
        <time>2017-11-18T11:46:33.055Z</time>
      </trkpt>
      <trkpt lat="48.08748" lon="6.83514">
        <ele>892</ele>
        <time>2017-11-18T11:46:39.055Z</time>
      </trkpt>
      <trkpt lat="48.0875" lon="6.83504">
        <ele>892</ele>
        <time>2017-11-18T11:46:44.055Z</time>
      </trkpt>
      <trkpt lat="48.08752" lon="6.83496">
        <ele>892</ele>
        <time>2017-11-18T11:46:49.055Z</time>
      </trkpt>
      <trkpt lat="48.08755" lon="6.83488">
        <ele>892</ele>
        <time>2017-11-18T11:46:55.055Z</time>
      </trkpt>
      <trkpt lat="48.08757" lon="6.83479">
        <ele>891.68136743116</ele>
        <time>2017-11-18T11:47:00.055Z</time>
      </trkpt>
      <trkpt lat="48.08761" lon="6.83469">
        <ele>891</ele>
        <time>2017-11-18T11:47:07.055Z</time>
      </trkpt>
      <trkpt lat="48.08765" lon="6.8346">
        <ele>891</ele>
        <time>2017-11-18T11:47:12.055Z</time>
      </trkpt>
      <trkpt lat="48.08768" lon="6.8345">
        <ele>890.88737414941</ele>
        <time>2017-11-18T11:47:18.055Z</time>
      </trkpt>
      <trkpt lat="48.08772" lon="6.83437">
        <ele>890.18030298525</ele>
        <time>2017-11-18T11:47:25.055Z</time>
      </trkpt>
      <trkpt lat="48.08775" lon="6.83424">
        <ele>888.95699968</ele>
        <time>2017-11-18T11:47:32.055Z</time>
      </trkpt>
      <trkpt lat="48.08775" lon="6.83411">
        <ele>888</ele>
        <time>2017-11-18T11:47:39.055Z</time>
      </trkpt>
      <trkpt lat="48.08776" lon="6.83399">
        <ele>888</ele>
        <time>2017-11-18T11:47:45.055Z</time>
      </trkpt>
      <trkpt lat="48.08777" lon="6.8339">
        <ele>888</ele>
        <time>2017-11-18T11:47:50.055Z</time>
      </trkpt>
      <trkpt lat="48.08777" lon="6.83378">
        <ele>888</ele>
        <time>2017-11-18T11:47:56.055Z</time>
      </trkpt>
      <trkpt lat="48.08777" lon="6.83367">
        <ele>887.56569598899</ele>
        <time>2017-11-18T11:48:02.055Z</time>
      </trkpt>
      <trkpt lat="48.08778" lon="6.83357">
        <ele>886.56268663998</ele>
        <time>2017-11-18T11:48:07.055Z</time>
      </trkpt>
      <trkpt lat="48.08778" lon="6.83347">
        <ele>886</ele>
        <time>2017-11-18T11:48:13.055Z</time>
      </trkpt>
      <trkpt lat="48.08778" lon="6.83335">
        <ele>886</ele>
        <time>2017-11-18T11:48:21.055Z</time>
      </trkpt>
      <trkpt lat="48.08776" lon="6.83326">
        <ele>886</ele>
        <time>2017-11-18T11:48:27.055Z</time>
      </trkpt>
      <trkpt lat="48.08776" lon="6.83312">
        <ele>886</ele>
        <time>2017-11-18T11:48:35.055Z</time>
      </trkpt>
      <trkpt lat="48.08778" lon="6.83301">
        <ele>885.68439327834</ele>
        <time>2017-11-18T11:48:43.055Z</time>
      </trkpt>
      <trkpt lat="48.08779" lon="6.83289">
        <ele>885</ele>
        <time>2017-11-18T11:48:53.055Z</time>
      </trkpt>
      <trkpt lat="48.08777" lon="6.83278">
        <ele>884.87801188755</ele>
        <time>2017-11-18T11:49:01.055Z</time>
      </trkpt>
      <trkpt lat="48.08778" lon="6.83266">
        <ele>884</ele>
        <time>2017-11-18T11:49:10.055Z</time>
      </trkpt>
      <trkpt lat="48.0878" lon="6.83254">
        <ele>884</ele>
        <time>2017-11-18T11:49:18.055Z</time>
      </trkpt>
      <trkpt lat="48.08781" lon="6.83243">
        <ele>884.51715470687</ele>
        <time>2017-11-18T11:49:25.055Z</time>
      </trkpt>
      <trkpt lat="48.08784" lon="6.8323">
        <ele>885</ele>
        <time>2017-11-18T11:49:32.055Z</time>
      </trkpt>
      <trkpt lat="48.08787" lon="6.83216">
        <ele>885</ele>
        <time>2017-11-18T11:49:40.055Z</time>
      </trkpt>
      <trkpt lat="48.08788" lon="6.83205">
        <ele>885</ele>
        <time>2017-11-18T11:49:47.055Z</time>
      </trkpt>
      <trkpt lat="48.08789" lon="6.83195">
        <ele>884.68503488611</ele>
        <time>2017-11-18T11:49:53.055Z</time>
      </trkpt>
      <trkpt lat="48.08791" lon="6.83184">
        <ele>883.87774459257</ele>
        <time>2017-11-18T11:50:01.055Z</time>
      </trkpt>
      <trkpt lat="48.08794" lon="6.83173">
        <ele>883.27894181489</ele>
        <time>2017-11-18T11:50:07.055Z</time>
      </trkpt>
      <trkpt lat="48.08798" lon="6.8316">
        <ele>883.41633684509</ele>
        <time>2017-11-18T11:50:14.055Z</time>
      </trkpt>
      <trkpt lat="48.088" lon="6.83148">
        <ele>884</ele>
        <time>2017-11-18T11:50:23.055Z</time>
      </trkpt>
      <trkpt lat="48.08803" lon="6.83136">
        <ele>884.12189042687</ele>
        <time>2017-11-18T11:50:31.055Z</time>
      </trkpt>
      <trkpt lat="48.08807" lon="6.83121">
        <ele>885</ele>
        <time>2017-11-18T11:50:40.055Z</time>
      </trkpt>
      <trkpt lat="48.0881" lon="6.83107">
        <ele>885</ele>
        <time>2017-11-18T11:50:48.055Z</time>
      </trkpt>
      <trkpt lat="48.0881" lon="6.83093">
        <ele>885.51101134191</ele>
        <time>2017-11-18T11:50:55.055Z</time>
      </trkpt>
      <trkpt lat="48.08812" lon="6.83082">
        <ele>886</ele>
        <time>2017-11-18T11:51:01.055Z</time>
      </trkpt>
      <trkpt lat="48.08814" lon="6.8307">
        <ele>886</ele>
        <time>2017-11-18T11:51:08.055Z</time>
      </trkpt>
      <trkpt lat="48.08814" lon="6.8306">
        <ele>886.41534706354</ele>
        <time>2017-11-18T11:51:14.055Z</time>
      </trkpt>
      <trkpt lat="48.08814" lon="6.83048">
        <ele>887.11071809447</ele>
        <time>2017-11-18T11:51:21.055Z</time>
      </trkpt>
      <trkpt lat="48.08815" lon="6.83036">
        <ele>887.71739169825</ele>
        <time>2017-11-18T11:51:27.055Z</time>
      </trkpt>
      <trkpt lat="48.08817" lon="6.83025">
        <ele>888</ele>
        <time>2017-11-18T11:51:33.055Z</time>
      </trkpt>
      <trkpt lat="48.08818" lon="6.83016">
        <ele>888</ele>
        <time>2017-11-18T11:51:39.055Z</time>
      </trkpt>
      <trkpt lat="48.08819" lon="6.83005">
        <ele>888</ele>
        <time>2017-11-18T11:51:45.055Z</time>
      </trkpt>
      <trkpt lat="48.08821" lon="6.82992">
        <ele>888</ele>
        <time>2017-11-18T11:51:53.055Z</time>
      </trkpt>
      <trkpt lat="48.08823" lon="6.8298">
        <ele>888.11218261512</ele>
        <time>2017-11-18T11:52:01.055Z</time>
      </trkpt>
      <trkpt lat="48.08824" lon="6.82965">
        <ele>888.9243656201</ele>
        <time>2017-11-18T11:52:09.055Z</time>
      </trkpt>
      <trkpt lat="48.08825" lon="6.82953">
        <ele>889.62053587302</ele>
        <time>2017-11-18T11:52:16.055Z</time>
      </trkpt>
      <trkpt lat="48.08827" lon="6.82939">
        <ele>890</ele>
        <time>2017-11-18T11:52:24.055Z</time>
      </trkpt>
      <trkpt lat="48.08831" lon="6.82924">
        <ele>890</ele>
        <time>2017-11-18T11:52:34.055Z</time>
      </trkpt>
      <trkpt lat="48.08835" lon="6.82909">
        <ele>890</ele>
        <time>2017-11-18T11:52:42.055Z</time>
      </trkpt>
      <trkpt lat="48.08839" lon="6.82896">
        <ele>890</ele>
        <time>2017-11-18T11:52:50.055Z</time>
      </trkpt>
      <trkpt lat="48.08842" lon="6.82882">
        <ele>890</ele>
        <time>2017-11-18T11:52:58.055Z</time>
      </trkpt>
      <trkpt lat="48.08845" lon="6.82868">
        <ele>889.28691762593</ele>
        <time>2017-11-18T11:53:07.055Z</time>
      </trkpt>
      <trkpt lat="48.08848" lon="6.82855">
        <ele>889</ele>
        <time>2017-11-18T11:53:16.055Z</time>
      </trkpt>
      <trkpt lat="48.08852" lon="6.82841">
        <ele>889</ele>
        <time>2017-11-18T11:53:24.055Z</time>
      </trkpt>
      <trkpt lat="48.08856" lon="6.82828">
        <ele>889</ele>
        <time>2017-11-18T11:53:31.055Z</time>
      </trkpt>
      <trkpt lat="48.08861" lon="6.82816">
        <ele>889</ele>
        <time>2017-11-18T11:53:38.055Z</time>
      </trkpt>
      <trkpt lat="48.08864" lon="6.82804">
        <ele>889</ele>
        <time>2017-11-18T11:53:44.055Z</time>
      </trkpt>
      <trkpt lat="48.08867" lon="6.82791">
        <ele>888.88827110642</ele>
        <time>2017-11-18T11:53:51.055Z</time>
      </trkpt>
      <trkpt lat="48.0887" lon="6.82779">
        <ele>888.18048523534</ele>
        <time>2017-11-18T11:53:58.055Z</time>
      </trkpt>
      <trkpt lat="48.08874" lon="6.82765">
        <ele>888</ele>
        <time>2017-11-18T11:54:07.055Z</time>
      </trkpt>
      <trkpt lat="48.08877" lon="6.8275">
        <ele>888</ele>
        <time>2017-11-18T11:54:14.055Z</time>
      </trkpt>
      <trkpt lat="48.0888" lon="6.82737">
        <ele>887.87574249458</ele>
        <time>2017-11-18T11:54:21.055Z</time>
      </trkpt>
      <trkpt lat="48.08883" lon="6.82722">
        <ele>887.18267362682</ele>
        <time>2017-11-18T11:54:28.055Z</time>
      </trkpt>
      <trkpt lat="48.08883" lon="6.82711">
        <ele>887</ele>
        <time>2017-11-18T11:54:34.055Z</time>
      </trkpt>
      <trkpt lat="48.08881" lon="6.82696">
        <ele>886.7774423452</ele>
        <time>2017-11-18T11:54:41.055Z</time>
      </trkpt>
      <trkpt lat="48.08879" lon="6.82683">
        <ele>885.16616287328</ele>
        <time>2017-11-18T11:54:49.055Z</time>
      </trkpt>
      <trkpt lat="48.08879" lon="6.82669">
        <ele>884.28178185168</ele>
        <time>2017-11-18T11:54:57.055Z</time>
      </trkpt>
      <trkpt lat="48.08878" lon="6.82657">
        <ele>883.15709974851</ele>
        <time>2017-11-18T11:55:04.055Z</time>
      </trkpt>
      <trkpt lat="48.08877" lon="6.82644">
        <ele>882</ele>
        <time>2017-11-18T11:55:12.055Z</time>
      </trkpt>
      <trkpt lat="48.0888" lon="6.82631">
        <ele>882</ele>
        <time>2017-11-18T11:55:21.055Z</time>
      </trkpt>
      <trkpt lat="48.08885" lon="6.8262">
        <ele>882</ele>
        <time>2017-11-18T11:55:31.055Z</time>
      </trkpt>
      <trkpt lat="48.08891" lon="6.82611">
        <ele>881.8887211726</ele>
        <time>2017-11-18T11:55:41.055Z</time>
      </trkpt>
      <trkpt lat="48.08898" lon="6.82602">
        <ele>881.08308143664</ele>
        <time>2017-11-18T11:55:49.055Z</time>
      </trkpt>
      <trkpt lat="48.08904" lon="6.82591">
        <ele>880.94975339515</ele>
        <time>2017-11-18T11:56:00.055Z</time>
      </trkpt>
      <trkpt lat="48.08911" lon="6.82577">
        <ele>879.17635493947</ele>
        <time>2017-11-18T11:56:09.055Z</time>
      </trkpt>
      <trkpt lat="48.08913" lon="6.82562">
        <ele>879</ele>
        <time>2017-11-18T11:56:18.055Z</time>
      </trkpt>
      <trkpt lat="48.08913" lon="6.82548">
        <ele>879</ele>
        <time>2017-11-18T11:56:26.055Z</time>
      </trkpt>
      <trkpt lat="48.08911" lon="6.82532">
        <ele>879</ele>
        <time>2017-11-18T11:56:35.055Z</time>
      </trkpt>
      <trkpt lat="48.08905" lon="6.82519">
        <ele>878.28936739478</ele>
        <time>2017-11-18T11:56:47.055Z</time>
      </trkpt>
      <trkpt lat="48.08898" lon="6.82507">
        <ele>877.27839722295</ele>
        <time>2017-11-18T11:56:57.055Z</time>
      </trkpt>
      <trkpt lat="48.08892" lon="6.82495">
        <ele>876.18749984252</ele>
        <time>2017-11-18T11:57:08.055Z</time>
      </trkpt>
      <trkpt lat="48.08887" lon="6.82481">
        <ele>873.88962314885</ele>
        <time>2017-11-18T11:57:31.055Z</time>
      </trkpt>
      <trkpt lat="48.0888" lon="6.82472">
        <ele>873</ele>
        <time>2017-11-18T11:57:46.055Z</time>
      </trkpt>
      <trkpt lat="48.08872" lon="6.82467">
        <ele>872.18931066759</ele>
        <time>2017-11-18T11:57:58.055Z</time>
      </trkpt>
      <trkpt lat="48.08873" lon="6.82456">
        <ele>870.57900032</ele>
        <time>2017-11-18T11:58:07.055Z</time>
      </trkpt>
      <trkpt lat="48.08864" lon="6.82455">
        <ele>868</ele>
        <time>2017-11-18T11:58:44.055Z</time>
      </trkpt>
      <trkpt lat="48.08862" lon="6.82447">
        <ele>868</ele>
        <time>2017-11-18T11:58:52.055Z</time>
      </trkpt>
      <trkpt lat="48.08863" lon="6.82441">
        <ele>867</ele>
        <time>2017-11-18T12:01:47.055Z</time>
      </trkpt>
      <trkpt lat="48.08862" lon="6.82443">
        <ele>866</ele>
        <time>2017-11-18T12:03:51.055Z</time>
      </trkpt>
      <trkpt lat="48.0886" lon="6.82444">
        <ele>865</ele>
        <time>2017-11-18T12:06:38.055Z</time>
      </trkpt>
      <trkpt lat="48.08861" lon="6.8244">
        <ele>863</ele>
        <time>2017-11-18T12:22:03.055Z</time>
      </trkpt>
      <trkpt lat="48.08867" lon="6.82434">
        <ele>863</ele>
        <time>2017-11-18T12:22:47.055Z</time>
      </trkpt>
      <trkpt lat="48.08864" lon="6.82423">
        <ele>863</ele>
        <time>2017-11-18T12:22:55.055Z</time>
      </trkpt>
      <trkpt lat="48.08861" lon="6.82413">
        <ele>863</ele>
        <time>2017-11-18T12:23:04.055Z</time>
      </trkpt>
      <trkpt lat="48.0886" lon="6.82405">
        <ele>863</ele>
        <time>2017-11-18T12:23:10.055Z</time>
      </trkpt>
      <trkpt lat="48.08858" lon="6.82394">
        <ele>863</ele>
        <time>2017-11-18T12:23:16.055Z</time>
      </trkpt>
      <trkpt lat="48.08854" lon="6.82386">
        <ele>863</ele>
        <time>2017-11-18T12:23:21.055Z</time>
      </trkpt>
      <trkpt lat="48.08852" lon="6.82378">
        <ele>863</ele>
        <time>2017-11-18T12:23:27.055Z</time>
      </trkpt>
      <trkpt lat="48.08848" lon="6.8237">
        <ele>863</ele>
        <time>2017-11-18T12:23:35.055Z</time>
      </trkpt>
      <trkpt lat="48.08848" lon="6.82355">
        <ele>858.31949824</ele>
        <time>2017-11-18T12:23:44.055Z</time>
      </trkpt>
      <trkpt lat="48.08851" lon="6.8234">
        <ele>851.77449984</ele>
        <time>2017-11-18T12:23:52.055Z</time>
      </trkpt>
      <trkpt lat="48.08853" lon="6.82325">
        <ele>850.74899968</ele>
        <time>2017-11-18T12:24:01.055Z</time>
      </trkpt>
      <trkpt lat="48.08855" lon="6.82311">
        <ele>849.14899968</ele>
        <time>2017-11-18T12:24:09.055Z</time>
      </trkpt>
      <trkpt lat="48.08857" lon="6.82297">
        <ele>848.37449984</ele>
        <time>2017-11-18T12:24:16.055Z</time>
      </trkpt>
      <trkpt lat="48.08857" lon="6.82282">
        <ele>847.77694644436</ele>
        <time>2017-11-18T12:24:32.055Z</time>
      </trkpt>
      <trkpt lat="48.08858" lon="6.82269">
        <ele>847.07834320373</ele>
        <time>2017-11-18T12:24:39.055Z</time>
      </trkpt>
      <trkpt lat="48.0886" lon="6.82257">
        <ele>846.47693046401</ele>
        <time>2017-11-18T12:24:45.055Z</time>
      </trkpt>
      <trkpt lat="48.08862" lon="6.82245">
        <ele>845.87648761905</ele>
        <time>2017-11-18T12:24:51.055Z</time>
      </trkpt>
      <trkpt lat="48.08865" lon="6.82233">
        <ele>845.28124952381</ele>
        <time>2017-11-18T12:24:57.055Z</time>
      </trkpt>
      <trkpt lat="48.08868" lon="6.82221">
        <ele>844.36125049889</ele>
        <time>2017-11-18T12:25:03.055Z</time>
      </trkpt>
      <trkpt lat="48.0887" lon="6.82209">
        <ele>843.15035280715</ele>
        <time>2017-11-18T12:25:09.055Z</time>
      </trkpt>
      <trkpt lat="48.08873" lon="6.82198">
        <ele>842.67711384744</ele>
        <time>2017-11-18T12:25:23.055Z</time>
      </trkpt>
      <trkpt lat="48.08876" lon="6.82188">
        <ele>842.08009873197</ele>
        <time>2017-11-18T12:25:29.055Z</time>
      </trkpt>
      <trkpt lat="48.08876" lon="6.82178">
        <ele>840.78629450925</ele>
        <time>2017-11-18T12:25:42.055Z</time>
      </trkpt>
      <trkpt lat="48.08879" lon="6.82167">
        <ele>840</ele>
        <time>2017-11-18T12:25:53.055Z</time>
      </trkpt>
      <trkpt lat="48.08881" lon="6.82156">
        <ele>840</ele>
        <time>2017-11-18T12:25:59.055Z</time>
      </trkpt>
      <trkpt lat="48.08883" lon="6.82144">
        <ele>840</ele>
        <time>2017-11-18T12:26:05.055Z</time>
      </trkpt>
      <trkpt lat="48.08885" lon="6.8213">
        <ele>839.36436424765</ele>
        <time>2017-11-18T12:26:13.055Z</time>
      </trkpt>
      <trkpt lat="48.08887" lon="6.82117">
        <ele>837.76156958491</ele>
        <time>2017-11-18T12:26:21.055Z</time>
      </trkpt>
      <trkpt lat="48.08887" lon="6.82105">
        <ele>836.55432534685</ele>
        <time>2017-11-18T12:26:27.055Z</time>
      </trkpt>
      <trkpt lat="48.08886" lon="6.82097">
        <ele>835.55367726207</ele>
        <time>2017-11-18T12:26:32.055Z</time>
      </trkpt>
      <trkpt lat="48.08886" lon="6.82088">
        <ele>834.55964210917</ele>
        <time>2017-11-18T12:26:37.055Z</time>
      </trkpt>
      <trkpt lat="48.08887" lon="6.82077">
        <ele>833.68465342394</ele>
        <time>2017-11-18T12:26:43.055Z</time>
      </trkpt>
      <trkpt lat="48.08889" lon="6.82067">
        <ele>833.18960360529</ele>
        <time>2017-11-18T12:26:48.055Z</time>
      </trkpt>
      <trkpt lat="48.08892" lon="6.82057">
        <ele>832.68648325203</ele>
        <time>2017-11-18T12:26:53.055Z</time>
      </trkpt>
      <trkpt lat="48.08896" lon="6.82046">
        <ele>832.07672715447</ele>
        <time>2017-11-18T12:26:59.055Z</time>
      </trkpt>
      <trkpt lat="48.08899" lon="6.82036">
        <ele>831.57719075697</ele>
        <time>2017-11-18T12:27:04.055Z</time>
      </trkpt>
      <trkpt lat="48.08902" lon="6.82025">
        <ele>831.07918278884</ele>
        <time>2017-11-18T12:27:09.055Z</time>
      </trkpt>
      <trkpt lat="48.08903" lon="6.82015">
        <ele>831</ele>
        <time>2017-11-18T12:27:13.055Z</time>
      </trkpt>
      <trkpt lat="48.08906" lon="6.82005">
        <ele>831</ele>
        <time>2017-11-18T12:27:18.055Z</time>
      </trkpt>
      <trkpt lat="48.08909" lon="6.81994">
        <ele>831</ele>
        <time>2017-11-18T12:27:23.055Z</time>
      </trkpt>
      <trkpt lat="48.08912" lon="6.81983">
        <ele>831</ele>
        <time>2017-11-18T12:27:27.055Z</time>
      </trkpt>
      <trkpt lat="48.08915" lon="6.81972">
        <ele>830.88303164659</ele>
        <time>2017-11-18T12:27:31.055Z</time>
      </trkpt>
      <trkpt lat="48.08919" lon="6.81961">
        <ele>830.48142522088</ele>
        <time>2017-11-18T12:27:35.055Z</time>
      </trkpt>
      <trkpt lat="48.08924" lon="6.81952">
        <ele>829.93849856</ele>
        <time>2017-11-18T12:27:40.055Z</time>
      </trkpt>
      <trkpt lat="48.08928" lon="6.81943">
        <ele>828.43849856</ele>
        <time>2017-11-18T12:27:45.055Z</time>
      </trkpt>
      <trkpt lat="48.08931" lon="6.81934">
        <ele>827</ele>
        <time>2017-11-18T12:27:51.055Z</time>
      </trkpt>
      <trkpt lat="48.08935" lon="6.81927">
        <ele>827</ele>
        <time>2017-11-18T12:27:56.055Z</time>
      </trkpt>
      <trkpt lat="48.08938" lon="6.81921">
        <ele>826.97549952</ele>
        <time>2017-11-18T12:28:00.055Z</time>
      </trkpt>
      <trkpt lat="48.08941" lon="6.81914">
        <ele>826.57549952</ele>
        <time>2017-11-18T12:28:04.055Z</time>
      </trkpt>
      <trkpt lat="48.08945" lon="6.81906">
        <ele>826.17549952</ele>
        <time>2017-11-18T12:28:08.055Z</time>
      </trkpt>
      <trkpt lat="48.08947" lon="6.819">
        <ele>825.87599553785</ele>
        <time>2017-11-18T12:28:11.055Z</time>
      </trkpt>
      <trkpt lat="48.08949" lon="6.81895">
        <ele>825.57719075697</ele>
        <time>2017-11-18T12:28:14.055Z</time>
      </trkpt>
      <trkpt lat="48.08953" lon="6.81885">
        <ele>824.97941718875</ele>
        <time>2017-11-18T12:28:20.055Z</time>
      </trkpt>
      <trkpt lat="48.08955" lon="6.81877">
        <ele>824.57781076305</ele>
        <time>2017-11-18T12:28:24.055Z</time>
      </trkpt>
      <trkpt lat="48.08957" lon="6.81869">
        <ele>824.17620433735</ele>
        <time>2017-11-18T12:28:28.055Z</time>
      </trkpt>
      <trkpt lat="48.08959" lon="6.81863">
        <ele>823.7529752381</ele>
        <time>2017-11-18T12:28:31.055Z</time>
      </trkpt>
      <trkpt lat="48.08962" lon="6.81854">
        <ele>822.76091174603</ele>
        <time>2017-11-18T12:28:36.055Z</time>
      </trkpt>
      <trkpt lat="48.08963" lon="6.81849">
        <ele>822.16567365079</ele>
        <time>2017-11-18T12:28:39.055Z</time>
      </trkpt>
      <trkpt lat="48.08966" lon="6.8184">
        <ele>822</ele>
        <time>2017-11-18T12:28:44.055Z</time>
      </trkpt>
      <trkpt lat="48.08969" lon="6.81832">
        <ele>822</ele>
        <time>2017-11-18T12:28:49.055Z</time>
      </trkpt>
      <trkpt lat="48.08972" lon="6.81824">
        <ele>821.58518064516</ele>
        <time>2017-11-18T12:28:54.055Z</time>
      </trkpt>
      <trkpt lat="48.08976" lon="6.81815">
        <ele>821.0811483871</ele>
        <time>2017-11-18T12:28:59.055Z</time>
      </trkpt>
      <trkpt lat="48.08981" lon="6.81805">
        <ele>819.45692929462</ele>
        <time>2017-11-18T12:29:05.055Z</time>
      </trkpt>
      <trkpt lat="48.08983" lon="6.81798">
        <ele>818.2688112356</ele>
        <time>2017-11-18T12:29:09.055Z</time>
      </trkpt>
      <trkpt lat="48.08986" lon="6.81792">
        <ele>818</ele>
        <time>2017-11-18T12:29:13.055Z</time>
      </trkpt>
      <trkpt lat="48.08988" lon="6.81788">
        <ele>818</ele>
        <time>2017-11-18T12:29:15.055Z</time>
      </trkpt>
      <trkpt lat="48.08989" lon="6.81785">
        <ele>818</ele>
        <time>2017-11-18T12:29:17.055Z</time>
      </trkpt>
      <trkpt lat="48.08991" lon="6.8178">
        <ele>818</ele>
        <time>2017-11-18T12:29:20.055Z</time>
      </trkpt>
      <trkpt lat="48.08996" lon="6.8177">
        <ele>818</ele>
        <time>2017-11-18T12:29:25.055Z</time>
      </trkpt>
      <trkpt lat="48.09" lon="6.81766">
        <ele>818</ele>
        <time>2017-11-18T12:29:28.055Z</time>
      </trkpt>
      <trkpt lat="48.09001" lon="6.8176">
        <ele>815.08969263499</ele>
        <time>2017-11-18T12:30:29.055Z</time>
      </trkpt>
      <trkpt lat="48.09001" lon="6.81754">
        <ele>815</ele>
        <time>2017-11-18T12:30:32.055Z</time>
      </trkpt>
      <trkpt lat="48.09001" lon="6.81747">
        <ele>815</ele>
        <time>2017-11-18T12:30:35.055Z</time>
      </trkpt>
      <trkpt lat="48.09002" lon="6.81742">
        <ele>815</ele>
        <time>2017-11-18T12:30:38.055Z</time>
      </trkpt>
      <trkpt lat="48.09003" lon="6.81736">
        <ele>814.76676588051</ele>
        <time>2017-11-18T12:30:41.055Z</time>
      </trkpt>
      <trkpt lat="48.09004" lon="6.8173">
        <ele>814.1661654723</ele>
        <time>2017-11-18T12:30:44.055Z</time>
      </trkpt>
      <trkpt lat="48.09005" lon="6.81724">
        <ele>813.56556506408</ele>
        <time>2017-11-18T12:30:47.055Z</time>
      </trkpt>
      <trkpt lat="48.09007" lon="6.81717">
        <ele>812.98263873016</ele>
        <time>2017-11-18T12:30:50.055Z</time>
      </trkpt>
      <trkpt lat="48.09008" lon="6.81711">
        <ele>812.78422603175</ele>
        <time>2017-11-18T12:30:52.055Z</time>
      </trkpt>
      <trkpt lat="48.0901" lon="6.81703">
        <ele>812.58581333333</ele>
        <time>2017-11-18T12:30:54.055Z</time>
      </trkpt>
      <trkpt lat="48.09012" lon="6.81697">
        <ele>812.38740063492</ele>
        <time>2017-11-18T12:30:56.055Z</time>
      </trkpt>
      <trkpt lat="48.09014" lon="6.81691">
        <ele>812.0897815873</ele>
        <time>2017-11-18T12:30:59.055Z</time>
      </trkpt>
      <trkpt lat="48.09015" lon="6.81685">
        <ele>811.57676707993</ele>
        <time>2017-11-18T12:31:02.055Z</time>
      </trkpt>
      <trkpt lat="48.09017" lon="6.81679">
        <ele>810.97070608207</ele>
        <time>2017-11-18T12:31:05.055Z</time>
      </trkpt>
      <trkpt lat="48.09019" lon="6.81673">
        <ele>810.36464508421</ele>
        <time>2017-11-18T12:31:08.055Z</time>
      </trkpt>
      <trkpt lat="48.09022" lon="6.81666">
        <ele>809.55879250371</ele>
        <time>2017-11-18T12:31:12.055Z</time>
      </trkpt>
      <trkpt lat="48.09025" lon="6.81659">
        <ele>808.75477266178</ele>
        <time>2017-11-18T12:31:16.055Z</time>
      </trkpt>
      <trkpt lat="48.09027" lon="6.81651">
        <ele>807.97583780618</ele>
        <time>2017-11-18T12:31:20.055Z</time>
      </trkpt>
      <trkpt lat="48.0903" lon="6.81643">
        <ele>807.5813607376</ele>
        <time>2017-11-18T12:31:24.055Z</time>
      </trkpt>
      <trkpt lat="48.09033" lon="6.81636">
        <ele>807.18688366903</ele>
        <time>2017-11-18T12:31:28.055Z</time>
      </trkpt>
      <trkpt lat="48.09035" lon="6.81626">
        <ele>807</ele>
        <time>2017-11-18T12:31:33.055Z</time>
      </trkpt>
      <trkpt lat="48.09036" lon="6.8162">
        <ele>807</ele>
        <time>2017-11-18T12:31:36.055Z</time>
      </trkpt>
      <trkpt lat="48.09037" lon="6.81612">
        <ele>806.98434390907</ele>
        <time>2017-11-18T12:31:40.055Z</time>
      </trkpt>
      <trkpt lat="48.09038" lon="6.81603">
        <ele>806.47929307752</ele>
        <time>2017-11-18T12:31:45.055Z</time>
      </trkpt>
      <trkpt lat="48.0904" lon="6.81591">
        <ele>805.97490141732</ele>
        <time>2017-11-18T12:31:50.055Z</time>
      </trkpt>
      <trkpt lat="48.09042" lon="6.81582">
        <ele>805.58120062992</ele>
        <time>2017-11-18T12:31:54.055Z</time>
      </trkpt>
      <trkpt lat="48.09044" lon="6.81576">
        <ele>805.28592503937</ele>
        <time>2017-11-18T12:31:57.055Z</time>
      </trkpt>
      <trkpt lat="48.09049" lon="6.81567">
        <ele>804.57847077442</ele>
        <time>2017-11-18T12:32:02.055Z</time>
      </trkpt>
      <trkpt lat="48.09053" lon="6.81561">
        <ele>803.77364231878</ele>
        <time>2017-11-18T12:32:06.055Z</time>
      </trkpt>
      <trkpt lat="48.09057" lon="6.81554">
        <ele>802.98448495006</ele>
        <time>2017-11-18T12:32:10.055Z</time>
      </trkpt>
      <trkpt lat="48.09062" lon="6.81545">
        <ele>802.48398396859</ele>
        <time>2017-11-18T12:32:15.055Z</time>
      </trkpt>
      <trkpt lat="48.09065" lon="6.81539">
        <ele>802.18368337972</ele>
        <time>2017-11-18T12:32:18.055Z</time>
      </trkpt>
      <trkpt lat="48.09069" lon="6.81532">
        <ele>802</ele>
        <time>2017-11-18T12:32:22.055Z</time>
      </trkpt>
      <trkpt lat="48.09074" lon="6.81523">
        <ele>802</ele>
        <time>2017-11-18T12:32:27.055Z</time>
      </trkpt>
      <trkpt lat="48.09079" lon="6.81516">
        <ele>801.88179944394</ele>
        <time>2017-11-18T12:32:31.055Z</time>
      </trkpt>
      <trkpt lat="48.09083" lon="6.81509">
        <ele>801.48615169578</ele>
        <time>2017-11-18T12:32:35.055Z</time>
      </trkpt>
      <trkpt lat="48.09087" lon="6.81503">
        <ele>801.09050394762</ele>
        <time>2017-11-18T12:32:39.055Z</time>
      </trkpt>
      <trkpt lat="48.09091" lon="6.81497">
        <ele>800.37739580145</ele>
        <time>2017-11-18T12:32:43.055Z</time>
      </trkpt>
      <trkpt lat="48.09096" lon="6.8149">
        <ele>799.57013067362</ele>
        <time>2017-11-18T12:32:47.055Z</time>
      </trkpt>
      <trkpt lat="48.09101" lon="6.81484">
        <ele>798.88343238095</ele>
        <time>2017-11-18T12:32:51.055Z</time>
      </trkpt>
      <trkpt lat="48.09105" lon="6.81479">
        <ele>798.48660698413</ele>
        <time>2017-11-18T12:32:55.055Z</time>
      </trkpt>
      <trkpt lat="48.09111" lon="6.81473">
        <ele>798</ele>
        <time>2017-11-18T12:33:00.055Z</time>
      </trkpt>
      <trkpt lat="48.09116" lon="6.81466">
        <ele>798</ele>
        <time>2017-11-18T12:33:05.055Z</time>
      </trkpt>
      <trkpt lat="48.09122" lon="6.81458">
        <ele>797.97843513852</ele>
        <time>2017-11-18T12:33:10.055Z</time>
      </trkpt>
      <trkpt lat="48.09127" lon="6.81452">
        <ele>797.57723139891</ele>
        <time>2017-11-18T12:33:14.055Z</time>
      </trkpt>
      <trkpt lat="48.0913" lon="6.81448">
        <ele>797.27632859421</ele>
        <time>2017-11-18T12:33:17.055Z</time>
      </trkpt>
      <trkpt lat="48.09136" lon="6.8144">
        <ele>796.77728126984</ele>
        <time>2017-11-18T12:33:22.055Z</time>
      </trkpt>
      <trkpt lat="48.09141" lon="6.8143">
        <ele>796.1820431746</ele>
        <time>2017-11-18T12:33:28.055Z</time>
      </trkpt>
      <trkpt lat="48.09145" lon="6.8142">
        <ele>795.58182682731</ele>
        <time>2017-11-18T12:33:34.055Z</time>
      </trkpt>
      <trkpt lat="48.09148" lon="6.8141">
        <ele>794.97941718875</ele>
        <time>2017-11-18T12:33:40.055Z</time>
      </trkpt>
      <trkpt lat="48.0915" lon="6.81402">
        <ele>794.57781076305</ele>
        <time>2017-11-18T12:33:44.055Z</time>
      </trkpt>
      <trkpt lat="48.09152" lon="6.81394">
        <ele>794.17620433735</ele>
        <time>2017-11-18T12:33:48.055Z</time>
      </trkpt>
      <trkpt lat="48.09153" lon="6.81388">
        <ele>793.75074986963</ele>
        <time>2017-11-18T12:33:51.055Z</time>
      </trkpt>
      <trkpt lat="48.09154" lon="6.81382">
        <ele>793.15014946141</ele>
        <time>2017-11-18T12:33:54.055Z</time>
      </trkpt>
      <trkpt lat="48.09155" lon="6.81374">
        <ele>792.34934891712</ele>
        <time>2017-11-18T12:33:58.055Z</time>
      </trkpt>
      <trkpt lat="48.09155" lon="6.81365">
        <ele>791.35988148983</ele>
        <time>2017-11-18T12:34:03.055Z</time>
      </trkpt>
      <trkpt lat="48.09156" lon="6.81356">
        <ele>790.37659701132</ele>
        <time>2017-11-18T12:34:08.055Z</time>
      </trkpt>
      <trkpt lat="48.09159" lon="6.81347">
        <ele>789.68963754389</ele>
        <time>2017-11-18T12:34:13.055Z</time>
      </trkpt>
      <trkpt lat="48.09161" lon="6.81339">
        <ele>789.18661975912</ele>
        <time>2017-11-18T12:34:18.055Z</time>
      </trkpt>
      <trkpt lat="48.09164" lon="6.8133">
        <ele>788.05080470072</ele>
        <time>2017-11-18T12:34:23.055Z</time>
      </trkpt>
      <trkpt lat="48.09165" lon="6.8132">
        <ele>786.54174940314</ele>
        <time>2017-11-18T12:34:28.055Z</time>
      </trkpt>
      <trkpt lat="48.09168" lon="6.81304">
        <ele>785.28165478551</ele>
        <time>2017-11-18T12:34:37.055Z</time>
      </trkpt>
      <trkpt lat="48.0917" lon="6.81294">
        <ele>784.34619148453</ele>
        <time>2017-11-18T12:34:42.055Z</time>
      </trkpt>
      <trkpt lat="48.09173" lon="6.81285">
        <ele>782.84318450865</ele>
        <time>2017-11-18T12:34:47.055Z</time>
      </trkpt>
      <trkpt lat="48.09176" lon="6.81275">
        <ele>782</ele>
        <time>2017-11-18T12:34:53.055Z</time>
      </trkpt>
      <trkpt lat="48.09182" lon="6.81263">
        <ele>781.36399592831</ele>
        <time>2017-11-18T12:35:03.055Z</time>
      </trkpt>
      <trkpt lat="48.09189" lon="6.81253">
        <ele>780</ele>
        <time>2017-11-18T12:35:11.055Z</time>
      </trkpt>
      <trkpt lat="48.09198" lon="6.81246">
        <ele>780</ele>
        <time>2017-11-18T12:35:18.055Z</time>
      </trkpt>
      <trkpt lat="48.09208" lon="6.81245">
        <ele>779.28620952381</ele>
        <time>2017-11-18T12:35:27.055Z</time>
      </trkpt>
      <trkpt lat="48.09215" lon="6.81244">
        <ele>778.58265666035</ele>
        <time>2017-11-18T12:35:34.055Z</time>
      </trkpt>
      <trkpt lat="48.09223" lon="6.8124">
        <ele>777.55213487916</ele>
        <time>2017-11-18T12:35:42.055Z</time>
      </trkpt>
      <trkpt lat="48.09227" lon="6.81233">
        <ele>776.55908653535</ele>
        <time>2017-11-18T12:35:47.055Z</time>
      </trkpt>
      <trkpt lat="48.09231" lon="6.81224">
        <ele>775.03776452375</ele>
        <time>2017-11-18T12:35:53.055Z</time>
      </trkpt>
      <trkpt lat="48.09235" lon="6.81213">
        <ele>772.57449984</ele>
        <time>2017-11-18T12:36:04.055Z</time>
      </trkpt>
      <trkpt lat="48.09235" lon="6.81202">
        <ele>771.97467710834</ele>
        <time>2017-11-18T12:36:10.055Z</time>
      </trkpt>
      <trkpt lat="48.09235" lon="6.81194">
        <ele>771.47815293644</ele>
        <time>2017-11-18T12:36:15.055Z</time>
      </trkpt>
      <trkpt lat="48.09237" lon="6.81185">
        <ele>770.96277695793</ele>
        <time>2017-11-18T12:36:20.055Z</time>
      </trkpt>
      <trkpt lat="48.09239" lon="6.81177">
        <ele>769.95674009287</ele>
        <time>2017-11-18T12:36:25.055Z</time>
      </trkpt>
      <trkpt lat="48.09242" lon="6.81169">
        <ele>768.95124281035</ele>
        <time>2017-11-18T12:36:30.055Z</time>
      </trkpt>
      <trkpt lat="48.09245" lon="6.81161">
        <ele>767.9562176179</ele>
        <time>2017-11-18T12:36:35.055Z</time>
      </trkpt>
      <trkpt lat="48.09249" lon="6.81153">
        <ele>766.98038150157</ele>
        <time>2017-11-18T12:36:40.055Z</time>
      </trkpt>
      <trkpt lat="48.09252" lon="6.81144">
        <ele>766.37676015983</ele>
        <time>2017-11-18T12:36:46.055Z</time>
      </trkpt>
      <trkpt lat="48.09255" lon="6.81134">
        <ele>765.55257904762</ele>
        <time>2017-11-18T12:36:52.055Z</time>
      </trkpt>
      <trkpt lat="48.09258" lon="6.81121">
        <ele>763.76381884983</ele>
        <time>2017-11-18T12:37:01.055Z</time>
      </trkpt>
      <trkpt lat="48.09261" lon="6.81109">
        <ele>762.55778908694</ele>
        <time>2017-11-18T12:37:07.055Z</time>
      </trkpt>
      <trkpt lat="48.09263" lon="6.811">
        <ele>762</ele>
        <time>2017-11-18T12:37:12.055Z</time>
      </trkpt>
      <trkpt lat="48.09262" lon="6.81091">
        <ele>762</ele>
        <time>2017-11-18T12:37:18.055Z</time>
      </trkpt>
      <trkpt lat="48.09264" lon="6.81085">
        <ele>761.77995980825</ele>
        <time>2017-11-18T12:37:22.055Z</time>
      </trkpt>
      <trkpt lat="48.09267" lon="6.81078">
        <ele>761.37713994027</ele>
        <time>2017-11-18T12:37:26.055Z</time>
      </trkpt>
      <trkpt lat="48.09269" lon="6.81071">
        <ele>760.94985217695</ele>
        <time>2017-11-18T12:37:30.055Z</time>
      </trkpt>
      <trkpt lat="48.09271" lon="6.81063">
        <ele>760.16322459413</ele>
        <time>2017-11-18T12:37:34.055Z</time>
      </trkpt>
      <trkpt lat="48.09273" lon="6.81057">
        <ele>759.57325390702</ele>
        <time>2017-11-18T12:37:37.055Z</time>
      </trkpt>
      <trkpt lat="48.09275" lon="6.81044">
        <ele>758.07542402357</ele>
        <time>2017-11-18T12:37:43.055Z</time>
      </trkpt>
      <trkpt lat="48.09276" lon="6.81038">
        <ele>757.17632398674</ele>
        <time>2017-11-18T12:37:46.055Z</time>
      </trkpt>
      <trkpt lat="48.09278" lon="6.81026">
        <ele>755.79145756764</ele>
        <time>2017-11-18T12:37:52.055Z</time>
      </trkpt>
      <trkpt lat="48.0928" lon="6.81016">
        <ele>755.28894451999</ele>
        <time>2017-11-18T12:37:57.055Z</time>
      </trkpt>
      <trkpt lat="48.09281" lon="6.81009">
        <ele>754.979490185</ele>
        <time>2017-11-18T12:38:01.055Z</time>
      </trkpt>
      <trkpt lat="48.09282" lon="6.81001">
        <ele>754.53603089031</ele>
        <time>2017-11-18T12:38:05.055Z</time>
      </trkpt>
      <trkpt lat="48.09284" lon="6.80991">
        <ele>754</ele>
        <time>2017-11-18T12:38:10.055Z</time>
      </trkpt>
      <trkpt lat="48.09285" lon="6.80981">
        <ele>754</ele>
        <time>2017-11-18T12:38:17.055Z</time>
      </trkpt>
      <trkpt lat="48.09288" lon="6.80971">
        <ele>753.68391945383</ele>
        <time>2017-11-18T12:38:23.055Z</time>
      </trkpt>
      <trkpt lat="48.0929" lon="6.80959">
        <ele>753.08090379665</ele>
        <time>2017-11-18T12:38:29.055Z</time>
      </trkpt>
      <trkpt lat="48.09292" lon="6.80947">
        <ele>753</ele>
        <time>2017-11-18T12:38:36.055Z</time>
      </trkpt>
      <trkpt lat="48.09293" lon="6.80933">
        <ele>752.57355869491</ele>
        <time>2017-11-18T12:38:42.055Z</time>
      </trkpt>
      <trkpt lat="48.09292" lon="6.80918">
        <ele>750.96568929463</ele>
        <time>2017-11-18T12:38:50.055Z</time>
      </trkpt>
      <trkpt lat="48.0929" lon="6.80906">
        <ele>748.14026134724</ele>
        <time>2017-11-18T12:38:57.055Z</time>
      </trkpt>
      <trkpt lat="48.09289" lon="6.80893">
        <ele>746.17080431514</ele>
        <time>2017-11-18T12:39:04.055Z</time>
      </trkpt>
      <trkpt lat="48.0929" lon="6.80883">
        <ele>744.88950016</ele>
        <time>2017-11-18T12:39:11.055Z</time>
      </trkpt>
      <trkpt lat="48.09291" lon="6.8087">
        <ele>744.18950016</ele>
        <time>2017-11-18T12:39:18.055Z</time>
      </trkpt>
      <trkpt lat="48.09292" lon="6.80859">
        <ele>743.06475951807</ele>
        <time>2017-11-18T12:39:23.055Z</time>
      </trkpt>
      <trkpt lat="48.09293" lon="6.8085">
        <ele>741.85994024096</ele>
        <time>2017-11-18T12:39:27.055Z</time>
      </trkpt>
      <trkpt lat="48.09295" lon="6.80841">
        <ele>740.68644053737</ele>
        <time>2017-11-18T12:39:33.055Z</time>
      </trkpt>
      <trkpt lat="48.09296" lon="6.80831">
        <ele>740</ele>
        <time>2017-11-18T12:39:40.055Z</time>
      </trkpt>
      <trkpt lat="48.09297" lon="6.80822">
        <ele>740</ele>
        <time>2017-11-18T12:39:45.055Z</time>
      </trkpt>
      <trkpt lat="48.09299" lon="6.80815">
        <ele>740</ele>
        <time>2017-11-18T12:39:49.055Z</time>
      </trkpt>
      <trkpt lat="48.09302" lon="6.80805">
        <ele>739.15888793697</ele>
        <time>2017-11-18T12:39:54.055Z</time>
      </trkpt>
      <trkpt lat="48.09304" lon="6.80798">
        <ele>738.36444825211</ele>
        <time>2017-11-18T12:39:58.055Z</time>
      </trkpt>
      <trkpt lat="48.09304" lon="6.80792">
        <ele>737.76861878256</ele>
        <time>2017-11-18T12:40:01.055Z</time>
      </trkpt>
      <trkpt lat="48.09304" lon="6.80786">
        <ele>736.97418010751</ele>
        <time>2017-11-18T12:40:05.055Z</time>
      </trkpt>
      <trkpt lat="48.09307" lon="6.80782">
        <ele>737.57803160046</ele>
        <time>2017-11-18T12:40:24.055Z</time>
      </trkpt>
      <trkpt lat="48.09308" lon="6.80776">
        <ele>737.1804175393</ele>
        <time>2017-11-18T12:40:28.055Z</time>
      </trkpt>
      <trkpt lat="48.09309" lon="6.80768">
        <ele>737</ele>
        <time>2017-11-18T12:40:31.055Z</time>
      </trkpt>
      <trkpt lat="48.09308" lon="6.80764">
        <ele>737</ele>
        <time>2017-11-18T12:40:33.055Z</time>
      </trkpt>
      <trkpt lat="48.09308" lon="6.80759">
        <ele>737</ele>
        <time>2017-11-18T12:40:35.055Z</time>
      </trkpt>
      <trkpt lat="48.09308" lon="6.80752">
        <ele>737</ele>
        <time>2017-11-18T12:40:38.055Z</time>
      </trkpt>
      <trkpt lat="48.09307" lon="6.80746">
        <ele>737.11016105583</ele>
        <time>2017-11-18T12:40:41.055Z</time>
      </trkpt>
      <trkpt lat="48.09306" lon="6.80742">
        <ele>737.31136816974</ele>
        <time>2017-11-18T12:40:43.055Z</time>
      </trkpt>
      <trkpt lat="48.09305" lon="6.80735">
        <ele>737.61317884061</ele>
        <time>2017-11-18T12:40:46.055Z</time>
      </trkpt>
      <trkpt lat="48.09304" lon="6.80729">
        <ele>737.91498951148</ele>
        <time>2017-11-18T12:40:49.055Z</time>
      </trkpt>
      <trkpt lat="48.09303" lon="6.80723">
        <ele>739.04141384495</ele>
        <time>2017-11-18T12:40:55.055Z</time>
      </trkpt>
      <trkpt lat="48.09303" lon="6.80717">
        <ele>739.64747484281</ele>
        <time>2017-11-18T12:40:58.055Z</time>
      </trkpt>
      <trkpt lat="48.09302" lon="6.80711">
        <ele>740</ele>
        <time>2017-11-18T12:41:01.055Z</time>
      </trkpt>
      <trkpt lat="48.09301" lon="6.80704">
        <ele>740</ele>
        <time>2017-11-18T12:41:05.055Z</time>
      </trkpt>
      <trkpt lat="48.09301" lon="6.80698">
        <ele>740</ele>
        <time>2017-11-18T12:41:08.055Z</time>
      </trkpt>
      <trkpt lat="48.09301" lon="6.80691">
        <ele>740</ele>
        <time>2017-11-18T12:41:11.055Z</time>
      </trkpt>
      <trkpt lat="48.093" lon="6.80686">
        <ele>740</ele>
        <time>2017-11-18T12:41:14.055Z</time>
      </trkpt>
      <trkpt lat="48.093" lon="6.8068">
        <ele>740</ele>
        <time>2017-11-18T12:41:17.055Z</time>
      </trkpt>
      <trkpt lat="48.09301" lon="6.80674">
        <ele>740.04091909562</ele>
        <time>2017-11-18T12:41:20.055Z</time>
      </trkpt>
      <trkpt lat="48.09301" lon="6.80668">
        <ele>740.63972110836</ele>
        <time>2017-11-18T12:41:23.055Z</time>
      </trkpt>
      <trkpt lat="48.09303" lon="6.80662">
        <ele>741.2385231211</ele>
        <time>2017-11-18T12:41:26.055Z</time>
      </trkpt>
      <trkpt lat="48.09304" lon="6.80656">
        <ele>741.83732513384</ele>
        <time>2017-11-18T12:41:29.055Z</time>
      </trkpt>
      <trkpt lat="48.09305" lon="6.80652">
        <ele>742.11873739077</ele>
        <time>2017-11-18T12:41:31.055Z</time>
      </trkpt>
      <trkpt lat="48.09307" lon="6.80648">
        <ele>742.31913832089</ele>
        <time>2017-11-18T12:41:33.055Z</time>
      </trkpt>
      <trkpt lat="48.09308" lon="6.80642">
        <ele>742.61973971607</ele>
        <time>2017-11-18T12:41:36.055Z</time>
      </trkpt>
      <trkpt lat="48.09311" lon="6.80635">
        <ele>743.04100096</ele>
        <time>2017-11-18T12:41:40.055Z</time>
      </trkpt>
      <trkpt lat="48.09313" lon="6.80629">
        <ele>743.84100096</ele>
        <time>2017-11-18T12:41:44.055Z</time>
      </trkpt>
      <trkpt lat="48.09318" lon="6.80621">
        <ele>745</ele>
        <time>2017-11-18T12:41:51.055Z</time>
      </trkpt>
      <trkpt lat="48.09323" lon="6.80613">
        <ele>745</ele>
        <time>2017-11-18T12:41:56.055Z</time>
      </trkpt>
      <trkpt lat="48.09328" lon="6.80605">
        <ele>745.43725203219</ele>
        <time>2017-11-18T12:42:02.055Z</time>
      </trkpt>
      <trkpt lat="48.09332" lon="6.80598">
        <ele>746.43326669862</ele>
        <time>2017-11-18T12:42:07.055Z</time>
      </trkpt>
      <trkpt lat="48.09337" lon="6.80591">
        <ele>747.42885490272</ele>
        <time>2017-11-18T12:42:12.055Z</time>
      </trkpt>
      <trkpt lat="48.09341" lon="6.80586">
        <ele>748.62288513366</ele>
        <time>2017-11-18T12:42:18.055Z</time>
      </trkpt>
      <trkpt lat="48.09345" lon="6.80581">
        <ele>749.21049984</ele>
        <time>2017-11-18T12:42:22.055Z</time>
      </trkpt>
      <trkpt lat="48.09349" lon="6.80577">
        <ele>749.71049984</ele>
        <time>2017-11-18T12:42:27.055Z</time>
      </trkpt>
      <trkpt lat="48.09352" lon="6.80574">
        <ele>750.31049984</ele>
        <time>2017-11-18T12:42:33.055Z</time>
      </trkpt>
      <trkpt lat="48.09355" lon="6.80572">
        <ele>750.61049984</ele>
        <time>2017-11-18T12:42:36.055Z</time>
      </trkpt>
      <trkpt lat="48.09357" lon="6.8057">
        <ele>750.81049984</ele>
        <time>2017-11-18T12:42:38.055Z</time>
      </trkpt>
      <trkpt lat="48.09359" lon="6.80568">
        <ele>751.01064893186</ele>
        <time>2017-11-18T12:42:40.055Z</time>
      </trkpt>
      <trkpt lat="48.09362" lon="6.80565">
        <ele>751.31490876424</ele>
        <time>2017-11-18T12:42:43.055Z</time>
      </trkpt>
      <trkpt lat="48.09365" lon="6.80561">
        <ele>751.61916859662</ele>
        <time>2017-11-18T12:42:46.055Z</time>
      </trkpt>
      <trkpt lat="48.09368" lon="6.80557">
        <ele>751.923428429</ele>
        <time>2017-11-18T12:42:49.055Z</time>
      </trkpt>
      <trkpt lat="48.09371" lon="6.80554">
        <ele>752.22472513322</ele>
        <time>2017-11-18T12:42:52.055Z</time>
      </trkpt>
      <trkpt lat="48.09375" lon="6.8055">
        <ele>752.52502533733</ele>
        <time>2017-11-18T12:42:55.055Z</time>
      </trkpt>
      <trkpt lat="48.09379" lon="6.80548">
        <ele>752.82532554144</ele>
        <time>2017-11-18T12:42:58.055Z</time>
      </trkpt>
      <trkpt lat="48.09383" lon="6.80544">
        <ele>753.22527495713</ele>
        <time>2017-11-18T12:43:02.055Z</time>
      </trkpt>
      <trkpt lat="48.09387" lon="6.80541">
        <ele>753.62487548448</ele>
        <time>2017-11-18T12:43:06.055Z</time>
      </trkpt>
      <trkpt lat="48.09391" lon="6.80538">
        <ele>753.92457587998</ele>
        <time>2017-11-18T12:43:09.055Z</time>
      </trkpt>
      <trkpt lat="48.09393" lon="6.80536">
        <ele>754.37350144</ele>
        <time>2017-11-18T12:43:11.055Z</time>
      </trkpt>
      <trkpt lat="48.09396" lon="6.80534">
        <ele>754.97350144</ele>
        <time>2017-11-18T12:43:13.055Z</time>
      </trkpt>
      <trkpt lat="48.09397" lon="6.80532">
        <ele>755.57350144</ele>
        <time>2017-11-18T12:43:15.055Z</time>
      </trkpt>
      <trkpt lat="48.09399" lon="6.80531">
        <ele>756.77350144</ele>
        <time>2017-11-18T12:43:19.055Z</time>
      </trkpt>
      <trkpt lat="48.09401" lon="6.80529">
        <ele>757</ele>
        <time>2017-11-18T12:43:21.055Z</time>
      </trkpt>
      <trkpt lat="48.09403" lon="6.80526">
        <ele>757</ele>
        <time>2017-11-18T12:43:23.055Z</time>
      </trkpt>
      <trkpt lat="48.09407" lon="6.80522">
        <ele>757</ele>
        <time>2017-11-18T12:43:26.055Z</time>
      </trkpt>
      <trkpt lat="48.09411" lon="6.80519">
        <ele>757</ele>
        <time>2017-11-18T12:43:29.055Z</time>
      </trkpt>
      <trkpt lat="48.09415" lon="6.80516">
        <ele>757</ele>
        <time>2017-11-18T12:43:32.055Z</time>
      </trkpt>
      <trkpt lat="48.09419" lon="6.80512">
        <ele>757</ele>
        <time>2017-11-18T12:43:35.055Z</time>
      </trkpt>
      <trkpt lat="48.09424" lon="6.80509">
        <ele>757</ele>
        <time>2017-11-18T12:43:38.055Z</time>
      </trkpt>
      <trkpt lat="48.09428" lon="6.80507">
        <ele>757.42421243566</ele>
        <time>2017-11-18T12:43:42.055Z</time>
      </trkpt>
      <trkpt lat="48.0943" lon="6.80502">
        <ele>759.0253480877</ele>
        <time>2017-11-18T12:43:50.055Z</time>
      </trkpt>
      <trkpt lat="48.09436" lon="6.80497">
        <ele>759.42296265477</ele>
        <time>2017-11-18T12:43:54.055Z</time>
      </trkpt>
      <trkpt lat="48.0944" lon="6.80494">
        <ele>759.91998086361</ele>
        <time>2017-11-18T12:43:59.055Z</time>
      </trkpt>
      <trkpt lat="48.09441" lon="6.805">
        <ele>760</ele>
        <time>2017-11-18T12:44:11.055Z</time>
      </trkpt>
      <trkpt lat="48.09443" lon="6.80506">
        <ele>760.64519378242</ele>
        <time>2017-11-18T12:44:23.055Z</time>
      </trkpt>
      <trkpt lat="48.09439" lon="6.80504">
        <ele>762.58384130081</ele>
        <time>2017-11-18T12:45:14.055Z</time>
      </trkpt>
      <trkpt lat="48.09435" lon="6.80505">
        <ele>762.27896325203</ele>
        <time>2017-11-18T12:45:17.055Z</time>
      </trkpt>
      <trkpt lat="48.0943" lon="6.80508">
        <ele>761.77783242472</ele>
        <time>2017-11-18T12:45:22.055Z</time>
      </trkpt>
      <trkpt lat="48.09424" lon="6.80511">
        <ele>761.28522174259</ele>
        <time>2017-11-18T12:45:27.055Z</time>
      </trkpt>
      <trkpt lat="48.09419" lon="6.80513">
        <ele>760.78950016</ele>
        <time>2017-11-18T12:45:32.055Z</time>
      </trkpt>
      <trkpt lat="48.09414" lon="6.80519">
        <ele>760.08950016</ele>
        <time>2017-11-18T12:45:39.055Z</time>
      </trkpt>
      <trkpt lat="48.09409" lon="6.80523">
        <ele>759.58908885438</ele>
        <time>2017-11-18T12:45:44.055Z</time>
      </trkpt>
      <trkpt lat="48.09406" lon="6.80526">
        <ele>759.18868806921</ele>
        <time>2017-11-18T12:45:48.055Z</time>
      </trkpt>
      <trkpt lat="48.09403" lon="6.80529">
        <ele>758.8877133009</ele>
        <time>2017-11-18T12:45:51.055Z</time>
      </trkpt>
      <trkpt lat="48.094" lon="6.80533">
        <ele>758.58559878935</ele>
        <time>2017-11-18T12:45:54.055Z</time>
      </trkpt>
      <trkpt lat="48.09397" lon="6.80536">
        <ele>758.2834842778</ele>
        <time>2017-11-18T12:45:57.055Z</time>
      </trkpt>
      <trkpt lat="48.09394" lon="6.8054">
        <ele>757.96307414807</ele>
        <time>2017-11-18T12:46:00.055Z</time>
      </trkpt>
      <trkpt lat="48.09391" lon="6.80543">
        <ele>757.36427137039</ele>
        <time>2017-11-18T12:46:03.055Z</time>
      </trkpt>
      <trkpt lat="48.09387" lon="6.80547">
        <ele>756.76546859271</ele>
        <time>2017-11-18T12:46:06.055Z</time>
      </trkpt>
      <trkpt lat="48.09382" lon="6.8055">
        <ele>756</ele>
        <time>2017-11-18T12:46:10.055Z</time>
      </trkpt>
      <trkpt lat="48.09377" lon="6.80554">
        <ele>756</ele>
        <time>2017-11-18T12:46:15.055Z</time>
      </trkpt>
      <trkpt lat="48.09374" lon="6.80556">
        <ele>756</ele>
        <time>2017-11-18T12:46:18.055Z</time>
      </trkpt>
      <trkpt lat="48.0937" lon="6.80559">
        <ele>755.78171837178</ele>
        <time>2017-11-18T12:46:22.055Z</time>
      </trkpt>
      <trkpt lat="48.09365" lon="6.80564">
        <ele>755.2822177126</ele>
        <time>2017-11-18T12:46:27.055Z</time>
      </trkpt>
      <trkpt lat="48.09359" lon="6.80566">
        <ele>755</ele>
        <time>2017-11-18T12:46:32.055Z</time>
      </trkpt>
      <trkpt lat="48.09356" lon="6.80569">
        <ele>755</ele>
        <time>2017-11-18T12:46:36.055Z</time>
      </trkpt>
      <trkpt lat="48.09352" lon="6.80571">
        <ele>754.97475233283</ele>
        <time>2017-11-18T12:46:40.055Z</time>
      </trkpt>
      <trkpt lat="48.09348" lon="6.80573">
        <ele>754.57871297983</ele>
        <time>2017-11-18T12:46:44.055Z</time>
      </trkpt>
      <trkpt lat="48.09341" lon="6.8058">
        <ele>753.98456221139</ele>
        <time>2017-11-18T12:46:50.055Z</time>
      </trkpt>
      <trkpt lat="48.09338" lon="6.80584">
        <ele>753.58615532896</ele>
        <time>2017-11-18T12:46:54.055Z</time>
      </trkpt>
      <trkpt lat="48.09334" lon="6.80589">
        <ele>753.18774844653</ele>
        <time>2017-11-18T12:46:58.055Z</time>
      </trkpt>
      <trkpt lat="48.0933" lon="6.80596">
        <ele>751.74268133435</ele>
        <time>2017-11-18T12:47:03.055Z</time>
      </trkpt>
      <trkpt lat="48.09327" lon="6.80603">
        <ele>749.72451851479</ele>
        <time>2017-11-18T12:47:08.055Z</time>
      </trkpt>
      <trkpt lat="48.09323" lon="6.80608">
        <ele>748.77949952</ele>
        <time>2017-11-18T12:47:12.055Z</time>
      </trkpt>
      <trkpt lat="48.09319" lon="6.80614">
        <ele>748.37949952</ele>
        <time>2017-11-18T12:47:16.055Z</time>
      </trkpt>
      <trkpt lat="48.09315" lon="6.8062">
        <ele>747.97956084401</ele>
        <time>2017-11-18T12:47:20.055Z</time>
      </trkpt>
      <trkpt lat="48.09312" lon="6.80625">
        <ele>747.58075738201</ele>
        <time>2017-11-18T12:47:24.055Z</time>
      </trkpt>
      <trkpt lat="48.09309" lon="6.8063">
        <ele>747.18195392001</ele>
        <time>2017-11-18T12:47:28.055Z</time>
      </trkpt>
      <trkpt lat="48.09307" lon="6.80636">
        <ele>746.78206382818</ele>
        <time>2017-11-18T12:47:32.055Z</time>
      </trkpt>
      <trkpt lat="48.09304" lon="6.80641">
        <ele>746.38126196794</ele>
        <time>2017-11-18T12:47:36.055Z</time>
      </trkpt>
      <trkpt lat="48.09303" lon="6.80646">
        <ele>746</ele>
        <time>2017-11-18T12:47:42.055Z</time>
      </trkpt>
      <trkpt lat="48.09302" lon="6.80652">
        <ele>746</ele>
        <time>2017-11-18T12:47:47.055Z</time>
      </trkpt>
      <trkpt lat="48.09301" lon="6.80659">
        <ele>745.98164698413</ele>
        <time>2017-11-18T12:47:50.055Z</time>
      </trkpt>
      <trkpt lat="48.09299" lon="6.80665">
        <ele>745.68402793651</ele>
        <time>2017-11-18T12:47:53.055Z</time>
      </trkpt>
      <trkpt lat="48.09298" lon="6.8067">
        <ele>745.38640888889</ele>
        <time>2017-11-18T12:47:56.055Z</time>
      </trkpt>
      <trkpt lat="48.09298" lon="6.80677">
        <ele>744.9789792791</ele>
        <time>2017-11-18T12:48:00.055Z</time>
      </trkpt>
      <trkpt lat="48.09298" lon="6.80683">
        <ele>744.17817770876</ele>
        <time>2017-11-18T12:48:04.055Z</time>
      </trkpt>
      <trkpt lat="48.09298" lon="6.80687">
        <ele>743.577576531</ele>
        <time>2017-11-18T12:48:07.055Z</time>
      </trkpt>
      <trkpt lat="48.09299" lon="6.80694">
        <ele>743</ele>
        <time>2017-11-18T12:48:11.055Z</time>
      </trkpt>
      <trkpt lat="48.09299" lon="6.80699">
        <ele>743</ele>
        <time>2017-11-18T12:48:15.055Z</time>
      </trkpt>
      <trkpt lat="48.09299" lon="6.80704">
        <ele>743</ele>
        <time>2017-11-18T12:48:18.055Z</time>
      </trkpt>
      <trkpt lat="48.09297" lon="6.8071">
        <ele>742.78629450925</ele>
        <time>2017-11-18T12:48:22.055Z</time>
      </trkpt>
      <trkpt lat="48.09298" lon="6.80716">
        <ele>742.38020300677</ele>
        <time>2017-11-18T12:48:26.055Z</time>
      </trkpt>
      <trkpt lat="48.09299" lon="6.80722">
        <ele>741.97449984</ele>
        <time>2017-11-18T12:48:30.055Z</time>
      </trkpt>
      <trkpt lat="48.093" lon="6.80728">
        <ele>741.57449984</ele>
        <time>2017-11-18T12:48:34.055Z</time>
      </trkpt>
      <trkpt lat="48.09301" lon="6.80735">
        <ele>741.17449984</ele>
        <time>2017-11-18T12:48:38.055Z</time>
      </trkpt>
      <trkpt lat="48.09302" lon="6.80741">
        <ele>741</ele>
        <time>2017-11-18T12:48:42.055Z</time>
      </trkpt>
      <trkpt lat="48.09303" lon="6.80747">
        <ele>741</ele>
        <time>2017-11-18T12:48:45.055Z</time>
      </trkpt>
      <trkpt lat="48.09305" lon="6.80752">
        <ele>741</ele>
        <time>2017-11-18T12:48:48.055Z</time>
      </trkpt>
      <trkpt lat="48.09305" lon="6.80759">
        <ele>741</ele>
        <time>2017-11-18T12:48:52.055Z</time>
      </trkpt>
      <trkpt lat="48.09305" lon="6.80764">
        <ele>741</ele>
        <time>2017-11-18T12:48:55.055Z</time>
      </trkpt>
      <trkpt lat="48.09305" lon="6.8077">
        <ele>741</ele>
        <time>2017-11-18T12:48:58.055Z</time>
      </trkpt>
      <trkpt lat="48.09304" lon="6.80776">
        <ele>740.75923972323</ele>
        <time>2017-11-18T12:49:01.055Z</time>
      </trkpt>
      <trkpt lat="48.09301" lon="6.80781">
        <ele>740.15983893222</ele>
        <time>2017-11-18T12:49:04.055Z</time>
      </trkpt>
      <trkpt lat="48.09297" lon="6.80784">
        <ele>739.5604381412</ele>
        <time>2017-11-18T12:49:07.055Z</time>
      </trkpt>
      <trkpt lat="48.09293" lon="6.80783">
        <ele>738.96115383439</ele>
        <time>2017-11-18T12:49:10.055Z</time>
      </trkpt>
      <trkpt lat="48.09288" lon="6.80781">
        <ele>738.36354503452</ele>
        <time>2017-11-18T12:49:13.055Z</time>
      </trkpt>
      <trkpt lat="48.09284" lon="6.80777">
        <ele>737.56673330138</ele>
        <time>2017-11-18T12:49:17.055Z</time>
      </trkpt>
      <trkpt lat="48.0928" lon="6.80773">
        <ele>736.88391996841</ele>
        <time>2017-11-18T12:49:21.055Z</time>
      </trkpt>
      <trkpt lat="48.09276" lon="6.80769">
        <ele>736.48190953028</ele>
        <time>2017-11-18T12:49:25.055Z</time>
      </trkpt>
      <trkpt lat="48.09271" lon="6.80764">
        <ele>736.07989909216</ele>
        <time>2017-11-18T12:49:29.055Z</time>
      </trkpt>
      <trkpt lat="48.09268" lon="6.8076">
        <ele>736</ele>
        <time>2017-11-18T12:49:32.055Z</time>
      </trkpt>
      <trkpt lat="48.09263" lon="6.80753">
        <ele>736</ele>
        <time>2017-11-18T12:49:37.055Z</time>
      </trkpt>
      <trkpt lat="48.0926" lon="6.80747">
        <ele>735.87499984064</ele>
        <time>2017-11-18T12:49:41.055Z</time>
      </trkpt>
      <trkpt lat="48.09257" lon="6.80742">
        <ele>735.47659346614</ele>
        <time>2017-11-18T12:49:45.055Z</time>
      </trkpt>
      <trkpt lat="48.09253" lon="6.80736">
        <ele>735.07818709163</ele>
        <time>2017-11-18T12:49:49.055Z</time>
      </trkpt>
      <trkpt lat="48.09249" lon="6.8073">
        <ele>734.35506466762</ele>
        <time>2017-11-18T12:49:53.055Z</time>
      </trkpt>
      <trkpt lat="48.09246" lon="6.80724">
        <ele>733.55265718842</ele>
        <time>2017-11-18T12:49:57.055Z</time>
      </trkpt>
      <trkpt lat="48.09241" lon="6.80719">
        <ele>733</ele>
        <time>2017-11-18T12:50:01.055Z</time>
      </trkpt>
      <trkpt lat="48.09236" lon="6.8071">
        <ele>733</ele>
        <time>2017-11-18T12:50:08.055Z</time>
      </trkpt>
      <trkpt lat="48.09227" lon="6.80704">
        <ele>733</ele>
        <time>2017-11-18T12:50:17.055Z</time>
      </trkpt>
      <trkpt lat="48.09222" lon="6.80701">
        <ele>732.88527062783</ele>
        <time>2017-11-18T12:50:21.055Z</time>
      </trkpt>
      <trkpt lat="48.09213" lon="6.80696">
        <ele>732.18386737242</ele>
        <time>2017-11-18T12:50:28.055Z</time>
      </trkpt>
      <trkpt lat="48.09208" lon="6.80691">
        <ele>731.68538739697</ele>
        <time>2017-11-18T12:50:33.055Z</time>
      </trkpt>
      <trkpt lat="48.09202" lon="6.8069">
        <ele>731.28777333581</ele>
        <time>2017-11-18T12:50:37.055Z</time>
      </trkpt>
      <trkpt lat="48.09195" lon="6.80688">
        <ele>730.14604471954</ele>
        <time>2017-11-18T12:50:42.055Z</time>
      </trkpt>
      <trkpt lat="48.09189" lon="6.80684">
        <ele>728.11764583701</ele>
        <time>2017-11-18T12:50:47.055Z</time>
      </trkpt>
      <trkpt lat="48.09182" lon="6.80682">
        <ele>727</ele>
        <time>2017-11-18T12:50:52.055Z</time>
      </trkpt>
      <trkpt lat="48.09175" lon="6.80681">
        <ele>727</ele>
        <time>2017-11-18T12:50:58.055Z</time>
      </trkpt>
      <trkpt lat="48.09168" lon="6.80686">
        <ele>727</ele>
        <time>2017-11-18T12:51:06.055Z</time>
      </trkpt>
      <trkpt lat="48.09158" lon="6.80689">
        <ele>726.47449984</ele>
        <time>2017-11-18T12:51:15.055Z</time>
      </trkpt>
      <trkpt lat="48.09149" lon="6.80691">
        <ele>725.74899968</ele>
        <time>2017-11-18T12:51:21.055Z</time>
      </trkpt>
      <trkpt lat="48.09141" lon="6.80691">
        <ele>724.74899968</ele>
        <time>2017-11-18T12:51:26.055Z</time>
      </trkpt>
      <trkpt lat="48.09131" lon="6.80689">
        <ele>723.87647622047</ele>
        <time>2017-11-18T12:51:31.055Z</time>
      </trkpt>
      <trkpt lat="48.09121" lon="6.80686">
        <ele>722.97821280345</ele>
        <time>2017-11-18T12:51:41.055Z</time>
      </trkpt>
      <trkpt lat="48.09112" lon="6.8069">
        <ele>722.02428191941</ele>
        <time>2017-11-18T12:51:50.055Z</time>
      </trkpt>
      <trkpt lat="48.09102" lon="6.80689">
        <ele>722.7180374536</ele>
        <time>2017-11-18T12:51:57.055Z</time>
      </trkpt>
      <trkpt lat="48.09091" lon="6.8069">
        <ele>723.01059520703</ele>
        <time>2017-11-18T12:52:10.055Z</time>
      </trkpt>
      <trkpt lat="48.09083" lon="6.807">
        <ele>724.2175427068</ele>
        <time>2017-11-18T12:52:22.055Z</time>
      </trkpt>
      <trkpt lat="48.09074" lon="6.80708">
        <ele>725.02097870801</ele>
        <time>2017-11-18T12:52:30.055Z</time>
      </trkpt>
      <trkpt lat="48.09066" lon="6.80716">
        <ele>726.81918108106</ele>
        <time>2017-11-18T12:52:39.055Z</time>
      </trkpt>
      <trkpt lat="48.09057" lon="6.80724">
        <ele>727.81112292497</ele>
        <time>2017-11-18T12:52:48.055Z</time>
      </trkpt>
      <trkpt lat="48.09047" lon="6.80729">
        <ele>728.82217863208</ele>
        <time>2017-11-18T12:52:54.055Z</time>
      </trkpt>
      <trkpt lat="48.09037" lon="6.80734">
        <ele>730.11218261512</ele>
        <time>2017-11-18T12:53:01.055Z</time>
      </trkpt>
      <trkpt lat="48.09029" lon="6.80742">
        <ele>730.82284274448</ele>
        <time>2017-11-18T12:53:08.055Z</time>
      </trkpt>
      <trkpt lat="48.09019" lon="6.8075">
        <ele>731.6217699383</ele>
        <time>2017-11-18T12:53:16.055Z</time>
      </trkpt>
      <trkpt lat="48.0901" lon="6.80757">
        <ele>732.84068242682</ele>
        <time>2017-11-18T12:53:24.055Z</time>
      </trkpt>
      <trkpt lat="48.09001" lon="6.80766">
        <ele>734</ele>
        <time>2017-11-18T12:53:31.055Z</time>
      </trkpt>
      <trkpt lat="48.08994" lon="6.80779">
        <ele>734.24950345893</ele>
        <time>2017-11-18T12:53:41.055Z</time>
      </trkpt>
      <trkpt lat="48.08986" lon="6.8079">
        <ele>736.11831754879</ele>
        <time>2017-11-18T12:53:51.055Z</time>
      </trkpt>
      <trkpt lat="48.08978" lon="6.80799">
        <ele>737.00950966662</ele>
        <time>2017-11-18T12:54:00.055Z</time>
      </trkpt>
      <trkpt lat="48.08968" lon="6.80802">
        <ele>737.71021014288</ele>
        <time>2017-11-18T12:54:07.055Z</time>
      </trkpt>
      <trkpt lat="48.08959" lon="6.8081">
        <ele>740.14220988391</ele>
        <time>2017-11-18T12:54:17.055Z</time>
      </trkpt>
      <trkpt lat="48.08952" lon="6.80822">
        <ele>741.24826927849</ele>
        <time>2017-11-18T12:54:31.055Z</time>
      </trkpt>
      <trkpt lat="48.08942" lon="6.80827">
        <ele>743.23038212017</ele>
        <time>2017-11-18T12:54:41.055Z</time>
      </trkpt>
      <trkpt lat="48.08935" lon="6.80839">
        <ele>745.64422186316</ele>
        <time>2017-11-18T12:54:53.055Z</time>
      </trkpt>
      <trkpt lat="48.08927" lon="6.80847">
        <ele>748.23129952756</ele>
        <time>2017-11-18T12:55:06.055Z</time>
      </trkpt>
      <trkpt lat="48.08918" lon="6.80857">
        <ele>750.03137684211</ele>
        <time>2017-11-18T12:55:15.055Z</time>
      </trkpt>
      <trkpt lat="48.08911" lon="6.80867">
        <ele>751.42107921553</ele>
        <time>2017-11-18T12:55:24.055Z</time>
      </trkpt>
      <trkpt lat="48.08904" lon="6.80876">
        <ele>753.85025162605</ele>
        <time>2017-11-18T12:55:39.055Z</time>
      </trkpt>
      <trkpt lat="48.08897" lon="6.80885">
        <ele>754.51773398456</ele>
        <time>2017-11-18T12:55:45.055Z</time>
      </trkpt>
      <trkpt lat="48.08891" lon="6.80898">
        <ele>755.61791481781</ele>
        <time>2017-11-18T12:55:56.055Z</time>
      </trkpt>
      <trkpt lat="48.08885" lon="6.80911">
        <ele>756.82085864805</ele>
        <time>2017-11-18T12:56:08.055Z</time>
      </trkpt>
      <trkpt lat="48.08877" lon="6.80922">
        <ele>757.92512581303</ele>
        <time>2017-11-18T12:56:19.055Z</time>
      </trkpt>
      <trkpt lat="48.08871" lon="6.80936">
        <ele>758.91272262736</ele>
        <time>2017-11-18T12:56:29.055Z</time>
      </trkpt>
      <trkpt lat="48.08864" lon="6.80946">
        <ele>759</ele>
        <time>2017-11-18T12:56:38.055Z</time>
      </trkpt>
      <trkpt lat="48.08857" lon="6.80959">
        <ele>759.724397751</ele>
        <time>2017-11-18T12:56:47.055Z</time>
      </trkpt>
      <trkpt lat="48.08848" lon="6.80968">
        <ele>761.03649012165</ele>
        <time>2017-11-18T12:56:55.055Z</time>
      </trkpt>
      <trkpt lat="48.08838" lon="6.80976">
        <ele>762.21363703361</ele>
        <time>2017-11-18T12:57:02.055Z</time>
      </trkpt>
      <trkpt lat="48.08831" lon="6.80989">
        <ele>763</ele>
        <time>2017-11-18T12:57:11.055Z</time>
      </trkpt>
      <trkpt lat="48.08825" lon="6.81001">
        <ele>763</ele>
        <time>2017-11-18T12:57:19.055Z</time>
      </trkpt>
      <trkpt lat="48.08819" lon="6.81013">
        <ele>764.62562188739</ele>
        <time>2017-11-18T12:57:28.055Z</time>
      </trkpt>
      <trkpt lat="48.08812" lon="6.81025">
        <ele>765.92163793249</ele>
        <time>2017-11-18T12:57:39.055Z</time>
      </trkpt>
      <trkpt lat="48.08806" lon="6.81036">
        <ele>766.92527596398</ele>
        <time>2017-11-18T12:57:49.055Z</time>
      </trkpt>
      <trkpt lat="48.08798" lon="6.81047">
        <ele>767</ele>
        <time>2017-11-18T12:58:00.055Z</time>
      </trkpt>
      <trkpt lat="48.0879" lon="6.81057">
        <ele>767</ele>
        <time>2017-11-18T12:58:09.055Z</time>
      </trkpt>
      <trkpt lat="48.08783" lon="6.81069">
        <ele>768.44879550201</ele>
        <time>2017-11-18T12:58:17.055Z</time>
      </trkpt>
      <trkpt lat="48.08777" lon="6.81083">
        <ele>769.71618992022</ele>
        <time>2017-11-18T12:58:27.055Z</time>
      </trkpt>
      <trkpt lat="48.08772" lon="6.81096">
        <ele>770.61744</ele>
        <time>2017-11-18T12:58:36.055Z</time>
      </trkpt>
      <trkpt lat="48.08766" lon="6.81107">
        <ele>771</ele>
        <time>2017-11-18T12:58:43.055Z</time>
      </trkpt>
      <trkpt lat="48.08759" lon="6.81119">
        <ele>771.11603633466</ele>
        <time>2017-11-18T12:58:51.055Z</time>
      </trkpt>
      <trkpt lat="48.08756" lon="6.81133">
        <ele>772.11352214296</ele>
        <time>2017-11-18T12:59:01.055Z</time>
      </trkpt>
      <trkpt lat="48.08753" lon="6.81147">
        <ele>773.12198811245</ele>
        <time>2017-11-18T12:59:11.055Z</time>
      </trkpt>
      <trkpt lat="48.08749" lon="6.81162">
        <ele>774.12376749429</ele>
        <time>2017-11-18T12:59:21.055Z</time>
      </trkpt>
      <trkpt lat="48.08746" lon="6.81176">
        <ele>775.01161696219</ele>
        <time>2017-11-18T12:59:30.055Z</time>
      </trkpt>
      <trkpt lat="48.08741" lon="6.8119">
        <ele>775.81969724787</ele>
        <time>2017-11-18T12:59:38.055Z</time>
      </trkpt>
      <trkpt lat="48.08738" lon="6.81204">
        <ele>776</ele>
        <time>2017-11-18T12:59:47.055Z</time>
      </trkpt>
      <trkpt lat="48.08735" lon="6.8122">
        <ele>776.61625612098</ele>
        <time>2017-11-18T12:59:56.055Z</time>
      </trkpt>
      <trkpt lat="48.08733" lon="6.81235">
        <ele>777.31049984</ele>
        <time>2017-11-18T13:00:03.055Z</time>
      </trkpt>
      <trkpt lat="48.08729" lon="6.81249">
        <ele>778.21241174966</ele>
        <time>2017-11-18T13:00:12.055Z</time>
      </trkpt>
      <trkpt lat="48.08724" lon="6.81265">
        <ele>779.12022205539</ele>
        <time>2017-11-18T13:00:21.055Z</time>
      </trkpt>
      <trkpt lat="48.08721" lon="6.8128">
        <ele>779.92505051103</ele>
        <time>2017-11-18T13:00:29.055Z</time>
      </trkpt>
      <trkpt lat="48.08718" lon="6.81295">
        <ele>780.81330039384</ele>
        <time>2017-11-18T13:00:38.055Z</time>
      </trkpt>
      <trkpt lat="48.08718" lon="6.8131">
        <ele>781.81868723632</ele>
        <time>2017-11-18T13:00:48.055Z</time>
      </trkpt>
      <trkpt lat="48.08718" lon="6.81326">
        <ele>782</ele>
        <time>2017-11-18T13:00:57.055Z</time>
      </trkpt>
      <trkpt lat="48.08718" lon="6.81341">
        <ele>783.42955651482</ele>
        <time>2017-11-18T13:01:07.055Z</time>
      </trkpt>
      <trkpt lat="48.08717" lon="6.81357">
        <ele>784.71049984</ele>
        <time>2017-11-18T13:01:17.055Z</time>
      </trkpt>
      <trkpt lat="48.08716" lon="6.81373">
        <ele>785</ele>
        <time>2017-11-18T13:01:25.055Z</time>
      </trkpt>
      <trkpt lat="48.08713" lon="6.81387">
        <ele>785</ele>
        <time>2017-11-18T13:01:34.055Z</time>
      </trkpt>
      <trkpt lat="48.08712" lon="6.81403">
        <ele>785.62727280955</ele>
        <time>2017-11-18T13:01:43.055Z</time>
      </trkpt>
      <trkpt lat="48.08713" lon="6.81419">
        <ele>787.11930733034</ele>
        <time>2017-11-18T13:01:51.055Z</time>
      </trkpt>
      <trkpt lat="48.08717" lon="6.81431">
        <ele>787.71336635985</ele>
        <time>2017-11-18T13:01:57.055Z</time>
      </trkpt>
      <trkpt lat="48.08717" lon="6.81442">
        <ele>788</ele>
        <time>2017-11-18T13:02:04.055Z</time>
      </trkpt>
      <trkpt lat="48.08721" lon="6.81454">
        <ele>788.12137882002</ele>
        <time>2017-11-18T13:02:11.055Z</time>
      </trkpt>
      <trkpt lat="48.08723" lon="6.81469">
        <ele>788.92057987471</ele>
        <time>2017-11-18T13:02:19.055Z</time>
      </trkpt>
      <trkpt lat="48.08724" lon="6.81483">
        <ele>789</ele>
        <time>2017-11-18T13:02:27.055Z</time>
      </trkpt>
      <trkpt lat="48.08725" lon="6.81498">
        <ele>789</ele>
        <time>2017-11-18T13:02:35.055Z</time>
      </trkpt>
      <trkpt lat="48.08724" lon="6.81514">
        <ele>789</ele>
        <time>2017-11-18T13:02:42.055Z</time>
      </trkpt>
      <trkpt lat="48.08725" lon="6.8153">
        <ele>789.01556178707</ele>
        <time>2017-11-18T13:02:50.055Z</time>
      </trkpt>
      <trkpt lat="48.08725" lon="6.81543">
        <ele>789.71837393526</ele>
        <time>2017-11-18T13:02:57.055Z</time>
      </trkpt>
      <trkpt lat="48.08727" lon="6.81554">
        <ele>790</ele>
        <time>2017-11-18T13:03:03.055Z</time>
      </trkpt>
      <trkpt lat="48.08724" lon="6.81565">
        <ele>790</ele>
        <time>2017-11-18T13:03:09.055Z</time>
      </trkpt>
      <trkpt lat="48.08722" lon="6.81577">
        <ele>790</ele>
        <time>2017-11-18T13:03:15.055Z</time>
      </trkpt>
      <trkpt lat="48.08718" lon="6.81588">
        <ele>790.11844774194</ele>
        <time>2017-11-18T13:03:21.055Z</time>
      </trkpt>
      <trkpt lat="48.08713" lon="6.81602">
        <ele>790.92489935484</ele>
        <time>2017-11-18T13:03:29.055Z</time>
      </trkpt>
      <trkpt lat="48.08714" lon="6.81617">
        <ele>791</ele>
        <time>2017-11-18T13:03:36.055Z</time>
      </trkpt>
      <trkpt lat="48.08709" lon="6.8163">
        <ele>791</ele>
        <time>2017-11-18T13:03:44.055Z</time>
      </trkpt>
      <trkpt lat="48.08703" lon="6.81643">
        <ele>791</ele>
        <time>2017-11-18T13:03:50.055Z</time>
      </trkpt>
      <trkpt lat="48.08701" lon="6.81655">
        <ele>791</ele>
        <time>2017-11-18T13:03:57.055Z</time>
      </trkpt>
      <trkpt lat="48.08695" lon="6.81666">
        <ele>790.58291678974</ele>
        <time>2017-11-18T13:04:04.055Z</time>
      </trkpt>
      <trkpt lat="48.0869" lon="6.8168">
        <ele>790</ele>
        <time>2017-11-18T13:04:12.055Z</time>
      </trkpt>
      <trkpt lat="48.08688" lon="6.81696">
        <ele>790</ele>
        <time>2017-11-18T13:04:21.055Z</time>
      </trkpt>
      <trkpt lat="48.08683" lon="6.81709">
        <ele>790</ele>
        <time>2017-11-18T13:04:29.055Z</time>
      </trkpt>
      <trkpt lat="48.08679" lon="6.81723">
        <ele>791</ele>
        <time>2017-11-18T13:04:36.055Z</time>
      </trkpt>
      <trkpt lat="48.08677" lon="6.81736">
        <ele>791.323559013</ele>
        <time>2017-11-18T13:04:43.055Z</time>
      </trkpt>
      <trkpt lat="48.08671" lon="6.81749">
        <ele>792</ele>
        <time>2017-11-18T13:04:52.055Z</time>
      </trkpt>
      <trkpt lat="48.08663" lon="6.81761">
        <ele>792.21767642355</ele>
        <time>2017-11-18T13:05:02.055Z</time>
      </trkpt>
      <trkpt lat="48.08656" lon="6.81772">
        <ele>793</ele>
        <time>2017-11-18T13:05:13.055Z</time>
      </trkpt>
      <trkpt lat="48.08649" lon="6.81785">
        <ele>793.11843477334</ele>
        <time>2017-11-18T13:05:21.055Z</time>
      </trkpt>
      <trkpt lat="48.08641" lon="6.81794">
        <ele>794.22323214431</ele>
        <time>2017-11-18T13:05:31.055Z</time>
      </trkpt>
      <trkpt lat="48.08631" lon="6.81803">
        <ele>796.04100096</ele>
        <time>2017-11-18T13:05:40.055Z</time>
      </trkpt>
      <trkpt lat="48.08627" lon="6.81809">
        <ele>797.04100096</ele>
        <time>2017-11-18T13:05:45.055Z</time>
      </trkpt>
      <trkpt lat="48.08623" lon="6.81815">
        <ele>798.02060349086</ele>
        <time>2017-11-18T13:05:50.055Z</time>
      </trkpt>
      <trkpt lat="48.08615" lon="6.81825">
        <ele>799.02512330242</ele>
        <time>2017-11-18T13:06:00.055Z</time>
      </trkpt>
      <trkpt lat="48.08611" lon="6.8183">
        <ele>799.51773398456</ele>
        <time>2017-11-18T13:06:05.055Z</time>
      </trkpt>
      <trkpt lat="48.08604" lon="6.81841">
        <ele>801.03027312721</ele>
        <time>2017-11-18T13:06:15.055Z</time>
      </trkpt>
      <trkpt lat="48.08599" lon="6.81847">
        <ele>802.32014087686</ele>
        <time>2017-11-18T13:06:23.055Z</time>
      </trkpt>
      <trkpt lat="48.08596" lon="6.81852">
        <ele>803.24035632353</ele>
        <time>2017-11-18T13:06:31.055Z</time>
      </trkpt>
      <trkpt lat="48.0859" lon="6.81859">
        <ele>805.0210207209</ele>
        <time>2017-11-18T13:06:40.055Z</time>
      </trkpt>
      <trkpt lat="48.08581" lon="6.8187">
        <ele>807</ele>
        <time>2017-11-18T13:06:51.055Z</time>
      </trkpt>
      <trkpt lat="48.08576" lon="6.81882">
        <ele>807</ele>
        <time>2017-11-18T13:06:59.055Z</time>
      </trkpt>
      <trkpt lat="48.08568" lon="6.81893">
        <ele>807.82444695408</ele>
        <time>2017-11-18T13:07:08.055Z</time>
      </trkpt>
      <trkpt lat="48.0856" lon="6.81902">
        <ele>808.91633621143</ele>
        <time>2017-11-18T13:07:19.055Z</time>
      </trkpt>
      <trkpt lat="48.0855" lon="6.81906">
        <ele>809.92474758772</ele>
        <time>2017-11-18T13:07:29.055Z</time>
      </trkpt>
      <trkpt lat="48.08542" lon="6.81916">
        <ele>812.22216757528</ele>
        <time>2017-11-18T13:07:42.055Z</time>
      </trkpt>
      <trkpt lat="48.08535" lon="6.81922">
        <ele>812.71477825741</ele>
        <time>2017-11-18T13:07:47.055Z</time>
      </trkpt>
      <trkpt lat="48.08527" lon="6.81931">
        <ele>815.36596433735</ele>
        <time>2017-11-18T13:08:01.055Z</time>
      </trkpt>
      <trkpt lat="48.08519" lon="6.81942">
        <ele>818.66716065777</ele>
        <time>2017-11-18T13:08:12.055Z</time>
      </trkpt>
      <trkpt lat="48.08512" lon="6.81953">
        <ele>821</ele>
        <time>2017-11-18T13:08:21.055Z</time>
      </trkpt>
      <trkpt lat="48.08504" lon="6.81962">
        <ele>821.22160845134</ele>
        <time>2017-11-18T13:08:32.055Z</time>
      </trkpt>
      <trkpt lat="48.08499" lon="6.81969">
        <ele>821.72412085254</ele>
        <time>2017-11-18T13:08:37.055Z</time>
      </trkpt>
      <trkpt lat="48.08494" lon="6.81976">
        <ele>822</ele>
        <time>2017-11-18T13:08:43.055Z</time>
      </trkpt>
      <trkpt lat="48.08488" lon="6.8199">
        <ele>822.62865933282</ele>
        <time>2017-11-18T13:08:53.055Z</time>
      </trkpt>
      <trkpt lat="48.08483" lon="6.81998">
        <ele>824.32082119854</ele>
        <time>2017-11-18T13:09:03.055Z</time>
      </trkpt>
      <trkpt lat="48.0848" lon="6.82003">
        <ele>824.92142160675</ele>
        <time>2017-11-18T13:09:09.055Z</time>
      </trkpt>
      <trkpt lat="48.08472" lon="6.82006">
        <ele>826.02514810266</ele>
        <time>2017-11-18T13:09:20.055Z</time>
      </trkpt>
      <trkpt lat="48.08468" lon="6.82012">
        <ele>826.61686445246</ele>
        <time>2017-11-18T13:09:26.055Z</time>
      </trkpt>
      <trkpt lat="48.08465" lon="6.82015">
        <ele>827.2230016</ele>
        <time>2017-11-18T13:09:31.055Z</time>
      </trkpt>
      <trkpt lat="48.08463" lon="6.82025">
        <ele>829</ele>
        <time>2017-11-18T13:09:48.055Z</time>
      </trkpt>
      <trkpt lat="48.08458" lon="6.82036">
        <ele>830.6484440998</ele>
        <time>2017-11-18T13:10:02.055Z</time>
      </trkpt>
      <trkpt lat="48.08452" lon="6.82048">
        <ele>833</ele>
        <time>2017-11-18T13:10:14.055Z</time>
      </trkpt>
      <trkpt lat="48.08445" lon="6.8206">
        <ele>833.91092535433</ele>
        <time>2017-11-18T13:10:29.055Z</time>
      </trkpt>
      <trkpt lat="48.08435" lon="6.82062">
        <ele>836.4487566802</ele>
        <time>2017-11-18T13:10:42.055Z</time>
      </trkpt>
      <trkpt lat="48.08425" lon="6.82067">
        <ele>838.65495150577</ele>
        <time>2017-11-18T13:10:52.055Z</time>
      </trkpt>
      <trkpt lat="48.08417" lon="6.82078">
        <ele>841</ele>
        <time>2017-11-18T13:11:07.055Z</time>
      </trkpt>
      <trkpt lat="48.08408" lon="6.82086">
        <ele>841.80969040869</ele>
        <time>2017-11-18T13:11:18.055Z</time>
      </trkpt>
      <trkpt lat="48.08398" lon="6.82091">
        <ele>843.21778292676</ele>
        <time>2017-11-18T13:11:26.055Z</time>
      </trkpt>
      <trkpt lat="48.0839" lon="6.82102">
        <ele>847.63763839435</ele>
        <time>2017-11-18T13:11:39.055Z</time>
      </trkpt>
      <trkpt lat="48.08382" lon="6.8211">
        <ele>848.51582590993</ele>
        <time>2017-11-18T13:11:55.055Z</time>
      </trkpt>
      <trkpt lat="48.08372" lon="6.82115">
        <ele>852.00850898626</ele>
        <time>2017-11-18T13:12:10.055Z</time>
      </trkpt>
      <trkpt lat="48.08363" lon="6.82123">
        <ele>854.2214439897</ele>
        <time>2017-11-18T13:12:26.055Z</time>
      </trkpt>
      <trkpt lat="48.08355" lon="6.82129">
        <ele>856.4330314444</ele>
        <time>2017-11-18T13:12:37.055Z</time>
      </trkpt>
      <trkpt lat="48.08346" lon="6.82136">
        <ele>857.82344101308</ele>
        <time>2017-11-18T13:12:48.055Z</time>
      </trkpt>
      <trkpt lat="48.08336" lon="6.82142">
        <ele>860.49900691786</ele>
        <time>2017-11-18T13:13:01.055Z</time>
      </trkpt>
      <trkpt lat="48.08328" lon="6.8215">
        <ele>865.21906253473</ele>
        <time>2017-11-18T13:13:22.055Z</time>
      </trkpt>
      <trkpt lat="48.08319" lon="6.82159">
        <ele>866.64012129032</ele>
        <time>2017-11-18T13:13:33.055Z</time>
      </trkpt>
      <trkpt lat="48.0831" lon="6.82166">
        <ele>868.24044411078</ele>
        <time>2017-11-18T13:13:51.055Z</time>
      </trkpt>
      <trkpt lat="48.083" lon="6.8217">
        <ele>870.67113142857</ele>
        <time>2017-11-18T13:14:02.055Z</time>
      </trkpt>
      <trkpt lat="48.0829" lon="6.82176">
        <ele>875.30919106787</ele>
        <time>2017-11-18T13:14:23.055Z</time>
      </trkpt>
      <trkpt lat="48.08281" lon="6.8218">
        <ele>876.01703501914</ele>
        <time>2017-11-18T13:14:30.055Z</time>
      </trkpt>
      <trkpt lat="48.08274" lon="6.82185">
        <ele>877.62024040385</ele>
        <time>2017-11-18T13:14:38.055Z</time>
      </trkpt>
      <trkpt lat="48.08267" lon="6.82189">
        <ele>879.22099968</ele>
        <time>2017-11-18T13:14:46.055Z</time>
      </trkpt>
      <trkpt lat="48.0826" lon="6.8219">
        <ele>880.60989014502</ele>
        <time>2017-11-18T13:14:56.055Z</time>
      </trkpt>
      <trkpt lat="48.08253" lon="6.82186">
        <ele>881.41615869919</ele>
        <time>2017-11-18T13:15:04.055Z</time>
      </trkpt>
      <trkpt lat="48.08247" lon="6.82183">
        <ele>882.24950345893</ele>
        <time>2017-11-18T13:15:11.055Z</time>
      </trkpt>
      <trkpt lat="48.08239" lon="6.82184">
        <ele>884</ele>
        <time>2017-11-18T13:15:21.055Z</time>
      </trkpt>
      <trkpt lat="48.08233" lon="6.82184">
        <ele>885</ele>
        <time>2017-11-18T13:15:59.055Z</time>
      </trkpt>
      <trkpt lat="48.08228" lon="6.8218">
        <ele>885</ele>
        <time>2017-11-18T13:16:06.055Z</time>
      </trkpt>
      <trkpt lat="48.08225" lon="6.82172">
        <ele>885.65100032</ele>
        <time>2017-11-18T13:16:13.055Z</time>
      </trkpt>
      <trkpt lat="48.08223" lon="6.82166">
        <ele>887</ele>
        <time>2017-11-18T13:16:23.055Z</time>
      </trkpt>
      <trkpt lat="48.08221" lon="6.82159">
        <ele>887</ele>
        <time>2017-11-18T13:16:29.055Z</time>
      </trkpt>
      <trkpt lat="48.08221" lon="6.82153">
        <ele>889.88469297392</ele>
        <time>2017-11-18T13:16:51.055Z</time>
      </trkpt>
      <trkpt lat="48.0822" lon="6.82147">
        <ele>889.17975820496</ele>
        <time>2017-11-18T13:16:58.055Z</time>
      </trkpt>
      <trkpt lat="48.08219" lon="6.82142">
        <ele>889.43774735178</ele>
        <time>2017-11-18T13:17:02.055Z</time>
      </trkpt>
      <trkpt lat="48.08215" lon="6.82133">
        <ele>891.3304831675</ele>
        <time>2017-11-18T13:17:11.055Z</time>
      </trkpt>
      <trkpt lat="48.0821" lon="6.82123">
        <ele>894.02507391153</ele>
        <time>2017-11-18T13:17:30.055Z</time>
      </trkpt>
      <trkpt lat="48.08204" lon="6.82114">
        <ele>894.61504459864</ele>
        <time>2017-11-18T13:17:36.055Z</time>
      </trkpt>
      <trkpt lat="48.08201" lon="6.82102">
        <ele>895</ele>
        <time>2017-11-18T13:17:49.055Z</time>
      </trkpt>
      <trkpt lat="48.08196" lon="6.82091">
        <ele>895</ele>
        <time>2017-11-18T13:17:59.055Z</time>
      </trkpt>
      <trkpt lat="48.08189" lon="6.82087">
        <ele>897.37822020562</ele>
        <time>2017-11-18T13:19:16.055Z</time>
      </trkpt>
      <trkpt lat="48.08179" lon="6.82092">
        <ele>897</ele>
        <time>2017-11-18T13:19:25.055Z</time>
      </trkpt>
      <trkpt lat="48.08169" lon="6.82097">
        <ele>897</ele>
        <time>2017-11-18T13:19:31.055Z</time>
      </trkpt>
      <trkpt lat="48.08161" lon="6.82102">
        <ele>897</ele>
        <time>2017-11-18T13:19:36.055Z</time>
      </trkpt>
      <trkpt lat="48.08152" lon="6.82109">
        <ele>897</ele>
        <time>2017-11-18T13:19:43.055Z</time>
      </trkpt>
      <trkpt lat="48.08145" lon="6.82115">
        <ele>897</ele>
        <time>2017-11-18T13:19:49.055Z</time>
      </trkpt>
      <trkpt lat="48.08137" lon="6.8212">
        <ele>897</ele>
        <time>2017-11-18T13:19:55.055Z</time>
      </trkpt>
      <trkpt lat="48.08129" lon="6.82124">
        <ele>896.87937893754</ele>
        <time>2017-11-18T13:20:01.055Z</time>
      </trkpt>
      <trkpt lat="48.0812" lon="6.8213">
        <ele>896.17867846128</ele>
        <time>2017-11-18T13:20:08.055Z</time>
      </trkpt>
      <trkpt lat="48.08114" lon="6.82139">
        <ele>896</ele>
        <time>2017-11-18T13:20:14.055Z</time>
      </trkpt>
      <trkpt lat="48.0811" lon="6.82151">
        <ele>895.88244063492</ele>
        <time>2017-11-18T13:20:21.055Z</time>
      </trkpt>
      <trkpt lat="48.08109" lon="6.82164">
        <ele>894.98933917991</ele>
        <time>2017-11-18T13:20:30.055Z</time>
      </trkpt>
      <trkpt lat="48.08106" lon="6.82174">
        <ele>894.17707384337</ele>
        <time>2017-11-18T13:20:38.055Z</time>
      </trkpt>
      <trkpt lat="48.08103" lon="6.82182">
        <ele>894</ele>
        <time>2017-11-18T13:20:43.055Z</time>
      </trkpt>
      <trkpt lat="48.08101" lon="6.8219">
        <ele>894</ele>
        <time>2017-11-18T13:20:47.055Z</time>
      </trkpt>
      <trkpt lat="48.08098" lon="6.822">
        <ele>894</ele>
        <time>2017-11-18T13:20:52.055Z</time>
      </trkpt>
      <trkpt lat="48.08097" lon="6.8221">
        <ele>894</ele>
        <time>2017-11-18T13:20:58.055Z</time>
      </trkpt>
      <trkpt lat="48.08096" lon="6.82221">
        <ele>893.48538322581</ele>
        <time>2017-11-18T13:21:05.055Z</time>
      </trkpt>
      <trkpt lat="48.08095" lon="6.82234">
        <ele>893</ele>
        <time>2017-11-18T13:21:11.055Z</time>
      </trkpt>
      <trkpt lat="48.08095" lon="6.82246">
        <ele>893</ele>
        <time>2017-11-18T13:21:17.055Z</time>
      </trkpt>
      <trkpt lat="48.08093" lon="6.8226">
        <ele>893.42555751234</ele>
        <time>2017-11-18T13:21:24.055Z</time>
      </trkpt>
      <trkpt lat="48.08094" lon="6.82275">
        <ele>894.32100627756</ele>
        <time>2017-11-18T13:21:33.055Z</time>
      </trkpt>
      <trkpt lat="48.08099" lon="6.82288">
        <ele>895</ele>
        <time>2017-11-18T13:21:41.055Z</time>
      </trkpt>
      <trkpt lat="48.08105" lon="6.823">
        <ele>895</ele>
        <time>2017-11-18T13:21:48.055Z</time>
      </trkpt>
      <trkpt lat="48.08108" lon="6.82311">
        <ele>895.41674990307</ele>
        <time>2017-11-18T13:21:54.055Z</time>
      </trkpt>
      <trkpt lat="48.08111" lon="6.82323">
        <ele>896</ele>
        <time>2017-11-18T13:22:01.055Z</time>
      </trkpt>
      <trkpt lat="48.08115" lon="6.82334">
        <ele>896</ele>
        <time>2017-11-18T13:22:08.055Z</time>
      </trkpt>
      <trkpt lat="48.08118" lon="6.82344">
        <ele>896</ele>
        <time>2017-11-18T13:22:14.055Z</time>
      </trkpt>
      <trkpt lat="48.0812" lon="6.82354">
        <ele>896</ele>
        <time>2017-11-18T13:22:20.055Z</time>
      </trkpt>
      <trkpt lat="48.08123" lon="6.82366">
        <ele>896</ele>
        <time>2017-11-18T13:22:26.055Z</time>
      </trkpt>
      <trkpt lat="48.08124" lon="6.8238">
        <ele>896</ele>
        <time>2017-11-18T13:22:33.055Z</time>
      </trkpt>
      <trkpt lat="48.08125" lon="6.82393">
        <ele>896</ele>
        <time>2017-11-18T13:22:38.055Z</time>
      </trkpt>
      <trkpt lat="48.08128" lon="6.82405">
        <ele>896</ele>
        <time>2017-11-18T13:22:44.055Z</time>
      </trkpt>
      <trkpt lat="48.08132" lon="6.82417">
        <ele>895.88983894417</ele>
        <time>2017-11-18T13:22:51.055Z</time>
      </trkpt>
      <trkpt lat="48.08132" lon="6.82429">
        <ele>895.38682115939</ele>
        <time>2017-11-18T13:22:56.055Z</time>
      </trkpt>
      <trkpt lat="48.08133" lon="6.82443">
        <ele>894.68481556358</ele>
        <time>2017-11-18T13:23:03.055Z</time>
      </trkpt>
      <trkpt lat="48.08135" lon="6.82454">
        <ele>894</ele>
        <time>2017-11-18T13:23:10.055Z</time>
      </trkpt>
      <trkpt lat="48.08136" lon="6.82468">
        <ele>894</ele>
        <time>2017-11-18T13:23:18.055Z</time>
      </trkpt>
      <trkpt lat="48.0814" lon="6.82478">
        <ele>894</ele>
        <time>2017-11-18T13:23:24.055Z</time>
      </trkpt>
      <trkpt lat="48.08145" lon="6.82488">
        <ele>894.23007901843</ele>
        <time>2017-11-18T13:23:31.055Z</time>
      </trkpt>
      <trkpt lat="48.08146" lon="6.82501">
        <ele>895.62450310694</ele>
        <time>2017-11-18T13:23:38.055Z</time>
      </trkpt>
      <trkpt lat="48.08148" lon="6.82512">
        <ele>896</ele>
        <time>2017-11-18T13:23:45.055Z</time>
      </trkpt>
      <trkpt lat="48.08152" lon="6.82524">
        <ele>896</ele>
        <time>2017-11-18T13:23:52.055Z</time>
      </trkpt>
      <trkpt lat="48.08154" lon="6.82539">
        <ele>896.04827679266</ele>
        <time>2017-11-18T13:24:00.055Z</time>
      </trkpt>
      <trkpt lat="48.08158" lon="6.82553">
        <ele>897.42758670263</ele>
        <time>2017-11-18T13:24:07.055Z</time>
      </trkpt>
      <trkpt lat="48.08157" lon="6.82568">
        <ele>898</ele>
        <time>2017-11-18T13:24:14.055Z</time>
      </trkpt>
      <trkpt lat="48.08154" lon="6.82583">
        <ele>898.32485025159</ele>
        <time>2017-11-18T13:24:23.055Z</time>
      </trkpt>
      <trkpt lat="48.08152" lon="6.82596">
        <ele>899.02352306565</ele>
        <time>2017-11-18T13:24:30.055Z</time>
      </trkpt>
      <trkpt lat="48.08151" lon="6.8261">
        <ele>899.82432463599</ele>
        <time>2017-11-18T13:24:38.055Z</time>
      </trkpt>
      <trkpt lat="48.0815" lon="6.82623">
        <ele>900</ele>
        <time>2017-11-18T13:24:46.055Z</time>
      </trkpt>
      <trkpt lat="48.08147" lon="6.82634">
        <ele>900.21269058686</ele>
        <time>2017-11-18T13:24:52.055Z</time>
      </trkpt>
      <trkpt lat="48.08146" lon="6.82645">
        <ele>900.92335071622</ele>
        <time>2017-11-18T13:24:59.055Z</time>
      </trkpt>
      <trkpt lat="48.08144" lon="6.82655">
        <ele>901</ele>
        <time>2017-11-18T13:25:05.055Z</time>
      </trkpt>
      <trkpt lat="48.08141" lon="6.82666">
        <ele>901.22082561235</ele>
        <time>2017-11-18T13:25:12.055Z</time>
      </trkpt>
      <trkpt lat="48.08139" lon="6.82679">
        <ele>902.02507391153</ele>
        <time>2017-11-18T13:25:20.055Z</time>
      </trkpt>
      <trkpt lat="48.08138" lon="6.82694">
        <ele>902.81170149434</ele>
        <time>2017-11-18T13:25:28.055Z</time>
      </trkpt>
      <trkpt lat="48.08134" lon="6.82706">
        <ele>903.51676878049</ele>
        <time>2017-11-18T13:25:35.055Z</time>
      </trkpt>
      <trkpt lat="48.08131" lon="6.82718">
        <ele>904.22338363332</ele>
        <time>2017-11-18T13:25:42.055Z</time>
      </trkpt>
      <trkpt lat="48.0813" lon="6.82732">
        <ele>905</ele>
        <time>2017-11-18T13:25:50.055Z</time>
      </trkpt>
      <trkpt lat="48.08133" lon="6.82747">
        <ele>905</ele>
        <time>2017-11-18T13:25:59.055Z</time>
      </trkpt>
      <trkpt lat="48.08138" lon="6.8276">
        <ele>905</ele>
        <time>2017-11-18T13:26:07.055Z</time>
      </trkpt>
      <trkpt lat="48.08141" lon="6.82774">
        <ele>905.52167354839</ele>
        <time>2017-11-18T13:26:15.055Z</time>
      </trkpt>
      <trkpt lat="48.08141" lon="6.82787">
        <ele>906.12352377953</ele>
        <time>2017-11-18T13:26:21.055Z</time>
      </trkpt>
      <trkpt lat="48.08142" lon="6.828">
        <ele>906.81250015748</ele>
        <time>2017-11-18T13:26:28.055Z</time>
      </trkpt>
      <trkpt lat="48.08143" lon="6.82811">
        <ele>907</ele>
        <time>2017-11-18T13:26:34.055Z</time>
      </trkpt>
      <trkpt lat="48.08144" lon="6.82821">
        <ele>907</ele>
        <time>2017-11-18T13:26:42.055Z</time>
      </trkpt>
      <trkpt lat="48.08139" lon="6.82826">
        <ele>907</ele>
        <time>2017-11-18T13:27:26.055Z</time>
      </trkpt>
      <trkpt lat="48.08146" lon="6.82831">
        <ele>908</ele>
        <time>2017-11-18T13:27:50.055Z</time>
      </trkpt>
      <trkpt lat="48.08149" lon="6.82839">
        <ele>908</ele>
        <time>2017-11-18T13:27:55.055Z</time>
      </trkpt>
      <trkpt lat="48.08153" lon="6.8285">
        <ele>907.88950016</ele>
        <time>2017-11-18T13:28:01.055Z</time>
      </trkpt>
      <trkpt lat="48.08156" lon="6.82861">
        <ele>907.18950016</ele>
        <time>2017-11-18T13:28:08.055Z</time>
      </trkpt>
      <trkpt lat="48.08156" lon="6.82874">
        <ele>907</ele>
        <time>2017-11-18T13:28:14.055Z</time>
      </trkpt>
      <trkpt lat="48.08158" lon="6.82887">
        <ele>907.2243783401</ele>
        <time>2017-11-18T13:28:22.055Z</time>
      </trkpt>
      <trkpt lat="48.08159" lon="6.82901">
        <ele>908</ele>
        <time>2017-11-18T13:28:30.055Z</time>
      </trkpt>
      <trkpt lat="48.08157" lon="6.82915">
        <ele>908</ele>
        <time>2017-11-18T13:28:37.055Z</time>
      </trkpt>
      <trkpt lat="48.08151" lon="6.82929">
        <ele>907.6908814808</ele>
        <time>2017-11-18T13:29:03.055Z</time>
      </trkpt>
      <trkpt lat="48.08151" lon="6.82943">
        <ele>907.42525247693</ele>
        <time>2017-11-18T13:29:12.055Z</time>
      </trkpt>
      <trkpt lat="48.08151" lon="6.82956">
        <ele>909</ele>
        <time>2017-11-18T13:29:22.055Z</time>
      </trkpt>
      <trkpt lat="48.08147" lon="6.82966">
        <ele>909</ele>
        <time>2017-11-18T13:29:29.055Z</time>
      </trkpt>
      <trkpt lat="48.08144" lon="6.82979">
        <ele>909</ele>
        <time>2017-11-18T13:29:40.055Z</time>
      </trkpt>
      <trkpt lat="48.08143" lon="6.82991">
        <ele>909</ele>
        <time>2017-11-18T13:29:48.055Z</time>
      </trkpt>
      <trkpt lat="48.08142" lon="6.83002">
        <ele>909</ele>
        <time>2017-11-18T13:29:56.055Z</time>
      </trkpt>
      <trkpt lat="48.08142" lon="6.83013">
        <ele>909.31718307842</ele>
        <time>2017-11-18T13:30:03.055Z</time>
      </trkpt>
      <trkpt lat="48.08141" lon="6.83024">
        <ele>909.91658386944</ele>
        <time>2017-11-18T13:30:09.055Z</time>
      </trkpt>
      <trkpt lat="48.08141" lon="6.83035">
        <ele>910</ele>
        <time>2017-11-18T13:30:16.055Z</time>
      </trkpt>
      <trkpt lat="48.0814" lon="6.83049">
        <ele>910</ele>
        <time>2017-11-18T13:30:24.055Z</time>
      </trkpt>
      <trkpt lat="48.0814" lon="6.83061">
        <ele>910</ele>
        <time>2017-11-18T13:30:31.055Z</time>
      </trkpt>
      <trkpt lat="48.08141" lon="6.83074">
        <ele>910</ele>
        <time>2017-11-18T13:30:39.055Z</time>
      </trkpt>
      <trkpt lat="48.08145" lon="6.83084">
        <ele>910</ele>
        <time>2017-11-18T13:30:47.055Z</time>
      </trkpt>
      <trkpt lat="48.08143" lon="6.83095">
        <ele>909.57449984</ele>
        <time>2017-11-18T13:30:54.055Z</time>
      </trkpt>
      <trkpt lat="48.08144" lon="6.83106">
        <ele>909.12450412698</ele>
        <time>2017-11-18T13:31:01.055Z</time>
      </trkpt>
      <trkpt lat="48.08145" lon="6.83119">
        <ele>909.91815492063</ele>
        <time>2017-11-18T13:31:09.055Z</time>
      </trkpt>
      <trkpt lat="48.08145" lon="6.8313">
        <ele>910</ele>
        <time>2017-11-18T13:31:15.055Z</time>
      </trkpt>
      <trkpt lat="48.08145" lon="6.83143">
        <ele>910</ele>
        <time>2017-11-18T13:31:22.055Z</time>
      </trkpt>
      <trkpt lat="48.08145" lon="6.83156">
        <ele>910</ele>
        <time>2017-11-18T13:31:29.055Z</time>
      </trkpt>
      <trkpt lat="48.08144" lon="6.83167">
        <ele>910</ele>
        <time>2017-11-18T13:31:35.055Z</time>
      </trkpt>
      <trkpt lat="48.08145" lon="6.83178">
        <ele>909.7809099012</ele>
        <time>2017-11-18T13:31:42.055Z</time>
      </trkpt>
      <trkpt lat="48.08146" lon="6.83191">
        <ele>909.21262623846</ele>
        <time>2017-11-18T13:31:52.055Z</time>
      </trkpt>
      <trkpt lat="48.08148" lon="6.83202">
        <ele>909.97949952</ele>
        <time>2017-11-18T13:32:00.055Z</time>
      </trkpt>
      <trkpt lat="48.0815" lon="6.83215">
        <ele>909</ele>
        <time>2017-11-18T13:32:10.055Z</time>
      </trkpt>
      <trkpt lat="48.0815" lon="6.83224">
        <ele>909</ele>
        <time>2017-11-18T13:32:16.055Z</time>
      </trkpt>
      <trkpt lat="48.08152" lon="6.83232">
        <ele>909</ele>
        <time>2017-11-18T13:32:23.055Z</time>
      </trkpt>
      <trkpt lat="48.08152" lon="6.83241">
        <ele>909</ele>
        <time>2017-11-18T13:32:30.055Z</time>
      </trkpt>
      <trkpt lat="48.08154" lon="6.8325">
        <ele>909</ele>
        <time>2017-11-18T13:32:41.055Z</time>
      </trkpt>
      <trkpt lat="48.08156" lon="6.83259">
        <ele>909</ele>
        <time>2017-11-18T13:32:54.055Z</time>
      </trkpt>
      <trkpt lat="48.08159" lon="6.83268">
        <ele>909.61049984</ele>
        <time>2017-11-18T13:33:06.055Z</time>
      </trkpt>
      <trkpt lat="48.08153" lon="6.83277">
        <ele>910</ele>
        <time>2017-11-18T13:33:28.055Z</time>
      </trkpt>
      <trkpt lat="48.08147" lon="6.83284">
        <ele>910</ele>
        <time>2017-11-18T13:33:34.055Z</time>
      </trkpt>
      <trkpt lat="48.08142" lon="6.83293">
        <ele>910.42684305087</ele>
        <time>2017-11-18T13:33:42.055Z</time>
      </trkpt>
      <trkpt lat="48.08137" lon="6.83302">
        <ele>911.63774074261</ele>
        <time>2017-11-18T13:33:48.055Z</time>
      </trkpt>
      <trkpt lat="48.08131" lon="6.8331">
        <ele>912</ele>
        <time>2017-11-18T13:33:57.055Z</time>
      </trkpt>
      <trkpt lat="48.08124" lon="6.83316">
        <ele>912.32550016</ele>
        <time>2017-11-18T13:34:03.055Z</time>
      </trkpt>
      <trkpt lat="48.08119" lon="6.83324">
        <ele>912.92550016</ele>
        <time>2017-11-18T13:34:09.055Z</time>
      </trkpt>
      <trkpt lat="48.08113" lon="6.83331">
        <ele>913.71618992022</ele>
        <time>2017-11-18T13:34:17.055Z</time>
      </trkpt>
      <trkpt lat="48.08109" lon="6.83341">
        <ele>914</ele>
        <time>2017-11-18T13:34:22.055Z</time>
      </trkpt>
      <trkpt lat="48.08105" lon="6.8335">
        <ele>914</ele>
        <time>2017-11-18T13:34:27.055Z</time>
      </trkpt>
      <trkpt lat="48.08101" lon="6.83359">
        <ele>914</ele>
        <time>2017-11-18T13:34:33.055Z</time>
      </trkpt>
      <trkpt lat="48.08097" lon="6.83365">
        <ele>914</ele>
        <time>2017-11-18T13:34:37.055Z</time>
      </trkpt>
      <trkpt lat="48.08094" lon="6.83373">
        <ele>914</ele>
        <time>2017-11-18T13:34:43.055Z</time>
      </trkpt>
      <trkpt lat="48.08091" lon="6.83381">
        <ele>914</ele>
        <time>2017-11-18T13:34:49.055Z</time>
      </trkpt>
      <trkpt lat="48.0809" lon="6.83389">
        <ele>913.58375343411</ele>
        <time>2017-11-18T13:34:54.055Z</time>
      </trkpt>
      <trkpt lat="48.08089" lon="6.83398">
        <ele>913.07921272921</ele>
        <time>2017-11-18T13:34:59.055Z</time>
      </trkpt>
      <trkpt lat="48.08089" lon="6.83407">
        <ele>912.57849984</ele>
        <time>2017-11-18T13:35:04.055Z</time>
      </trkpt>
      <trkpt lat="48.08087" lon="6.83417">
        <ele>912.07849984</ele>
        <time>2017-11-18T13:35:09.055Z</time>
      </trkpt>
      <trkpt lat="48.08086" lon="6.83427">
        <ele>912</ele>
        <time>2017-11-18T13:35:14.055Z</time>
      </trkpt>
      <trkpt lat="48.08085" lon="6.83436">
        <ele>912</ele>
        <time>2017-11-18T13:35:19.055Z</time>
      </trkpt>
      <trkpt lat="48.08083" lon="6.83447">
        <ele>911.48658036639</ele>
        <time>2017-11-18T13:35:25.055Z</time>
      </trkpt>
      <trkpt lat="48.08085" lon="6.83458">
        <ele>911</ele>
        <time>2017-11-18T13:35:32.055Z</time>
      </trkpt>
      <trkpt lat="48.08084" lon="6.83473">
        <ele>910.87961986162</ele>
        <time>2017-11-18T13:35:41.055Z</time>
      </trkpt>
      <trkpt lat="48.08081" lon="6.83484">
        <ele>910.2802190706</ele>
        <time>2017-11-18T13:35:47.055Z</time>
      </trkpt>
      <trkpt lat="48.08077" lon="6.83496">
        <ele>909.58424142629</ele>
        <time>2017-11-18T13:35:54.055Z</time>
      </trkpt>
      <trkpt lat="48.08073" lon="6.83509">
        <ele>908.37272719045</ele>
        <time>2017-11-18T13:36:03.055Z</time>
      </trkpt>
      <trkpt lat="48.08065" lon="6.83519">
        <ele>907</ele>
        <time>2017-11-18T13:36:10.055Z</time>
      </trkpt>
      <trkpt lat="48.08061" lon="6.83533">
        <ele>906.98067316011</ele>
        <time>2017-11-18T13:36:20.055Z</time>
      </trkpt>
      <trkpt lat="48.08055" lon="6.83546">
        <ele>906.28691762593</ele>
        <time>2017-11-18T13:36:27.055Z</time>
      </trkpt>
      <trkpt lat="48.08051" lon="6.83559">
        <ele>905.58577170771</ele>
        <time>2017-11-18T13:36:34.055Z</time>
      </trkpt>
      <trkpt lat="48.08046" lon="6.8357">
        <ele>905.08123035114</ele>
        <time>2017-11-18T13:36:39.055Z</time>
      </trkpt>
      <trkpt lat="48.08041" lon="6.83582">
        <ele>905</ele>
        <time>2017-11-18T13:36:45.055Z</time>
      </trkpt>
      <trkpt lat="48.08035" lon="6.83594">
        <ele>902</ele>
        <time>2017-11-18T13:36:54.055Z</time>
      </trkpt>
      <trkpt lat="48.08028" lon="6.83604">
        <ele>901.78168283141</ele>
        <time>2017-11-18T13:37:02.055Z</time>
      </trkpt>
      <trkpt lat="48.08025" lon="6.83617">
        <ele>900.98939409415</ele>
        <time>2017-11-18T13:37:10.055Z</time>
      </trkpt>
      <trkpt lat="48.0802" lon="6.83629">
        <ele>900.28232292999</ele>
        <time>2017-11-18T13:37:17.055Z</time>
      </trkpt>
      <trkpt lat="48.08015" lon="6.83641">
        <ele>899.58159196186</ele>
        <time>2017-11-18T13:37:24.055Z</time>
      </trkpt>
      <trkpt lat="48.0801" lon="6.83651">
        <ele>899.08407999929</ele>
        <time>2017-11-18T13:37:29.055Z</time>
      </trkpt>
      <trkpt lat="48.08006" lon="6.83665">
        <ele>898.38756247166</ele>
        <time>2017-11-18T13:37:36.055Z</time>
      </trkpt>
      <trkpt lat="48.08001" lon="6.83675">
        <ele>897.78715883912</ele>
        <time>2017-11-18T13:37:42.055Z</time>
      </trkpt>
      <trkpt lat="48.07999" lon="6.83687">
        <ele>896.95717099602</ele>
        <time>2017-11-18T13:37:50.055Z</time>
      </trkpt>
      <trkpt lat="48.07996" lon="6.83698">
        <ele>895.36354549801</ele>
        <time>2017-11-18T13:37:58.055Z</time>
      </trkpt>
      <trkpt lat="48.07991" lon="6.83707">
        <ele>893.96084305221</ele>
        <time>2017-11-18T13:38:05.055Z</time>
      </trkpt>
      <trkpt lat="48.07987" lon="6.83716">
        <ele>893.22105818511</ele>
        <time>2017-11-18T13:38:12.055Z</time>
      </trkpt>
      <trkpt lat="48.07982" lon="6.83723">
        <ele>893.81986096279</ele>
        <time>2017-11-18T13:38:18.055Z</time>
      </trkpt>
      <trkpt lat="48.07978" lon="6.83734">
        <ele>893.48462222222</ele>
        <time>2017-11-18T13:38:25.055Z</time>
      </trkpt>
      <trkpt lat="48.07974" lon="6.83747">
        <ele>892.68503488611</ele>
        <time>2017-11-18T13:38:33.055Z</time>
      </trkpt>
      <trkpt lat="48.0797" lon="6.83758">
        <ele>891.97752263018</ele>
        <time>2017-11-18T13:38:40.055Z</time>
      </trkpt>
      <trkpt lat="48.07964" lon="6.83771">
        <ele>891.27822170732</ele>
        <time>2017-11-18T13:38:47.055Z</time>
      </trkpt>
      <trkpt lat="48.0796" lon="6.83783">
        <ele>890.36336561639</ele>
        <time>2017-11-18T13:38:53.055Z</time>
      </trkpt>
      <trkpt lat="48.07955" lon="6.83793">
        <ele>889.17524605164</ele>
        <time>2017-11-18T13:38:59.055Z</time>
      </trkpt>
      <trkpt lat="48.07952" lon="6.83805">
        <ele>888.38232282355</ele>
        <time>2017-11-18T13:39:06.055Z</time>
      </trkpt>
      <trkpt lat="48.07947" lon="6.83816">
        <ele>888.52150016</ele>
        <time>2017-11-18T13:39:15.055Z</time>
      </trkpt>
      <trkpt lat="48.07943" lon="6.83828">
        <ele>888.78069277192</ele>
        <time>2017-11-18T13:39:22.055Z</time>
      </trkpt>
      <trkpt lat="48.07939" lon="6.8384">
        <ele>888.08762302582</ele>
        <time>2017-11-18T13:39:29.055Z</time>
      </trkpt>
      <trkpt lat="48.07935" lon="6.83853">
        <ele>887.48333285926</ele>
        <time>2017-11-18T13:39:35.055Z</time>
      </trkpt>
      <trkpt lat="48.07931" lon="6.83866">
        <ele>886.87849984</ele>
        <time>2017-11-18T13:39:41.055Z</time>
      </trkpt>
      <trkpt lat="48.07926" lon="6.83875">
        <ele>886.37849984</ele>
        <time>2017-11-18T13:39:46.055Z</time>
      </trkpt>
      <trkpt lat="48.07924" lon="6.83888">
        <ele>886</ele>
        <time>2017-11-18T13:39:52.055Z</time>
      </trkpt>
      <trkpt lat="48.07922" lon="6.839">
        <ele>886</ele>
        <time>2017-11-18T13:39:58.055Z</time>
      </trkpt>
      <trkpt lat="48.07919" lon="6.83912">
        <ele>884.56262557568</ele>
        <time>2017-11-18T13:40:07.055Z</time>
      </trkpt>
      <trkpt lat="48.07913" lon="6.83921">
        <ele>884</ele>
        <time>2017-11-18T13:40:13.055Z</time>
      </trkpt>
      <trkpt lat="48.07911" lon="6.83933">
        <ele>884</ele>
        <time>2017-11-18T13:40:20.055Z</time>
      </trkpt>
      <trkpt lat="48.07906" lon="6.83943">
        <ele>884</ele>
        <time>2017-11-18T13:40:26.055Z</time>
      </trkpt>
      <trkpt lat="48.07902" lon="6.83954">
        <ele>883.68497935484</ele>
        <time>2017-11-18T13:40:33.055Z</time>
      </trkpt>
      <trkpt lat="48.07898" lon="6.83965">
        <ele>883</ele>
        <time>2017-11-18T13:40:40.055Z</time>
      </trkpt>
      <trkpt lat="48.07896" lon="6.83978">
        <ele>883</ele>
        <time>2017-11-18T13:40:48.055Z</time>
      </trkpt>
      <trkpt lat="48.07891" lon="6.83989">
        <ele>883</ele>
        <time>2017-11-18T13:40:55.055Z</time>
      </trkpt>
      <trkpt lat="48.07887" lon="6.84002">
        <ele>882.16868578994</ele>
        <time>2017-11-18T13:41:04.055Z</time>
      </trkpt>
      <trkpt lat="48.07884" lon="6.84012">
        <ele>881</ele>
        <time>2017-11-18T13:41:10.055Z</time>
      </trkpt>
      <trkpt lat="48.07877" lon="6.84022">
        <ele>881</ele>
        <time>2017-11-18T13:41:15.055Z</time>
      </trkpt>
      <trkpt lat="48.07872" lon="6.84029">
        <ele>881</ele>
        <time>2017-11-18T13:41:19.055Z</time>
      </trkpt>
      <trkpt lat="48.07866" lon="6.8404">
        <ele>880.3836631342</ele>
        <time>2017-11-18T13:41:26.055Z</time>
      </trkpt>
      <trkpt lat="48.07862" lon="6.84051">
        <ele>879.78556971606</ele>
        <time>2017-11-18T13:41:32.055Z</time>
      </trkpt>
      <trkpt lat="48.07855" lon="6.84061">
        <ele>879.07921272921</ele>
        <time>2017-11-18T13:41:39.055Z</time>
      </trkpt>
      <trkpt lat="48.07848" lon="6.84066">
        <ele>879</ele>
        <time>2017-11-18T13:41:46.055Z</time>
      </trkpt>
      <trkpt lat="48.0784" lon="6.8407">
        <ele>878.678676937</ele>
        <time>2017-11-18T13:41:53.055Z</time>
      </trkpt>
      <trkpt lat="48.07832" lon="6.84074">
        <ele>878.08637665117</ele>
        <time>2017-11-18T13:41:59.055Z</time>
      </trkpt>
      <trkpt lat="48.07822" lon="6.8408">
        <ele>876.56205802234</ele>
        <time>2017-11-18T13:42:07.055Z</time>
      </trkpt>
      <trkpt lat="48.07813" lon="6.84087">
        <ele>875.67882091631</ele>
        <time>2017-11-18T13:42:13.055Z</time>
      </trkpt>
      <trkpt lat="48.07803" lon="6.84091">
        <ele>874.97968237215</ele>
        <time>2017-11-18T13:42:20.055Z</time>
      </trkpt>
      <trkpt lat="48.07793" lon="6.84097">
        <ele>874</ele>
        <time>2017-11-18T13:42:30.055Z</time>
      </trkpt>
      <trkpt lat="48.07785" lon="6.84101">
        <ele>874</ele>
        <time>2017-11-18T13:42:38.055Z</time>
      </trkpt>
      <trkpt lat="48.07774" lon="6.84106">
        <ele>874</ele>
        <time>2017-11-18T13:42:46.055Z</time>
      </trkpt>
      <trkpt lat="48.07767" lon="6.84114">
        <ele>873.56293250757</ele>
        <time>2017-11-18T13:42:52.055Z</time>
      </trkpt>
      <trkpt lat="48.07762" lon="6.84126">
        <ele>871.57229404509</ele>
        <time>2017-11-18T13:43:02.055Z</time>
      </trkpt>
      <trkpt lat="48.07757" lon="6.84134">
        <ele>870</ele>
        <time>2017-11-18T13:43:10.055Z</time>
      </trkpt>
      <trkpt lat="48.07752" lon="6.84142">
        <ele>870</ele>
        <time>2017-11-18T13:43:15.055Z</time>
      </trkpt>
      <trkpt lat="48.07747" lon="6.84152">
        <ele>869.678676937</ele>
        <time>2017-11-18T13:43:23.055Z</time>
      </trkpt>
      <trkpt lat="48.07741" lon="6.84161">
        <ele>868.78535318927</ele>
        <time>2017-11-18T13:43:32.055Z</time>
      </trkpt>
      <trkpt lat="48.07734" lon="6.84169">
        <ele>868.07828293929</ele>
        <time>2017-11-18T13:43:39.055Z</time>
      </trkpt>
      <trkpt lat="48.07726" lon="6.84177">
        <ele>867.57622871053</ele>
        <time>2017-11-18T13:43:44.055Z</time>
      </trkpt>
      <trkpt lat="48.07719" lon="6.84185">
        <ele>866.77761311408</ele>
        <time>2017-11-18T13:43:52.055Z</time>
      </trkpt>
      <trkpt lat="48.0771" lon="6.8419">
        <ele>866.18589676427</ele>
        <time>2017-11-18T13:43:58.055Z</time>
      </trkpt>
      <trkpt lat="48.07701" lon="6.84194">
        <ele>865.38169847681</ele>
        <time>2017-11-18T13:44:06.055Z</time>
      </trkpt>
      <trkpt lat="48.07692" lon="6.84201">
        <ele>865</ele>
        <time>2017-11-18T13:44:16.055Z</time>
      </trkpt>
      <trkpt lat="48.07684" lon="6.84209">
        <ele>864.55522622815</ele>
        <time>2017-11-18T13:44:22.055Z</time>
      </trkpt>
      <trkpt lat="48.0768" lon="6.8422">
        <ele>862.98837129541</ele>
        <time>2017-11-18T13:44:30.055Z</time>
      </trkpt>
      <trkpt lat="48.07677" lon="6.84232">
        <ele>862</ele>
        <time>2017-11-18T13:44:40.055Z</time>
      </trkpt>
      <trkpt lat="48.07672" lon="6.8424">
        <ele>862</ele>
        <time>2017-11-18T13:44:46.055Z</time>
      </trkpt>
      <trkpt lat="48.07667" lon="6.84253">
        <ele>860.96828415248</ele>
        <time>2017-11-18T13:44:55.055Z</time>
      </trkpt>
      <trkpt lat="48.0766" lon="6.84263">
        <ele>859.8884992</ele>
        <time>2017-11-18T13:45:01.055Z</time>
      </trkpt>
      <trkpt lat="48.07656" lon="6.84274">
        <ele>859.2884992</ele>
        <time>2017-11-18T13:45:07.055Z</time>
      </trkpt>
      <trkpt lat="48.07651" lon="6.84282">
        <ele>858.38169847681</ele>
        <time>2017-11-18T13:45:16.055Z</time>
      </trkpt>
      <trkpt lat="48.07644" lon="6.84282">
        <ele>857.17502497092</ele>
        <time>2017-11-18T13:45:28.055Z</time>
      </trkpt>
      <trkpt lat="48.0764" lon="6.84279">
        <ele>854</ele>
        <time>2017-11-18T13:45:58.055Z</time>
      </trkpt>
      <trkpt lat="48.07647" lon="6.84285">
        <ele>856</ele>
        <time>2017-11-18T13:49:36.055Z</time>
      </trkpt>
      <trkpt lat="48.0765" lon="6.84297">
        <ele>856</ele>
        <time>2017-11-18T13:49:41.055Z</time>
      </trkpt>
      <trkpt lat="48.0765" lon="6.84307">
        <ele>856</ele>
        <time>2017-11-18T13:49:48.055Z</time>
      </trkpt>
      <trkpt lat="48.07651" lon="6.84318">
        <ele>856</ele>
        <time>2017-11-18T13:49:54.055Z</time>
      </trkpt>
      <trkpt lat="48.07652" lon="6.8433">
        <ele>855.7560237751</ele>
        <time>2017-11-18T13:50:01.055Z</time>
      </trkpt>
      <trkpt lat="48.07652" lon="6.84341">
        <ele>854.35040128514</ele>
        <time>2017-11-18T13:50:08.055Z</time>
      </trkpt>
      <trkpt lat="48.07652" lon="6.84353">
        <ele>854</ele>
        <time>2017-11-18T13:50:14.055Z</time>
      </trkpt>
      <trkpt lat="48.07651" lon="6.84366">
        <ele>853.68466157508</ele>
        <time>2017-11-18T13:50:23.055Z</time>
      </trkpt>
      <trkpt lat="48.07648" lon="6.84378">
        <ele>853.07921272921</ele>
        <time>2017-11-18T13:50:29.055Z</time>
      </trkpt>
      <trkpt lat="48.07646" lon="6.84393">
        <ele>852.27922038896</ele>
        <time>2017-11-18T13:50:37.055Z</time>
      </trkpt>
      <trkpt lat="48.07643" lon="6.84405">
        <ele>851.36534598631</ele>
        <time>2017-11-18T13:50:43.055Z</time>
      </trkpt>
      <trkpt lat="48.07644" lon="6.84416">
        <ele>850.3752476038</ele>
        <time>2017-11-18T13:50:48.055Z</time>
      </trkpt>
      <trkpt lat="48.07644" lon="6.84428">
        <ele>849.58535342892</ele>
        <time>2017-11-18T13:50:54.055Z</time>
      </trkpt>
      <trkpt lat="48.07643" lon="6.84439">
        <ele>848.97956084401</ele>
        <time>2017-11-18T13:51:00.055Z</time>
      </trkpt>
      <trkpt lat="48.07644" lon="6.8445">
        <ele>848.38135565101</ele>
        <time>2017-11-18T13:51:06.055Z</time>
      </trkpt>
      <trkpt lat="48.07643" lon="6.84462">
        <ele>847.78140694467</ele>
        <time>2017-11-18T13:51:12.055Z</time>
      </trkpt>
      <trkpt lat="48.07641" lon="6.84472">
        <ele>847.37939702371</ele>
        <time>2017-11-18T13:51:16.055Z</time>
      </trkpt>
      <trkpt lat="48.07642" lon="6.84482">
        <ele>846.87774459257</ele>
        <time>2017-11-18T13:51:21.055Z</time>
      </trkpt>
      <trkpt lat="48.07642" lon="6.84492">
        <ele>846.37874227784</ele>
        <time>2017-11-18T13:51:26.055Z</time>
      </trkpt>
      <trkpt lat="48.0764" lon="6.84503">
        <ele>845.87985997851</ele>
        <time>2017-11-18T13:51:31.055Z</time>
      </trkpt>
      <trkpt lat="48.07641" lon="6.84513">
        <ele>845.28165478551</ele>
        <time>2017-11-18T13:51:37.055Z</time>
      </trkpt>
      <trkpt lat="48.07641" lon="6.84524">
        <ele>844.36436424765</ele>
        <time>2017-11-18T13:51:43.055Z</time>
      </trkpt>
      <trkpt lat="48.07641" lon="6.84537">
        <ele>842.9815554994</ele>
        <time>2017-11-18T13:51:50.055Z</time>
      </trkpt>
      <trkpt lat="48.07641" lon="6.84549">
        <ele>842.38335030641</ele>
        <time>2017-11-18T13:51:56.055Z</time>
      </trkpt>
      <trkpt lat="48.07641" lon="6.84563">
        <ele>841.16566254222</ele>
        <time>2017-11-18T13:52:04.055Z</time>
      </trkpt>
      <trkpt lat="48.0764" lon="6.84577">
        <ele>839.88097545055</ele>
        <time>2017-11-18T13:52:11.055Z</time>
      </trkpt>
      <trkpt lat="48.07638" lon="6.84591">
        <ele>839.28336665069</ele>
        <time>2017-11-18T13:52:17.055Z</time>
      </trkpt>
      <trkpt lat="48.07637" lon="6.84604">
        <ele>838.58656751015</ele>
        <time>2017-11-18T13:52:24.055Z</time>
      </trkpt>
      <trkpt lat="48.07635" lon="6.84618">
        <ele>837.88950016</ele>
        <time>2017-11-18T13:52:31.055Z</time>
      </trkpt>
      <trkpt lat="48.07634" lon="6.84628">
        <ele>837.48950016</ele>
        <time>2017-11-18T13:52:35.055Z</time>
      </trkpt>
      <trkpt lat="48.07632" lon="6.84639">
        <ele>836.98947911149</ele>
        <time>2017-11-18T13:52:40.055Z</time>
      </trkpt>
      <trkpt lat="48.0763" lon="6.8465">
        <ele>836.38827632114</ele>
        <time>2017-11-18T13:52:46.055Z</time>
      </trkpt>
      <trkpt lat="48.07628" lon="6.84662">
        <ele>835.98329444398</ele>
        <time>2017-11-18T13:52:51.055Z</time>
      </trkpt>
      <trkpt lat="48.07627" lon="6.84673">
        <ele>834.86970949152</ele>
        <time>2017-11-18T13:52:56.055Z</time>
      </trkpt>
      <trkpt lat="48.07628" lon="6.84684">
        <ele>833.58015973076</ele>
        <time>2017-11-18T13:53:02.055Z</time>
      </trkpt>
      <trkpt lat="48.07628" lon="6.84697">
        <ele>832</ele>
        <time>2017-11-18T13:53:10.055Z</time>
      </trkpt>
      <trkpt lat="48.07625" lon="6.84709">
        <ele>832</ele>
        <time>2017-11-18T13:53:16.055Z</time>
      </trkpt>
      <trkpt lat="48.07625" lon="6.84719">
        <ele>831.6821356852</ele>
        <time>2017-11-18T13:53:23.055Z</time>
      </trkpt>
      <trkpt lat="48.07625" lon="6.84729">
        <ele>831.18313337046</ele>
        <time>2017-11-18T13:53:28.055Z</time>
      </trkpt>
      <trkpt lat="48.07625" lon="6.84741">
        <ele>829.75795164504</ele>
        <time>2017-11-18T13:53:34.055Z</time>
      </trkpt>
      <trkpt lat="48.07626" lon="6.84752">
        <ele>827.98939409415</ele>
        <time>2017-11-18T13:53:40.055Z</time>
      </trkpt>
      <trkpt lat="48.07626" lon="6.84761">
        <ele>827.48434326261</ele>
        <time>2017-11-18T13:53:45.055Z</time>
      </trkpt>
      <trkpt lat="48.07624" lon="6.84771">
        <ele>827.08030259737</ele>
        <time>2017-11-18T13:53:49.055Z</time>
      </trkpt>
      <trkpt lat="48.07622" lon="6.84782">
        <ele>826.58325013542</ele>
        <time>2017-11-18T13:53:54.055Z</time>
      </trkpt>
      <trkpt lat="48.0762" lon="6.84794">
        <ele>826.08770983951</ele>
        <time>2017-11-18T13:53:59.055Z</time>
      </trkpt>
      <trkpt lat="48.07619" lon="6.84807">
        <ele>824.97597470239</ele>
        <time>2017-11-18T13:54:05.055Z</time>
      </trkpt>
      <trkpt lat="48.07618" lon="6.84818">
        <ele>824</ele>
        <time>2017-11-18T13:54:12.055Z</time>
      </trkpt>
      <trkpt lat="48.0762" lon="6.84828">
        <ele>824</ele>
        <time>2017-11-18T13:54:18.055Z</time>
      </trkpt>
      <trkpt lat="48.07619" lon="6.84839">
        <ele>823.15899904</ele>
        <time>2017-11-18T13:54:24.055Z</time>
      </trkpt>
      <trkpt lat="48.07618" lon="6.84849">
        <ele>822</ele>
        <time>2017-11-18T13:54:30.055Z</time>
      </trkpt>
      <trkpt lat="48.07617" lon="6.84859">
        <ele>822</ele>
        <time>2017-11-18T13:54:36.055Z</time>
      </trkpt>
      <trkpt lat="48.07618" lon="6.84871">
        <ele>821.88748661554</ele>
        <time>2017-11-18T13:54:41.055Z</time>
      </trkpt>
      <trkpt lat="48.07617" lon="6.84881">
        <ele>821.38294591065</ele>
        <time>2017-11-18T13:54:46.055Z</time>
      </trkpt>
      <trkpt lat="48.07614" lon="6.84891">
        <ele>820.93849856</ele>
        <time>2017-11-18T13:54:50.055Z</time>
      </trkpt>
      <trkpt lat="48.07613" lon="6.84902">
        <ele>819.43849856</ele>
        <time>2017-11-18T13:54:55.055Z</time>
      </trkpt>
      <trkpt lat="48.07613" lon="6.84913">
        <ele>817.87997960159</ele>
        <time>2017-11-18T13:55:01.055Z</time>
      </trkpt>
      <trkpt lat="48.07612" lon="6.84924">
        <ele>817.38197163347</ele>
        <time>2017-11-18T13:55:06.055Z</time>
      </trkpt>
      <trkpt lat="48.07611" lon="6.84936">
        <ele>816.35244144289</ele>
        <time>2017-11-18T13:55:12.055Z</time>
      </trkpt>
      <trkpt lat="48.07609" lon="6.84945">
        <ele>814.8569284604</ele>
        <time>2017-11-18T13:55:17.055Z</time>
      </trkpt>
      <trkpt lat="48.07608" lon="6.84954">
        <ele>814</ele>
        <time>2017-11-18T13:55:21.055Z</time>
      </trkpt>
      <trkpt lat="48.07607" lon="6.84967">
        <ele>814</ele>
        <time>2017-11-18T13:55:27.055Z</time>
      </trkpt>
      <trkpt lat="48.07604" lon="6.84982">
        <ele>813.1595213848</ele>
        <time>2017-11-18T13:55:34.055Z</time>
      </trkpt>
      <trkpt lat="48.07602" lon="6.8499">
        <ele>812.3619144608</ele>
        <time>2017-11-18T13:55:38.055Z</time>
      </trkpt>
      <trkpt lat="48.07599" lon="6.85001">
        <ele>811.78280320178</ele>
        <time>2017-11-18T13:55:42.055Z</time>
      </trkpt>
      <trkpt lat="48.07595" lon="6.85013">
        <ele>811.18638135118</ele>
        <time>2017-11-18T13:55:48.055Z</time>
      </trkpt>
      <trkpt lat="48.07593" lon="6.85018">
        <ele>810.88659225806</ele>
        <time>2017-11-18T13:55:51.055Z</time>
      </trkpt>
      <trkpt lat="48.0759" lon="6.85027">
        <ele>810.38256</ele>
        <time>2017-11-18T13:55:56.055Z</time>
      </trkpt>
      <trkpt lat="48.07587" lon="6.85041">
        <ele>809.35899904</ele>
        <time>2017-11-18T13:56:03.055Z</time>
      </trkpt>
      <trkpt lat="48.07584" lon="6.85051">
        <ele>808</ele>
        <time>2017-11-18T13:56:20.055Z</time>
      </trkpt>
      <trkpt lat="48.0758" lon="6.8506">
        <ele>808</ele>
        <time>2017-11-18T13:56:25.055Z</time>
      </trkpt>
      <trkpt lat="48.07578" lon="6.85071">
        <ele>808</ele>
        <time>2017-11-18T13:56:31.055Z</time>
      </trkpt>
      <trkpt lat="48.07577" lon="6.85082">
        <ele>808</ele>
        <time>2017-11-18T13:56:37.055Z</time>
      </trkpt>
      <trkpt lat="48.07575" lon="6.8509">
        <ele>807.77993978128</ele>
        <time>2017-11-18T13:56:42.055Z</time>
      </trkpt>
      <trkpt lat="48.07571" lon="6.85099">
        <ele>807.28093810399</ele>
        <time>2017-11-18T13:56:47.055Z</time>
      </trkpt>
      <trkpt lat="48.07566" lon="6.85107">
        <ele>806.34970285714</ele>
        <time>2017-11-18T13:56:52.055Z</time>
      </trkpt>
      <trkpt lat="48.07564" lon="6.85114">
        <ele>805.15922666667</ele>
        <time>2017-11-18T13:56:56.055Z</time>
      </trkpt>
      <trkpt lat="48.07561" lon="6.85123">
        <ele>803.98948963955</ele>
        <time>2017-11-18T13:57:00.055Z</time>
      </trkpt>
      <trkpt lat="48.07558" lon="6.85129">
        <ele>803.48898865809</ele>
        <time>2017-11-18T13:57:05.055Z</time>
      </trkpt>
      <trkpt lat="48.07556" lon="6.85137">
        <ele>803.08858787292</ele>
        <time>2017-11-18T13:57:09.055Z</time>
      </trkpt>
      <trkpt lat="48.07554" lon="6.85143">
        <ele>803</ele>
        <time>2017-11-18T13:57:13.055Z</time>
      </trkpt>
      <trkpt lat="48.07551" lon="6.8515">
        <ele>803</ele>
        <time>2017-11-18T13:57:17.055Z</time>
      </trkpt>
      <trkpt lat="48.0755" lon="6.85158">
        <ele>802.78093746527</ele>
        <time>2017-11-18T13:57:22.055Z</time>
      </trkpt>
      <trkpt lat="48.07547" lon="6.85165">
        <ele>802.38173612344</ele>
        <time>2017-11-18T13:57:26.055Z</time>
      </trkpt>
      <trkpt lat="48.07545" lon="6.85173">
        <ele>801.94781261093</ele>
        <time>2017-11-18T13:57:30.055Z</time>
      </trkpt>
      <trkpt lat="48.07544" lon="6.85181">
        <ele>800.75496890972</ele>
        <time>2017-11-18T13:57:34.055Z</time>
      </trkpt>
      <trkpt lat="48.07543" lon="6.85191">
        <ele>799.26391428321</ele>
        <time>2017-11-18T13:57:39.055Z</time>
      </trkpt>
      <trkpt lat="48.07541" lon="6.85203">
        <ele>798.38294591065</ele>
        <time>2017-11-18T13:57:46.055Z</time>
      </trkpt>
      <trkpt lat="48.07538" lon="6.85216">
        <ele>797.67981959794</ele>
        <time>2017-11-18T13:57:53.055Z</time>
      </trkpt>
      <trkpt lat="48.07536" lon="6.8523">
        <ele>796.96111506724</ele>
        <time>2017-11-18T13:58:00.055Z</time>
      </trkpt>
      <trkpt lat="48.07533" lon="6.85244">
        <ele>795.56530295025</ele>
        <time>2017-11-18T13:58:07.055Z</time>
      </trkpt>
      <trkpt lat="48.07532" lon="6.85259">
        <ele>794.58598388168</ele>
        <time>2017-11-18T13:58:14.055Z</time>
      </trkpt>
      <trkpt lat="48.07531" lon="6.85273">
        <ele>793.77676785569</ele>
        <time>2017-11-18T13:58:21.055Z</time>
      </trkpt>
      <trkpt lat="48.07529" lon="6.85286">
        <ele>792.36262552735</ele>
        <time>2017-11-18T13:58:28.055Z</time>
      </trkpt>
      <trkpt lat="48.07528" lon="6.85299">
        <ele>791.15815746686</ele>
        <time>2017-11-18T13:58:34.055Z</time>
      </trkpt>
      <trkpt lat="48.07526" lon="6.85314">
        <ele>790</ele>
        <time>2017-11-18T13:58:41.055Z</time>
      </trkpt>
      <trkpt lat="48.07526" lon="6.85326">
        <ele>790</ele>
        <time>2017-11-18T13:58:47.055Z</time>
      </trkpt>
      <trkpt lat="48.07525" lon="6.85339">
        <ele>789.3571416614</ele>
        <time>2017-11-18T13:58:53.055Z</time>
      </trkpt>
      <trkpt lat="48.07524" lon="6.85355">
        <ele>787.75024835829</ele>
        <time>2017-11-18T13:59:01.055Z</time>
      </trkpt>
      <trkpt lat="48.07522" lon="6.85369">
        <ele>786.35721308886</ele>
        <time>2017-11-18T13:59:08.055Z</time>
      </trkpt>
      <trkpt lat="48.07522" lon="6.85384">
        <ele>785.28308478432</ele>
        <time>2017-11-18T13:59:17.055Z</time>
      </trkpt>
      <trkpt lat="48.07522" lon="6.85397">
        <ele>784.16566254222</ele>
        <time>2017-11-18T13:59:24.055Z</time>
      </trkpt>
      <trkpt lat="48.07522" lon="6.85411">
        <ele>782.8803796179</ele>
        <time>2017-11-18T13:59:31.055Z</time>
      </trkpt>
      <trkpt lat="48.07522" lon="6.85422">
        <ele>782.37987927772</ele>
        <time>2017-11-18T13:59:36.055Z</time>
      </trkpt>
      <trkpt lat="48.07521" lon="6.85435">
        <ele>781.55899904</ele>
        <time>2017-11-18T13:59:42.055Z</time>
      </trkpt>
      <trkpt lat="48.07521" lon="6.85449">
        <ele>779.56075601594</ele>
        <time>2017-11-18T13:59:52.055Z</time>
      </trkpt>
      <trkpt lat="48.07521" lon="6.85463">
        <ele>777.96726095238</ele>
        <time>2017-11-18T14:00:00.055Z</time>
      </trkpt>
      <trkpt lat="48.07522" lon="6.85478">
        <ele>776.7767847619</ele>
        <time>2017-11-18T14:00:06.055Z</time>
      </trkpt>
      <trkpt lat="48.07522" lon="6.85489">
        <ele>775.78789378217</ele>
        <time>2017-11-18T14:00:12.055Z</time>
      </trkpt>
      <trkpt lat="48.07523" lon="6.85501">
        <ele>775</ele>
        <time>2017-11-18T14:00:20.055Z</time>
      </trkpt>
      <trkpt lat="48.07525" lon="6.85513">
        <ele>775</ele>
        <time>2017-11-18T14:00:27.055Z</time>
      </trkpt>
      <trkpt lat="48.07527" lon="6.85525">
        <ele>774.32349952</ele>
        <time>2017-11-18T14:00:32.055Z</time>
      </trkpt>
      <trkpt lat="48.07526" lon="6.85538">
        <ele>772.82349952</ele>
        <time>2017-11-18T14:00:37.055Z</time>
      </trkpt>
      <trkpt lat="48.07526" lon="6.85551">
        <ele>771.35029949681</ele>
        <time>2017-11-18T14:00:43.055Z</time>
      </trkpt>
      <trkpt lat="48.07527" lon="6.85561">
        <ele>770.15269547133</ele>
        <time>2017-11-18T14:00:49.055Z</time>
      </trkpt>
      <trkpt lat="48.07528" lon="6.85571">
        <ele>769.57565151144</ele>
        <time>2017-11-18T14:00:54.055Z</time>
      </trkpt>
      <trkpt lat="48.0753" lon="6.85581">
        <ele>769.07464918615</ele>
        <time>2017-11-18T14:00:59.055Z</time>
      </trkpt>
      <trkpt lat="48.07527" lon="6.85579">
        <ele>768</ele>
        <time>2017-11-18T14:01:36.055Z</time>
      </trkpt>
      <trkpt lat="48.07532" lon="6.85586">
        <ele>768</ele>
        <time>2017-11-18T14:02:31.055Z</time>
      </trkpt>
      <trkpt lat="48.07533" lon="6.85595">
        <ele>768</ele>
        <time>2017-11-18T14:02:35.055Z</time>
      </trkpt>
      <trkpt lat="48.07536" lon="6.85606">
        <ele>767.87449984</ele>
        <time>2017-11-18T14:02:41.055Z</time>
      </trkpt>
      <trkpt lat="48.07539" lon="6.8562">
        <ele>767.07449984</ele>
        <time>2017-11-18T14:02:49.055Z</time>
      </trkpt>
      <trkpt lat="48.07543" lon="6.85632">
        <ele>767</ele>
        <time>2017-11-18T14:02:57.055Z</time>
      </trkpt>
      <trkpt lat="48.07548" lon="6.85646">
        <ele>765.14723487572</ele>
        <time>2017-11-18T14:03:06.055Z</time>
      </trkpt>
      <trkpt lat="48.07552" lon="6.8566">
        <ele>764</ele>
        <time>2017-11-18T14:03:12.055Z</time>
      </trkpt>
      <trkpt lat="48.0756" lon="6.8567">
        <ele>764</ele>
        <time>2017-11-18T14:03:18.055Z</time>
      </trkpt>
      <trkpt lat="48.07564" lon="6.85684">
        <ele>763.17839206323</ele>
        <time>2017-11-18T14:03:28.055Z</time>
      </trkpt>
      <trkpt lat="48.07568" lon="6.85699">
        <ele>760.83898146104</ele>
        <time>2017-11-18T14:03:37.055Z</time>
      </trkpt>
      <trkpt lat="48.07572" lon="6.85707">
        <ele>760</ele>
        <time>2017-11-18T14:03:43.055Z</time>
      </trkpt>
      <trkpt lat="48.07576" lon="6.85717">
        <ele>760</ele>
        <time>2017-11-18T14:03:49.055Z</time>
      </trkpt>
      <trkpt lat="48.07581" lon="6.85726">
        <ele>758.56499968</ele>
        <time>2017-11-18T14:03:57.055Z</time>
      </trkpt>
      <trkpt lat="48.07586" lon="6.85739">
        <ele>757.47885163468</ele>
        <time>2017-11-18T14:04:05.055Z</time>
      </trkpt>
      <trkpt lat="48.0759" lon="6.85746">
        <ele>756.97562140517</ele>
        <time>2017-11-18T14:04:10.055Z</time>
      </trkpt>
      <trkpt lat="48.07595" lon="6.85756">
        <ele>756.27910377046</ele>
        <time>2017-11-18T14:04:17.055Z</time>
      </trkpt>
      <trkpt lat="48.076" lon="6.85765">
        <ele>755.68397556986</ele>
        <time>2017-11-18T14:04:23.055Z</time>
      </trkpt>
      <trkpt lat="48.07604" lon="6.85773">
        <ele>755.18941588466</ele>
        <time>2017-11-18T14:04:28.055Z</time>
      </trkpt>
      <trkpt lat="48.07607" lon="6.85782">
        <ele>754.17557951949</ele>
        <time>2017-11-18T14:04:34.055Z</time>
      </trkpt>
      <trkpt lat="48.07613" lon="6.85795">
        <ele>752.78422603175</ele>
        <time>2017-11-18T14:04:42.055Z</time>
      </trkpt>
      <trkpt lat="48.07618" lon="6.85808">
        <ele>751.98082713031</ele>
        <time>2017-11-18T14:04:50.055Z</time>
      </trkpt>
      <trkpt lat="48.07622" lon="6.85819">
        <ele>750.56811315661</ele>
        <time>2017-11-18T14:04:57.055Z</time>
      </trkpt>
      <trkpt lat="48.07627" lon="6.85828">
        <ele>749.58150016</ele>
        <time>2017-11-18T14:05:04.055Z</time>
      </trkpt>
      <trkpt lat="48.07633" lon="6.85834">
        <ele>748.67957741945</ele>
        <time>2017-11-18T14:05:13.055Z</time>
      </trkpt>
      <trkpt lat="48.07635" lon="6.85839">
        <ele>748</ele>
        <time>2017-11-18T14:05:22.055Z</time>
      </trkpt>
      <trkpt lat="48.07637" lon="6.85846">
        <ele>747</ele>
        <time>2017-11-18T14:06:38.055Z</time>
      </trkpt>
      <trkpt lat="48.07641" lon="6.85853">
        <ele>747</ele>
        <time>2017-11-18T14:06:45.055Z</time>
      </trkpt>
      <trkpt lat="48.07644" lon="6.85859">
        <ele>746.68546731707</ele>
        <time>2017-11-18T14:06:53.055Z</time>
      </trkpt>
      <trkpt lat="48.07647" lon="6.85866">
        <ele>746</ele>
        <time>2017-11-18T14:07:58.055Z</time>
      </trkpt>
      <trkpt lat="48.07648" lon="6.85873">
        <ele>745.61381764696</ele>
        <time>2017-11-18T14:08:36.055Z</time>
      </trkpt>
      <trkpt lat="48.07651" lon="6.8588">
        <ele>746</ele>
        <time>2017-11-18T14:08:42.055Z</time>
      </trkpt>
      <trkpt lat="48.07655" lon="6.85885">
        <ele>746</ele>
        <time>2017-11-18T14:08:47.055Z</time>
      </trkpt>
      <trkpt lat="48.07656" lon="6.85892">
        <ele>744.36518994595</ele>
        <time>2017-11-18T14:09:04.055Z</time>
      </trkpt>
      <trkpt lat="48.07657" lon="6.85899">
        <ele>743.3591543764</ele>
        <time>2017-11-18T14:09:09.055Z</time>
      </trkpt>
      <trkpt lat="48.07658" lon="6.85906">
        <ele>743</ele>
        <time>2017-11-18T14:09:14.055Z</time>
      </trkpt>
      <trkpt lat="48.07659" lon="6.85914">
        <ele>743</ele>
        <time>2017-11-18T14:09:19.055Z</time>
      </trkpt>
      <trkpt lat="48.07662" lon="6.85922">
        <ele>742.78871170069</ele>
        <time>2017-11-18T14:09:23.055Z</time>
      </trkpt>
      <trkpt lat="48.07666" lon="6.85931">
        <ele>742.18931090967</ele>
        <time>2017-11-18T14:09:29.055Z</time>
      </trkpt>
      <trkpt lat="48.0767" lon="6.85935">
        <ele>741.68668038372</ele>
        <time>2017-11-18T14:09:34.055Z</time>
      </trkpt>
      <trkpt lat="48.07675" lon="6.85938">
        <ele>741.18213967883</ele>
        <time>2017-11-18T14:09:39.055Z</time>
      </trkpt>
      <trkpt lat="48.0768" lon="6.85943">
        <ele>741</ele>
        <time>2017-11-18T14:09:44.055Z</time>
      </trkpt>
      <trkpt lat="48.07683" lon="6.85948">
        <ele>741</ele>
        <time>2017-11-18T14:09:48.055Z</time>
      </trkpt>
      <trkpt lat="48.07687" lon="6.85955">
        <ele>741.45100032</ele>
        <time>2017-11-18T14:09:53.055Z</time>
      </trkpt>
      <trkpt lat="48.0769" lon="6.85966">
        <ele>742.85100032</ele>
        <time>2017-11-18T14:10:00.055Z</time>
      </trkpt>
      <trkpt lat="48.07696" lon="6.85975">
        <ele>743.82550016</ele>
        <time>2017-11-18T14:10:09.055Z</time>
      </trkpt>
      <trkpt lat="48.07698" lon="6.85973">
        <ele>744.12302652632</ele>
        <time>2017-11-18T14:10:12.055Z</time>
      </trkpt>
    </trkseg>
  </trk>
</gpx>